<?xml version="1.0" encoding="UTF-8" standalone="no" ?>
<gpx xmlns="http://www.topografix.com/GPX/1/1" xmlns:xsi="http://www.w3.org/2001/XMLSchema-instance" xsi:schemaLocation="http://www.topografix.com/GPX/1/1 http://www.topografix.com/GPX/1/1/gpx.xsd" version="1.1" creator="VisuGPX - https://www.visugpx.com">
  <metadata>
    <name>RSPG Sommet des Templiers</name>
    <desc><![CDATA[A la Roche des Arnauds route des Baux chemin du gîte de Matachare, Monter dans le vallon de ventecul jusqu'au col du même nom. passer ensuite par le col de Garcinel, monter ensuite jusqu'au col de Conode. A partir de ce col monter à travers bois jusqu'au sommet des Templiers. retour vers le point de départ par le chemin de Conode et le chemin de Matchare.]]></desc>
  </metadata>
  <trk>
    <name><![CDATA[Sommet des Templiers: 26 MAI 2016 09:07]]></name>
    <trkseg>
      <trkpt lat="44.57527" lon="5.9363">
        <ele>1311.86</ele>
        <time>2016-05-26T07:07:29Z</time>
      </trkpt>
      <trkpt lat="44.57527" lon="5.93629">
        <ele>1311.86</ele>
        <time>2016-05-26T07:07:30Z</time>
      </trkpt>
      <trkpt lat="44.57527" lon="5.93629">
        <ele>1276.29</ele>
        <time>2016-05-26T07:07:34Z</time>
      </trkpt>
      <trkpt lat="44.57527" lon="5.93628">
        <ele>1276.29</ele>
        <time>2016-05-26T07:07:35Z</time>
      </trkpt>
      <trkpt lat="44.57525" lon="5.93625">
        <ele>1276.29</ele>
        <time>2016-05-26T07:08:03Z</time>
      </trkpt>
      <trkpt lat="44.57525" lon="5.93629">
        <ele>1275.81</ele>
        <time>2016-05-26T07:08:24Z</time>
      </trkpt>
      <trkpt lat="44.57526" lon="5.93628">
        <ele>1275.81</ele>
        <time>2016-05-26T07:08:41Z</time>
      </trkpt>
      <trkpt lat="44.57526" lon="5.93631">
        <ele>1275.81</ele>
        <time>2016-05-26T07:09:04Z</time>
      </trkpt>
      <trkpt lat="44.57524" lon="5.93629">
        <ele>1275.81</ele>
        <time>2016-05-26T07:09:19Z</time>
      </trkpt>
      <trkpt lat="44.57525" lon="5.93631">
        <ele>1275.81</ele>
        <time>2016-05-26T07:09:31Z</time>
      </trkpt>
      <trkpt lat="44.57525" lon="5.93632">
        <ele>1275.81</ele>
        <time>2016-05-26T07:09:46Z</time>
      </trkpt>
      <trkpt lat="44.57524" lon="5.93629">
        <ele>1275.81</ele>
        <time>2016-05-26T07:10:00Z</time>
      </trkpt>
      <trkpt lat="44.57522" lon="5.9363">
        <ele>1275.81</ele>
        <time>2016-05-26T07:10:26Z</time>
      </trkpt>
      <trkpt lat="44.57524" lon="5.9363">
        <ele>1275.81</ele>
        <time>2016-05-26T07:10:47Z</time>
      </trkpt>
      <trkpt lat="44.57525" lon="5.93629">
        <ele>1275.81</ele>
        <time>2016-05-26T07:11:07Z</time>
      </trkpt>
      <trkpt lat="44.57524" lon="5.9363">
        <ele>1276.29</ele>
        <time>2016-05-26T07:11:23Z</time>
      </trkpt>
      <trkpt lat="44.57525" lon="5.9363">
        <ele>1276.29</ele>
        <time>2016-05-26T07:11:45Z</time>
      </trkpt>
      <trkpt lat="44.57524" lon="5.93632">
        <ele>1276.29</ele>
        <time>2016-05-26T07:11:54Z</time>
      </trkpt>
      <trkpt lat="44.57517" lon="5.93626">
        <ele>1276.29</ele>
        <time>2016-05-26T07:12:05Z</time>
      </trkpt>
      <trkpt lat="44.57514" lon="5.93627">
        <ele>1275.33</ele>
        <time>2016-05-26T07:12:20Z</time>
      </trkpt>
      <trkpt lat="44.57509" lon="5.9363">
        <ele>1275.33</ele>
        <time>2016-05-26T07:12:29Z</time>
      </trkpt>
      <trkpt lat="44.57497" lon="5.93634">
        <ele>1273.88</ele>
        <time>2016-05-26T07:12:43Z</time>
      </trkpt>
      <trkpt lat="44.57485" lon="5.93639">
        <ele>1271.96</ele>
        <time>2016-05-26T07:12:59Z</time>
      </trkpt>
      <trkpt lat="44.57473" lon="5.93644">
        <ele>1270.52</ele>
        <time>2016-05-26T07:13:14Z</time>
      </trkpt>
      <trkpt lat="44.57459" lon="5.93649">
        <ele>1268.6</ele>
        <time>2016-05-26T07:13:31Z</time>
      </trkpt>
      <trkpt lat="44.57452" lon="5.93651">
        <ele>1267.64</ele>
        <time>2016-05-26T07:13:43Z</time>
      </trkpt>
      <trkpt lat="44.57442" lon="5.93657">
        <ele>1265.71</ele>
        <time>2016-05-26T07:13:56Z</time>
      </trkpt>
      <trkpt lat="44.57434" lon="5.9366">
        <ele>1265.23</ele>
        <time>2016-05-26T07:14:04Z</time>
      </trkpt>
      <trkpt lat="44.57419" lon="5.93668">
        <ele>1263.31</ele>
        <time>2016-05-26T07:14:21Z</time>
      </trkpt>
      <trkpt lat="44.57404" lon="5.93672">
        <ele>1261.39</ele>
        <time>2016-05-26T07:14:39Z</time>
      </trkpt>
      <trkpt lat="44.57401" lon="5.93673">
        <ele>1260.91</ele>
        <time>2016-05-26T07:14:43Z</time>
      </trkpt>
      <trkpt lat="44.57399" lon="5.9368">
        <ele>1259.94</ele>
        <time>2016-05-26T07:14:50Z</time>
      </trkpt>
      <trkpt lat="44.57399" lon="5.9369">
        <ele>1258.98</ele>
        <time>2016-05-26T07:14:59Z</time>
      </trkpt>
      <trkpt lat="44.57402" lon="5.93703">
        <ele>1257.54</ele>
        <time>2016-05-26T07:15:11Z</time>
      </trkpt>
      <trkpt lat="44.57405" lon="5.9371">
        <ele>1256.58</ele>
        <time>2016-05-26T07:15:18Z</time>
      </trkpt>
      <trkpt lat="44.57415" lon="5.93723">
        <ele>1255.14</ele>
        <time>2016-05-26T07:15:32Z</time>
      </trkpt>
      <trkpt lat="44.57422" lon="5.93737">
        <ele>1255.14</ele>
        <time>2016-05-26T07:15:46Z</time>
      </trkpt>
      <trkpt lat="44.5743" lon="5.93751">
        <ele>1252.25</ele>
        <time>2016-05-26T07:16:01Z</time>
      </trkpt>
      <trkpt lat="44.57439" lon="5.93762">
        <ele>1251.29</ele>
        <time>2016-05-26T07:16:15Z</time>
      </trkpt>
      <trkpt lat="44.57442" lon="5.93766">
        <ele>1250.81</ele>
        <time>2016-05-26T07:16:20Z</time>
      </trkpt>
      <trkpt lat="44.57452" lon="5.93781">
        <ele>1249.37</ele>
        <time>2016-05-26T07:16:36Z</time>
      </trkpt>
      <trkpt lat="44.5746" lon="5.93793">
        <ele>1248.41</ele>
        <time>2016-05-26T07:16:49Z</time>
      </trkpt>
      <trkpt lat="44.57466" lon="5.93805">
        <ele>1247.93</ele>
        <time>2016-05-26T07:17:02Z</time>
      </trkpt>
      <trkpt lat="44.57473" lon="5.93817">
        <ele>1247.45</ele>
        <time>2016-05-26T07:17:14Z</time>
      </trkpt>
      <trkpt lat="44.5748" lon="5.93828">
        <ele>1246.97</ele>
        <time>2016-05-26T07:17:27Z</time>
      </trkpt>
      <trkpt lat="44.57488" lon="5.93842">
        <ele>1246.01</ele>
        <time>2016-05-26T07:17:41Z</time>
      </trkpt>
      <trkpt lat="44.57495" lon="5.93851">
        <ele>1245.04</ele>
        <time>2016-05-26T07:17:54Z</time>
      </trkpt>
      <trkpt lat="44.57502" lon="5.9386">
        <ele>1243.6</ele>
        <time>2016-05-26T07:18:05Z</time>
      </trkpt>
      <trkpt lat="44.57511" lon="5.93874">
        <ele>1242.16</ele>
        <time>2016-05-26T07:18:21Z</time>
      </trkpt>
      <trkpt lat="44.57513" lon="5.93886">
        <ele>1240.72</ele>
        <time>2016-05-26T07:18:32Z</time>
      </trkpt>
      <trkpt lat="44.57512" lon="5.93902">
        <ele>1238.8</ele>
        <time>2016-05-26T07:18:46Z</time>
      </trkpt>
      <trkpt lat="44.57516" lon="5.9391">
        <ele>1238.8</ele>
        <time>2016-05-26T07:18:56Z</time>
      </trkpt>
      <trkpt lat="44.57522" lon="5.93916">
        <ele>1240.24</ele>
        <time>2016-05-26T07:19:07Z</time>
      </trkpt>
      <trkpt lat="44.57527" lon="5.9392">
        <ele>1243.12</ele>
        <time>2016-05-26T07:19:20Z</time>
      </trkpt>
      <trkpt lat="44.57531" lon="5.9392">
        <ele>1244.08</ele>
        <time>2016-05-26T07:19:32Z</time>
      </trkpt>
      <trkpt lat="44.57537" lon="5.93928">
        <ele>1246.49</ele>
        <time>2016-05-26T07:19:46Z</time>
      </trkpt>
      <trkpt lat="44.57538" lon="5.93933">
        <ele>1246.49</ele>
        <time>2016-05-26T07:19:59Z</time>
      </trkpt>
      <trkpt lat="44.57544" lon="5.93934">
        <ele>1247.93</ele>
        <time>2016-05-26T07:20:12Z</time>
      </trkpt>
      <trkpt lat="44.57549" lon="5.93937">
        <ele>1248.89</ele>
        <time>2016-05-26T07:20:25Z</time>
      </trkpt>
      <trkpt lat="44.57553" lon="5.93943">
        <ele>1251.29</ele>
        <time>2016-05-26T07:20:39Z</time>
      </trkpt>
      <trkpt lat="44.57558" lon="5.93949">
        <ele>1252.74</ele>
        <time>2016-05-26T07:20:53Z</time>
      </trkpt>
      <trkpt lat="44.57562" lon="5.93954">
        <ele>1254.18</ele>
        <time>2016-05-26T07:21:05Z</time>
      </trkpt>
      <trkpt lat="44.57567" lon="5.93955">
        <ele>1256.58</ele>
        <time>2016-05-26T07:21:18Z</time>
      </trkpt>
      <trkpt lat="44.57574" lon="5.93957">
        <ele>1258.5</ele>
        <time>2016-05-26T07:21:32Z</time>
      </trkpt>
      <trkpt lat="44.5758" lon="5.93961">
        <ele>1260.91</ele>
        <time>2016-05-26T07:21:46Z</time>
      </trkpt>
      <trkpt lat="44.57587" lon="5.93964">
        <ele>1263.31</ele>
        <time>2016-05-26T07:22:01Z</time>
      </trkpt>
      <trkpt lat="44.57594" lon="5.93972">
        <ele>1265.23</ele>
        <time>2016-05-26T07:22:12Z</time>
      </trkpt>
      <trkpt lat="44.57597" lon="5.93971">
        <ele>1266.67</ele>
        <time>2016-05-26T07:22:25Z</time>
      </trkpt>
      <trkpt lat="44.57603" lon="5.93972">
        <ele>1269.08</ele>
        <time>2016-05-26T07:22:38Z</time>
      </trkpt>
      <trkpt lat="44.57609" lon="5.93978">
        <ele>1271.96</ele>
        <time>2016-05-26T07:22:51Z</time>
      </trkpt>
      <trkpt lat="44.57614" lon="5.93984">
        <ele>1274.36</ele>
        <time>2016-05-26T07:23:06Z</time>
      </trkpt>
      <trkpt lat="44.5762" lon="5.93988">
        <ele>1276.77</ele>
        <time>2016-05-26T07:23:22Z</time>
      </trkpt>
      <trkpt lat="44.57622" lon="5.93987">
        <ele>1277.73</ele>
        <time>2016-05-26T07:23:36Z</time>
      </trkpt>
      <trkpt lat="44.5762" lon="5.93983">
        <ele>1278.69</ele>
        <time>2016-05-26T07:23:53Z</time>
      </trkpt>
      <trkpt lat="44.57621" lon="5.93985">
        <ele>1278.69</ele>
        <time>2016-05-26T07:24:13Z</time>
      </trkpt>
      <trkpt lat="44.57622" lon="5.93987">
        <ele>1278.69</ele>
        <time>2016-05-26T07:24:41Z</time>
      </trkpt>
      <trkpt lat="44.57621" lon="5.93988">
        <ele>1278.69</ele>
        <time>2016-05-26T07:25:02Z</time>
      </trkpt>
      <trkpt lat="44.5762" lon="5.93989">
        <ele>1278.69</ele>
        <time>2016-05-26T07:25:24Z</time>
      </trkpt>
      <trkpt lat="44.57623" lon="5.93991">
        <ele>1279.17</ele>
        <time>2016-05-26T07:25:50Z</time>
      </trkpt>
      <trkpt lat="44.57628" lon="5.93997">
        <ele>1281.09</ele>
        <time>2016-05-26T07:26:05Z</time>
      </trkpt>
      <trkpt lat="44.57634" lon="5.94004">
        <ele>1282.54</ele>
        <time>2016-05-26T07:26:18Z</time>
      </trkpt>
      <trkpt lat="44.57642" lon="5.94006">
        <ele>1284.94</ele>
        <time>2016-05-26T07:26:32Z</time>
      </trkpt>
      <trkpt lat="44.57647" lon="5.94011">
        <ele>1286.86</ele>
        <time>2016-05-26T07:26:43Z</time>
      </trkpt>
      <trkpt lat="44.57652" lon="5.94021">
        <ele>1290.23</ele>
        <time>2016-05-26T07:26:59Z</time>
      </trkpt>
      <trkpt lat="44.57656" lon="5.94027">
        <ele>1292.63</ele>
        <time>2016-05-26T07:27:14Z</time>
      </trkpt>
      <trkpt lat="44.57661" lon="5.94032">
        <ele>1294.55</ele>
        <time>2016-05-26T07:27:25Z</time>
      </trkpt>
      <trkpt lat="44.57662" lon="5.94039">
        <ele>1296.48</ele>
        <time>2016-05-26T07:27:39Z</time>
      </trkpt>
      <trkpt lat="44.57665" lon="5.94044">
        <ele>1297.92</ele>
        <time>2016-05-26T07:27:51Z</time>
      </trkpt>
      <trkpt lat="44.57668" lon="5.94045">
        <ele>1299.36</ele>
        <time>2016-05-26T07:28:03Z</time>
      </trkpt>
      <trkpt lat="44.57668" lon="5.94052">
        <ele>1301.28</ele>
        <time>2016-05-26T07:28:16Z</time>
      </trkpt>
      <trkpt lat="44.57669" lon="5.94059">
        <ele>1302.72</ele>
        <time>2016-05-26T07:28:30Z</time>
      </trkpt>
      <trkpt lat="44.5767" lon="5.94066">
        <ele>1304.17</ele>
        <time>2016-05-26T07:28:42Z</time>
      </trkpt>
      <trkpt lat="44.57673" lon="5.94074">
        <ele>1306.57</ele>
        <time>2016-05-26T07:28:56Z</time>
      </trkpt>
      <trkpt lat="44.57678" lon="5.94078">
        <ele>1308.01</ele>
        <time>2016-05-26T07:29:11Z</time>
      </trkpt>
      <trkpt lat="44.57681" lon="5.94083">
        <ele>1309.93</ele>
        <time>2016-05-26T07:29:27Z</time>
      </trkpt>
      <trkpt lat="44.57686" lon="5.94087">
        <ele>1311.86</ele>
        <time>2016-05-26T07:29:43Z</time>
      </trkpt>
      <trkpt lat="44.57689" lon="5.94088">
        <ele>1313.78</ele>
        <time>2016-05-26T07:29:54Z</time>
      </trkpt>
      <trkpt lat="44.5769" lon="5.94086">
        <ele>1314.74</ele>
        <time>2016-05-26T07:30:06Z</time>
      </trkpt>
      <trkpt lat="44.57696" lon="5.94086">
        <ele>1316.66</ele>
        <time>2016-05-26T07:30:20Z</time>
      </trkpt>
      <trkpt lat="44.57701" lon="5.94088">
        <ele>1319.07</ele>
        <time>2016-05-26T07:30:34Z</time>
      </trkpt>
      <trkpt lat="44.57705" lon="5.94091">
        <ele>1321.47</ele>
        <time>2016-05-26T07:30:50Z</time>
      </trkpt>
      <trkpt lat="44.57704" lon="5.94091">
        <ele>1320.99</ele>
        <time>2016-05-26T07:31:02Z</time>
      </trkpt>
      <trkpt lat="44.57704" lon="5.94091">
        <ele>1320.99</ele>
        <time>2016-05-26T07:31:24Z</time>
      </trkpt>
      <trkpt lat="44.57706" lon="5.9409">
        <ele>1320.99</ele>
        <time>2016-05-26T07:31:37Z</time>
      </trkpt>
      <trkpt lat="44.57701" lon="5.94091">
        <ele>1321.95</ele>
        <time>2016-05-26T07:31:54Z</time>
      </trkpt>
      <trkpt lat="44.57703" lon="5.94089">
        <ele>1321.95</ele>
        <time>2016-05-26T07:32:26Z</time>
      </trkpt>
      <trkpt lat="44.57702" lon="5.94089">
        <ele>1322.43</ele>
        <time>2016-05-26T07:32:56Z</time>
      </trkpt>
      <trkpt lat="44.57699" lon="5.94092">
        <ele>1322.43</ele>
        <time>2016-05-26T07:33:29Z</time>
      </trkpt>
      <trkpt lat="44.57702" lon="5.94095">
        <ele>1322.91</ele>
        <time>2016-05-26T07:33:54Z</time>
      </trkpt>
      <trkpt lat="44.57706" lon="5.94093">
        <ele>1323.39</ele>
        <time>2016-05-26T07:34:10Z</time>
      </trkpt>
      <trkpt lat="44.57709" lon="5.94094">
        <ele>1323.87</ele>
        <time>2016-05-26T07:34:28Z</time>
      </trkpt>
      <trkpt lat="44.57711" lon="5.941">
        <ele>1325.31</ele>
        <time>2016-05-26T07:34:40Z</time>
      </trkpt>
      <trkpt lat="44.57714" lon="5.94102">
        <ele>1328.2</ele>
        <time>2016-05-26T07:34:54Z</time>
      </trkpt>
      <trkpt lat="44.57718" lon="5.94103">
        <ele>1330.6</ele>
        <time>2016-05-26T07:35:07Z</time>
      </trkpt>
      <trkpt lat="44.57722" lon="5.94103">
        <ele>1333.01</ele>
        <time>2016-05-26T07:35:22Z</time>
      </trkpt>
      <trkpt lat="44.57729" lon="5.94102">
        <ele>1335.41</ele>
        <time>2016-05-26T07:35:39Z</time>
      </trkpt>
      <trkpt lat="44.57734" lon="5.94103">
        <ele>1337.33</ele>
        <time>2016-05-26T07:35:53Z</time>
      </trkpt>
      <trkpt lat="44.57736" lon="5.94103">
        <ele>1337.81</ele>
        <time>2016-05-26T07:36:01Z</time>
      </trkpt>
      <trkpt lat="44.57741" lon="5.94107">
        <ele>1339.73</ele>
        <time>2016-05-26T07:36:15Z</time>
      </trkpt>
      <trkpt lat="44.57746" lon="5.94112">
        <ele>1340.7</ele>
        <time>2016-05-26T07:36:28Z</time>
      </trkpt>
      <trkpt lat="44.5775" lon="5.94115">
        <ele>1343.1</ele>
        <time>2016-05-26T07:36:42Z</time>
      </trkpt>
      <trkpt lat="44.57754" lon="5.9412">
        <ele>1345.5</ele>
        <time>2016-05-26T07:36:56Z</time>
      </trkpt>
      <trkpt lat="44.57755" lon="5.94122">
        <ele>1347.43</ele>
        <time>2016-05-26T07:37:09Z</time>
      </trkpt>
      <trkpt lat="44.57756" lon="5.94125">
        <ele>1349.35</ele>
        <time>2016-05-26T07:37:22Z</time>
      </trkpt>
      <trkpt lat="44.57759" lon="5.94129">
        <ele>1351.27</ele>
        <time>2016-05-26T07:37:35Z</time>
      </trkpt>
      <trkpt lat="44.57764" lon="5.94133">
        <ele>1353.19</ele>
        <time>2016-05-26T07:37:49Z</time>
      </trkpt>
      <trkpt lat="44.57768" lon="5.94137">
        <ele>1354.63</ele>
        <time>2016-05-26T07:38:02Z</time>
      </trkpt>
      <trkpt lat="44.57771" lon="5.94139">
        <ele>1356.08</ele>
        <time>2016-05-26T07:38:11Z</time>
      </trkpt>
      <trkpt lat="44.57776" lon="5.9414">
        <ele>1357.52</ele>
        <time>2016-05-26T07:38:23Z</time>
      </trkpt>
      <trkpt lat="44.5778" lon="5.94144">
        <ele>1358.96</ele>
        <time>2016-05-26T07:38:38Z</time>
      </trkpt>
      <trkpt lat="44.57783" lon="5.94148">
        <ele>1360.88</ele>
        <time>2016-05-26T07:38:49Z</time>
      </trkpt>
      <trkpt lat="44.57786" lon="5.94149">
        <ele>1362.81</ele>
        <time>2016-05-26T07:39:02Z</time>
      </trkpt>
      <trkpt lat="44.57788" lon="5.94149">
        <ele>1363.77</ele>
        <time>2016-05-26T07:39:14Z</time>
      </trkpt>
      <trkpt lat="44.57788" lon="5.94149">
        <ele>1364.25</ele>
        <time>2016-05-26T07:39:27Z</time>
      </trkpt>
      <trkpt lat="44.57789" lon="5.94148">
        <ele>1365.69</ele>
        <time>2016-05-26T07:39:43Z</time>
      </trkpt>
      <trkpt lat="44.57789" lon="5.94148">
        <ele>1365.21</ele>
        <time>2016-05-26T07:40:15Z</time>
      </trkpt>
      <trkpt lat="44.57789" lon="5.94149">
        <ele>1365.69</ele>
        <time>2016-05-26T07:40:49Z</time>
      </trkpt>
      <trkpt lat="44.57789" lon="5.94148">
        <ele>1365.69</ele>
        <time>2016-05-26T07:41:20Z</time>
      </trkpt>
      <trkpt lat="44.57789" lon="5.9415">
        <ele>1366.17</ele>
        <time>2016-05-26T07:41:49Z</time>
      </trkpt>
      <trkpt lat="44.57788" lon="5.94152">
        <ele>1366.17</ele>
        <time>2016-05-26T07:42:16Z</time>
      </trkpt>
      <trkpt lat="44.57789" lon="5.9415">
        <ele>1366.65</ele>
        <time>2016-05-26T07:42:45Z</time>
      </trkpt>
      <trkpt lat="44.5779" lon="5.94151">
        <ele>1366.65</ele>
        <time>2016-05-26T07:43:11Z</time>
      </trkpt>
      <trkpt lat="44.57793" lon="5.94155">
        <ele>1368.57</ele>
        <time>2016-05-26T07:43:25Z</time>
      </trkpt>
      <trkpt lat="44.57794" lon="5.94154">
        <ele>1368.57</ele>
        <time>2016-05-26T07:43:41Z</time>
      </trkpt>
      <trkpt lat="44.57793" lon="5.94154">
        <ele>1368.57</ele>
        <time>2016-05-26T07:43:57Z</time>
      </trkpt>
      <trkpt lat="44.57792" lon="5.94153">
        <ele>1369.05</ele>
        <time>2016-05-26T07:44:19Z</time>
      </trkpt>
      <trkpt lat="44.57792" lon="5.94152">
        <ele>1369.05</ele>
        <time>2016-05-26T07:44:51Z</time>
      </trkpt>
      <trkpt lat="44.57792" lon="5.94153">
        <ele>1369.54</ele>
        <time>2016-05-26T07:45:22Z</time>
      </trkpt>
      <trkpt lat="44.57792" lon="5.94154">
        <ele>1369.54</ele>
        <time>2016-05-26T07:45:48Z</time>
      </trkpt>
      <trkpt lat="44.57793" lon="5.94152">
        <ele>1369.54</ele>
        <time>2016-05-26T07:46:30Z</time>
      </trkpt>
      <trkpt lat="44.57797" lon="5.94157">
        <ele>1370.5</ele>
        <time>2016-05-26T07:46:55Z</time>
      </trkpt>
      <trkpt lat="44.57803" lon="5.94157">
        <ele>1372.42</ele>
        <time>2016-05-26T07:47:07Z</time>
      </trkpt>
      <trkpt lat="44.57807" lon="5.9416">
        <ele>1373.86</ele>
        <time>2016-05-26T07:47:19Z</time>
      </trkpt>
      <trkpt lat="44.5781" lon="5.94164">
        <ele>1375.78</ele>
        <time>2016-05-26T07:47:33Z</time>
      </trkpt>
      <trkpt lat="44.57812" lon="5.94167">
        <ele>1377.71</ele>
        <time>2016-05-26T07:47:45Z</time>
      </trkpt>
      <trkpt lat="44.57819" lon="5.94172">
        <ele>1381.07</ele>
        <time>2016-05-26T07:48:03Z</time>
      </trkpt>
      <trkpt lat="44.57823" lon="5.94176">
        <ele>1382.99</ele>
        <time>2016-05-26T07:48:16Z</time>
      </trkpt>
      <trkpt lat="44.57825" lon="5.94181">
        <ele>1384.92</ele>
        <time>2016-05-26T07:48:29Z</time>
      </trkpt>
      <trkpt lat="44.57829" lon="5.94187">
        <ele>1387.8</ele>
        <time>2016-05-26T07:48:46Z</time>
      </trkpt>
      <trkpt lat="44.57831" lon="5.94191">
        <ele>1390.2</ele>
        <time>2016-05-26T07:48:58Z</time>
      </trkpt>
      <trkpt lat="44.57836" lon="5.94195">
        <ele>1392.13</ele>
        <time>2016-05-26T07:49:14Z</time>
      </trkpt>
      <trkpt lat="44.5784" lon="5.94191">
        <ele>1391.65</ele>
        <time>2016-05-26T07:49:30Z</time>
      </trkpt>
      <trkpt lat="44.57845" lon="5.94195">
        <ele>1393.57</ele>
        <time>2016-05-26T07:49:44Z</time>
      </trkpt>
      <trkpt lat="44.57846" lon="5.94198">
        <ele>1395.49</ele>
        <time>2016-05-26T07:49:57Z</time>
      </trkpt>
      <trkpt lat="44.57855" lon="5.942">
        <ele>1397.89</ele>
        <time>2016-05-26T07:50:14Z</time>
      </trkpt>
      <trkpt lat="44.57852" lon="5.94207">
        <ele>1399.82</ele>
        <time>2016-05-26T07:50:29Z</time>
      </trkpt>
      <trkpt lat="44.57857" lon="5.94213">
        <ele>1402.22</ele>
        <time>2016-05-26T07:50:45Z</time>
      </trkpt>
      <trkpt lat="44.57861" lon="5.94218">
        <ele>1405.1</ele>
        <time>2016-05-26T07:51:01Z</time>
      </trkpt>
      <trkpt lat="44.57868" lon="5.94219">
        <ele>1407.51</ele>
        <time>2016-05-26T07:51:17Z</time>
      </trkpt>
      <trkpt lat="44.57877" lon="5.94222">
        <ele>1409.43</ele>
        <time>2016-05-26T07:51:33Z</time>
      </trkpt>
      <trkpt lat="44.57878" lon="5.94221">
        <ele>1410.39</ele>
        <time>2016-05-26T07:51:50Z</time>
      </trkpt>
      <trkpt lat="44.57879" lon="5.94222">
        <ele>1410.39</ele>
        <time>2016-05-26T07:52:19Z</time>
      </trkpt>
      <trkpt lat="44.57877" lon="5.94219">
        <ele>1409.91</ele>
        <time>2016-05-26T07:52:42Z</time>
      </trkpt>
      <trkpt lat="44.57878" lon="5.9422">
        <ele>1409.91</ele>
        <time>2016-05-26T07:53:16Z</time>
      </trkpt>
      <trkpt lat="44.57879" lon="5.94223">
        <ele>1409.91</ele>
        <time>2016-05-26T07:53:48Z</time>
      </trkpt>
      <trkpt lat="44.57879" lon="5.94223">
        <ele>1409.91</ele>
        <time>2016-05-26T07:54:25Z</time>
      </trkpt>
      <trkpt lat="44.57879" lon="5.94222">
        <ele>1409.91</ele>
        <time>2016-05-26T07:54:53Z</time>
      </trkpt>
      <trkpt lat="44.57879" lon="5.94222">
        <ele>1409.91</ele>
        <time>2016-05-26T07:55:21Z</time>
      </trkpt>
      <trkpt lat="44.57883" lon="5.94225">
        <ele>1410.39</ele>
        <time>2016-05-26T07:55:37Z</time>
      </trkpt>
      <trkpt lat="44.57889" lon="5.94225">
        <ele>1412.31</ele>
        <time>2016-05-26T07:55:52Z</time>
      </trkpt>
      <trkpt lat="44.57894" lon="5.94229">
        <ele>1413.76</ele>
        <time>2016-05-26T07:56:06Z</time>
      </trkpt>
      <trkpt lat="44.57897" lon="5.94235">
        <ele>1416.16</ele>
        <time>2016-05-26T07:56:20Z</time>
      </trkpt>
      <trkpt lat="44.57903" lon="5.94241">
        <ele>1418.08</ele>
        <time>2016-05-26T07:56:35Z</time>
      </trkpt>
      <trkpt lat="44.57906" lon="5.94244">
        <ele>1420.49</ele>
        <time>2016-05-26T07:56:51Z</time>
      </trkpt>
      <trkpt lat="44.57908" lon="5.94247">
        <ele>1421.93</ele>
        <time>2016-05-26T07:57:03Z</time>
      </trkpt>
      <trkpt lat="44.57912" lon="5.94247">
        <ele>1423.85</ele>
        <time>2016-05-26T07:57:16Z</time>
      </trkpt>
      <trkpt lat="44.57915" lon="5.94247">
        <ele>1425.77</ele>
        <time>2016-05-26T07:57:31Z</time>
      </trkpt>
      <trkpt lat="44.57918" lon="5.94251">
        <ele>1426.73</ele>
        <time>2016-05-26T07:57:45Z</time>
      </trkpt>
      <trkpt lat="44.57923" lon="5.94252">
        <ele>1428.66</ele>
        <time>2016-05-26T07:58:00Z</time>
      </trkpt>
      <trkpt lat="44.57925" lon="5.94247">
        <ele>1430.1</ele>
        <time>2016-05-26T07:58:10Z</time>
      </trkpt>
      <trkpt lat="44.57928" lon="5.94247">
        <ele>1432.5</ele>
        <time>2016-05-26T07:58:22Z</time>
      </trkpt>
      <trkpt lat="44.57935" lon="5.94253">
        <ele>1434.42</ele>
        <time>2016-05-26T07:58:39Z</time>
      </trkpt>
      <trkpt lat="44.57937" lon="5.94256">
        <ele>1435.87</ele>
        <time>2016-05-26T07:58:48Z</time>
      </trkpt>
      <trkpt lat="44.57941" lon="5.94259">
        <ele>1437.79</ele>
        <time>2016-05-26T07:59:03Z</time>
      </trkpt>
      <trkpt lat="44.57946" lon="5.9426">
        <ele>1440.19</ele>
        <time>2016-05-26T07:59:17Z</time>
      </trkpt>
      <trkpt lat="44.57949" lon="5.94262">
        <ele>1441.63</ele>
        <time>2016-05-26T07:59:29Z</time>
      </trkpt>
      <trkpt lat="44.5795" lon="5.9426">
        <ele>1442.6</ele>
        <time>2016-05-26T07:59:45Z</time>
      </trkpt>
      <trkpt lat="44.57955" lon="5.94262">
        <ele>1445.48</ele>
        <time>2016-05-26T07:59:59Z</time>
      </trkpt>
      <trkpt lat="44.57958" lon="5.94264">
        <ele>1447.4</ele>
        <time>2016-05-26T08:00:12Z</time>
      </trkpt>
      <trkpt lat="44.57963" lon="5.94269">
        <ele>1448.84</ele>
        <time>2016-05-26T08:00:26Z</time>
      </trkpt>
      <trkpt lat="44.57967" lon="5.94272">
        <ele>1450.77</ele>
        <time>2016-05-26T08:00:41Z</time>
      </trkpt>
      <trkpt lat="44.57971" lon="5.9427">
        <ele>1453.17</ele>
        <time>2016-05-26T08:00:54Z</time>
      </trkpt>
      <trkpt lat="44.57976" lon="5.94275">
        <ele>1454.61</ele>
        <time>2016-05-26T08:01:10Z</time>
      </trkpt>
      <trkpt lat="44.57978" lon="5.94279">
        <ele>1457.02</ele>
        <time>2016-05-26T08:01:23Z</time>
      </trkpt>
      <trkpt lat="44.57979" lon="5.94284">
        <ele>1458.46</ele>
        <time>2016-05-26T08:01:38Z</time>
      </trkpt>
      <trkpt lat="44.57981" lon="5.94286">
        <ele>1462.3</ele>
        <time>2016-05-26T08:01:53Z</time>
      </trkpt>
      <trkpt lat="44.57985" lon="5.94286">
        <ele>1462.3</ele>
        <time>2016-05-26T08:02:09Z</time>
      </trkpt>
      <trkpt lat="44.57989" lon="5.94291">
        <ele>1464.23</ele>
        <time>2016-05-26T08:02:24Z</time>
      </trkpt>
      <trkpt lat="44.57988" lon="5.94296">
        <ele>1466.63</ele>
        <time>2016-05-26T08:02:37Z</time>
      </trkpt>
      <trkpt lat="44.5799" lon="5.943">
        <ele>1468.07</ele>
        <time>2016-05-26T08:02:51Z</time>
      </trkpt>
      <trkpt lat="44.57995" lon="5.94307">
        <ele>1470.47</ele>
        <time>2016-05-26T08:03:10Z</time>
      </trkpt>
      <trkpt lat="44.58002" lon="5.94305">
        <ele>1472.4</ele>
        <time>2016-05-26T08:03:23Z</time>
      </trkpt>
      <trkpt lat="44.58007" lon="5.94311">
        <ele>1474.8</ele>
        <time>2016-05-26T08:03:38Z</time>
      </trkpt>
      <trkpt lat="44.58013" lon="5.94315">
        <ele>1477.2</ele>
        <time>2016-05-26T08:03:53Z</time>
      </trkpt>
      <trkpt lat="44.58016" lon="5.94318">
        <ele>1479.13</ele>
        <time>2016-05-26T08:04:12Z</time>
      </trkpt>
      <trkpt lat="44.58021" lon="5.94321">
        <ele>1482.01</ele>
        <time>2016-05-26T08:04:27Z</time>
      </trkpt>
      <trkpt lat="44.58026" lon="5.94324">
        <ele>1483.93</ele>
        <time>2016-05-26T08:04:40Z</time>
      </trkpt>
      <trkpt lat="44.58029" lon="5.94325">
        <ele>1485.85</ele>
        <time>2016-05-26T08:04:52Z</time>
      </trkpt>
      <trkpt lat="44.58033" lon="5.94329">
        <ele>1488.26</ele>
        <time>2016-05-26T08:05:04Z</time>
      </trkpt>
      <trkpt lat="44.58036" lon="5.9433">
        <ele>1490.18</ele>
        <time>2016-05-26T08:05:16Z</time>
      </trkpt>
      <trkpt lat="44.58037" lon="5.9433">
        <ele>1489.22</ele>
        <time>2016-05-26T08:05:26Z</time>
      </trkpt>
      <trkpt lat="44.58037" lon="5.94332">
        <ele>1489.7</ele>
        <time>2016-05-26T08:05:54Z</time>
      </trkpt>
      <trkpt lat="44.58035" lon="5.94331">
        <ele>1489.7</ele>
        <time>2016-05-26T08:06:04Z</time>
      </trkpt>
      <trkpt lat="44.58037" lon="5.94328">
        <ele>1490.66</ele>
        <time>2016-05-26T08:06:13Z</time>
      </trkpt>
      <trkpt lat="44.58033" lon="5.94328">
        <ele>1490.66</ele>
        <time>2016-05-26T08:06:35Z</time>
      </trkpt>
      <trkpt lat="44.58033" lon="5.94332">
        <ele>1491.14</ele>
        <time>2016-05-26T08:06:50Z</time>
      </trkpt>
      <trkpt lat="44.58034" lon="5.94331">
        <ele>1491.14</ele>
        <time>2016-05-26T08:07:22Z</time>
      </trkpt>
      <trkpt lat="44.58033" lon="5.94332">
        <ele>1491.14</ele>
        <time>2016-05-26T08:07:46Z</time>
      </trkpt>
      <trkpt lat="44.58034" lon="5.94332">
        <ele>1491.14</ele>
        <time>2016-05-26T08:08:10Z</time>
      </trkpt>
      <trkpt lat="44.58034" lon="5.94331">
        <ele>1491.14</ele>
        <time>2016-05-26T08:08:41Z</time>
      </trkpt>
      <trkpt lat="44.58033" lon="5.94331">
        <ele>1491.62</ele>
        <time>2016-05-26T08:09:16Z</time>
      </trkpt>
      <trkpt lat="44.58032" lon="5.94329">
        <ele>1491.62</ele>
        <time>2016-05-26T08:09:53Z</time>
      </trkpt>
      <trkpt lat="44.58032" lon="5.9433">
        <ele>1491.62</ele>
        <time>2016-05-26T08:10:27Z</time>
      </trkpt>
      <trkpt lat="44.58033" lon="5.94328">
        <ele>1491.62</ele>
        <time>2016-05-26T08:11:06Z</time>
      </trkpt>
      <trkpt lat="44.58035" lon="5.94331">
        <ele>1491.62</ele>
        <time>2016-05-26T08:11:40Z</time>
      </trkpt>
      <trkpt lat="44.58034" lon="5.94332">
        <ele>1491.14</ele>
        <time>2016-05-26T08:12:12Z</time>
      </trkpt>
      <trkpt lat="44.58034" lon="5.94331">
        <ele>1491.62</ele>
        <time>2016-05-26T08:12:36Z</time>
      </trkpt>
      <trkpt lat="44.58034" lon="5.94333">
        <ele>1491.62</ele>
        <time>2016-05-26T08:13:12Z</time>
      </trkpt>
      <trkpt lat="44.58033" lon="5.94332">
        <ele>1491.62</ele>
        <time>2016-05-26T08:13:43Z</time>
      </trkpt>
      <trkpt lat="44.58035" lon="5.94331">
        <ele>1492.1</ele>
        <time>2016-05-26T08:14:23Z</time>
      </trkpt>
      <trkpt lat="44.58033" lon="5.94332">
        <ele>1492.1</ele>
        <time>2016-05-26T08:14:51Z</time>
      </trkpt>
      <trkpt lat="44.58034" lon="5.94335">
        <ele>1492.1</ele>
        <time>2016-05-26T08:15:20Z</time>
      </trkpt>
      <trkpt lat="44.58034" lon="5.9433">
        <ele>1492.58</ele>
        <time>2016-05-26T08:15:54Z</time>
      </trkpt>
      <trkpt lat="44.5804" lon="5.94322">
        <ele>1492.58</ele>
        <time>2016-05-26T08:16:12Z</time>
      </trkpt>
      <trkpt lat="44.58042" lon="5.94318">
        <ele>1494.51</ele>
        <time>2016-05-26T08:16:24Z</time>
      </trkpt>
      <trkpt lat="44.58048" lon="5.94324">
        <ele>1495.95</ele>
        <time>2016-05-26T08:16:37Z</time>
      </trkpt>
      <trkpt lat="44.5805" lon="5.94318">
        <ele>1497.87</ele>
        <time>2016-05-26T08:16:53Z</time>
      </trkpt>
      <trkpt lat="44.58054" lon="5.94315">
        <ele>1500.27</ele>
        <time>2016-05-26T08:17:07Z</time>
      </trkpt>
      <trkpt lat="44.5806" lon="5.94318">
        <ele>1501.72</ele>
        <time>2016-05-26T08:17:23Z</time>
      </trkpt>
      <trkpt lat="44.58064" lon="5.94321">
        <ele>1503.16</ele>
        <time>2016-05-26T08:17:36Z</time>
      </trkpt>
      <trkpt lat="44.58068" lon="5.9432">
        <ele>1505.56</ele>
        <time>2016-05-26T08:17:52Z</time>
      </trkpt>
      <trkpt lat="44.5807" lon="5.94322">
        <ele>1507.97</ele>
        <time>2016-05-26T08:18:04Z</time>
      </trkpt>
      <trkpt lat="44.58071" lon="5.94318">
        <ele>1508.93</ele>
        <time>2016-05-26T08:18:15Z</time>
      </trkpt>
      <trkpt lat="44.58076" lon="5.94317">
        <ele>1511.33</ele>
        <time>2016-05-26T08:18:29Z</time>
      </trkpt>
      <trkpt lat="44.58079" lon="5.94318">
        <ele>1513.73</ele>
        <time>2016-05-26T08:18:43Z</time>
      </trkpt>
      <trkpt lat="44.58084" lon="5.94318">
        <ele>1515.66</ele>
        <time>2016-05-26T08:18:55Z</time>
      </trkpt>
      <trkpt lat="44.58089" lon="5.94321">
        <ele>1518.06</ele>
        <time>2016-05-26T08:19:10Z</time>
      </trkpt>
      <trkpt lat="44.58091" lon="5.94326">
        <ele>1519.98</ele>
        <time>2016-05-26T08:19:24Z</time>
      </trkpt>
      <trkpt lat="44.58095" lon="5.94326">
        <ele>1521.9</ele>
        <time>2016-05-26T08:19:35Z</time>
      </trkpt>
      <trkpt lat="44.58098" lon="5.9433">
        <ele>1524.31</ele>
        <time>2016-05-26T08:19:47Z</time>
      </trkpt>
      <trkpt lat="44.58095" lon="5.94338">
        <ele>1525.27</ele>
        <time>2016-05-26T08:20:00Z</time>
      </trkpt>
      <trkpt lat="44.581" lon="5.94337">
        <ele>1527.19</ele>
        <time>2016-05-26T08:20:13Z</time>
      </trkpt>
      <trkpt lat="44.58104" lon="5.94339">
        <ele>1529.59</ele>
        <time>2016-05-26T08:20:27Z</time>
      </trkpt>
      <trkpt lat="44.58106" lon="5.94343">
        <ele>1531.52</ele>
        <time>2016-05-26T08:20:38Z</time>
      </trkpt>
      <trkpt lat="44.58112" lon="5.94344">
        <ele>1533.92</ele>
        <time>2016-05-26T08:20:53Z</time>
      </trkpt>
      <trkpt lat="44.58115" lon="5.94347">
        <ele>1535.36</ele>
        <time>2016-05-26T08:21:04Z</time>
      </trkpt>
      <trkpt lat="44.58118" lon="5.94353">
        <ele>1538.25</ele>
        <time>2016-05-26T08:21:19Z</time>
      </trkpt>
      <trkpt lat="44.58121" lon="5.94355">
        <ele>1539.69</ele>
        <time>2016-05-26T08:21:30Z</time>
      </trkpt>
      <trkpt lat="44.58126" lon="5.94356">
        <ele>1542.09</ele>
        <time>2016-05-26T08:21:43Z</time>
      </trkpt>
      <trkpt lat="44.58132" lon="5.94357">
        <ele>1543.53</ele>
        <time>2016-05-26T08:21:56Z</time>
      </trkpt>
      <trkpt lat="44.58135" lon="5.94361">
        <ele>1545.46</ele>
        <time>2016-05-26T08:22:06Z</time>
      </trkpt>
      <trkpt lat="44.58138" lon="5.94365">
        <ele>1546.9</ele>
        <time>2016-05-26T08:22:17Z</time>
      </trkpt>
      <trkpt lat="44.58143" lon="5.94364">
        <ele>1548.82</ele>
        <time>2016-05-26T08:22:29Z</time>
      </trkpt>
      <trkpt lat="44.58147" lon="5.94367">
        <ele>1550.74</ele>
        <time>2016-05-26T08:22:41Z</time>
      </trkpt>
      <trkpt lat="44.58151" lon="5.9437">
        <ele>1552.19</ele>
        <time>2016-05-26T08:22:54Z</time>
      </trkpt>
      <trkpt lat="44.58156" lon="5.94374">
        <ele>1554.59</ele>
        <time>2016-05-26T08:23:06Z</time>
      </trkpt>
      <trkpt lat="44.5816" lon="5.9438">
        <ele>1556.51</ele>
        <time>2016-05-26T08:23:19Z</time>
      </trkpt>
      <trkpt lat="44.58165" lon="5.94385">
        <ele>1558.92</ele>
        <time>2016-05-26T08:23:32Z</time>
      </trkpt>
      <trkpt lat="44.58168" lon="5.94384">
        <ele>1560.36</ele>
        <time>2016-05-26T08:23:44Z</time>
      </trkpt>
      <trkpt lat="44.58173" lon="5.94395">
        <ele>1564.2</ele>
        <time>2016-05-26T08:24:03Z</time>
      </trkpt>
      <trkpt lat="44.58179" lon="5.94396">
        <ele>1565.64</ele>
        <time>2016-05-26T08:24:19Z</time>
      </trkpt>
      <trkpt lat="44.58186" lon="5.944">
        <ele>1567.57</ele>
        <time>2016-05-26T08:24:32Z</time>
      </trkpt>
      <trkpt lat="44.58191" lon="5.94401">
        <ele>1569.97</ele>
        <time>2016-05-26T08:24:46Z</time>
      </trkpt>
      <trkpt lat="44.58194" lon="5.94402">
        <ele>1571.41</ele>
        <time>2016-05-26T08:24:58Z</time>
      </trkpt>
      <trkpt lat="44.58195" lon="5.94402">
        <ele>1571.89</ele>
        <time>2016-05-26T08:25:14Z</time>
      </trkpt>
      <trkpt lat="44.58201" lon="5.94399">
        <ele>1572.85</ele>
        <time>2016-05-26T08:25:27Z</time>
      </trkpt>
      <trkpt lat="44.58203" lon="5.94402">
        <ele>1573.82</ele>
        <time>2016-05-26T08:25:41Z</time>
      </trkpt>
      <trkpt lat="44.58202" lon="5.94404">
        <ele>1573.33</ele>
        <time>2016-05-26T08:26:11Z</time>
      </trkpt>
      <trkpt lat="44.58203" lon="5.94402">
        <ele>1573.33</ele>
        <time>2016-05-26T08:26:39Z</time>
      </trkpt>
      <trkpt lat="44.58204" lon="5.94403">
        <ele>1573.82</ele>
        <time>2016-05-26T08:27:09Z</time>
      </trkpt>
      <trkpt lat="44.58203" lon="5.94403">
        <ele>1573.33</ele>
        <time>2016-05-26T08:27:35Z</time>
      </trkpt>
      <trkpt lat="44.58203" lon="5.94404">
        <ele>1573.33</ele>
        <time>2016-05-26T08:28:09Z</time>
      </trkpt>
      <trkpt lat="44.58203" lon="5.94402">
        <ele>1573.33</ele>
        <time>2016-05-26T08:28:41Z</time>
      </trkpt>
      <trkpt lat="44.58205" lon="5.94401">
        <ele>1573.33</ele>
        <time>2016-05-26T08:29:06Z</time>
      </trkpt>
      <trkpt lat="44.58201" lon="5.94404">
        <ele>1572.85</ele>
        <time>2016-05-26T08:29:16Z</time>
      </trkpt>
      <trkpt lat="44.58201" lon="5.94403">
        <ele>1572.85</ele>
        <time>2016-05-26T08:29:31Z</time>
      </trkpt>
      <trkpt lat="44.58202" lon="5.94404">
        <ele>1569.01</ele>
        <time>2016-05-26T08:29:42Z</time>
      </trkpt>
      <trkpt lat="44.58202" lon="5.94403">
        <ele>1575.74</ele>
        <time>2016-05-26T08:29:43Z</time>
      </trkpt>
      <trkpt lat="44.58201" lon="5.94402">
        <ele>1572.85</ele>
        <time>2016-05-26T08:29:45Z</time>
      </trkpt>
      <trkpt lat="44.58204" lon="5.94401">
        <ele>1573.33</ele>
        <time>2016-05-26T08:29:54Z</time>
      </trkpt>
      <trkpt lat="44.58202" lon="5.94405">
        <ele>1573.82</ele>
        <time>2016-05-26T08:30:12Z</time>
      </trkpt>
      <trkpt lat="44.58201" lon="5.94408">
        <ele>1573.82</ele>
        <time>2016-05-26T08:30:39Z</time>
      </trkpt>
      <trkpt lat="44.58203" lon="5.94405">
        <ele>1573.82</ele>
        <time>2016-05-26T08:31:09Z</time>
      </trkpt>
      <trkpt lat="44.58201" lon="5.94406">
        <ele>1573.82</ele>
        <time>2016-05-26T08:31:41Z</time>
      </trkpt>
      <trkpt lat="44.58203" lon="5.94406">
        <ele>1573.82</ele>
        <time>2016-05-26T08:32:04Z</time>
      </trkpt>
      <trkpt lat="44.58207" lon="5.94406">
        <ele>1575.74</ele>
        <time>2016-05-26T08:32:17Z</time>
      </trkpt>
      <trkpt lat="44.58213" lon="5.9441">
        <ele>1577.66</ele>
        <time>2016-05-26T08:32:29Z</time>
      </trkpt>
      <trkpt lat="44.58218" lon="5.94415">
        <ele>1580.06</ele>
        <time>2016-05-26T08:32:41Z</time>
      </trkpt>
      <trkpt lat="44.58224" lon="5.9442">
        <ele>1582.47</ele>
        <time>2016-05-26T08:32:55Z</time>
      </trkpt>
      <trkpt lat="44.5823" lon="5.94427">
        <ele>1585.35</ele>
        <time>2016-05-26T08:33:11Z</time>
      </trkpt>
      <trkpt lat="44.58235" lon="5.94432">
        <ele>1588.24</ele>
        <time>2016-05-26T08:33:26Z</time>
      </trkpt>
      <trkpt lat="44.5824" lon="5.94437">
        <ele>1590.16</ele>
        <time>2016-05-26T08:33:39Z</time>
      </trkpt>
      <trkpt lat="44.58246" lon="5.94443">
        <ele>1593.04</ele>
        <time>2016-05-26T08:33:54Z</time>
      </trkpt>
      <trkpt lat="44.58252" lon="5.94448">
        <ele>1595.93</ele>
        <time>2016-05-26T08:34:12Z</time>
      </trkpt>
      <trkpt lat="44.5826" lon="5.94456">
        <ele>1598.81</ele>
        <time>2016-05-26T08:34:32Z</time>
      </trkpt>
      <trkpt lat="44.58266" lon="5.94464">
        <ele>1601.69</ele>
        <time>2016-05-26T08:34:47Z</time>
      </trkpt>
      <trkpt lat="44.58272" lon="5.94473">
        <ele>1604.1</ele>
        <time>2016-05-26T08:35:03Z</time>
      </trkpt>
      <trkpt lat="44.58278" lon="5.94481">
        <ele>1606.5</ele>
        <time>2016-05-26T08:35:18Z</time>
      </trkpt>
      <trkpt lat="44.58284" lon="5.94488">
        <ele>1608.9</ele>
        <time>2016-05-26T08:35:32Z</time>
      </trkpt>
      <trkpt lat="44.58292" lon="5.94495">
        <ele>1611.31</ele>
        <time>2016-05-26T08:35:48Z</time>
      </trkpt>
      <trkpt lat="44.58294" lon="5.94498">
        <ele>1611.79</ele>
        <time>2016-05-26T08:35:53Z</time>
      </trkpt>
      <trkpt lat="44.58303" lon="5.94508">
        <ele>1614.19</ele>
        <time>2016-05-26T08:36:09Z</time>
      </trkpt>
      <trkpt lat="44.58309" lon="5.94515">
        <ele>1616.11</ele>
        <time>2016-05-26T08:36:24Z</time>
      </trkpt>
      <trkpt lat="44.58315" lon="5.94522">
        <ele>1618.04</ele>
        <time>2016-05-26T08:36:39Z</time>
      </trkpt>
      <trkpt lat="44.58322" lon="5.94537">
        <ele>1620.44</ele>
        <time>2016-05-26T08:36:57Z</time>
      </trkpt>
      <trkpt lat="44.58331" lon="5.9455">
        <ele>1621.4</ele>
        <time>2016-05-26T08:37:14Z</time>
      </trkpt>
      <trkpt lat="44.58337" lon="5.94562">
        <ele>1622.36</ele>
        <time>2016-05-26T08:37:30Z</time>
      </trkpt>
      <trkpt lat="44.58341" lon="5.94566">
        <ele>1622.36</ele>
        <time>2016-05-26T08:37:42Z</time>
      </trkpt>
      <trkpt lat="44.58342" lon="5.94565">
        <ele>1622.36</ele>
        <time>2016-05-26T08:38:01Z</time>
      </trkpt>
      <trkpt lat="44.58343" lon="5.94567">
        <ele>1621.88</ele>
        <time>2016-05-26T08:38:27Z</time>
      </trkpt>
      <trkpt lat="44.58344" lon="5.94568">
        <ele>1622.36</ele>
        <time>2016-05-26T08:38:43Z</time>
      </trkpt>
      <trkpt lat="44.58343" lon="5.9457">
        <ele>1621.88</ele>
        <time>2016-05-26T08:38:58Z</time>
      </trkpt>
      <trkpt lat="44.58345" lon="5.94568">
        <ele>1621.88</ele>
        <time>2016-05-26T08:39:32Z</time>
      </trkpt>
      <trkpt lat="44.58343" lon="5.94565">
        <ele>1620.92</ele>
        <time>2016-05-26T08:39:46Z</time>
      </trkpt>
      <trkpt lat="44.58341" lon="5.9457">
        <ele>1620.44</ele>
        <time>2016-05-26T08:40:20Z</time>
      </trkpt>
      <trkpt lat="44.58341" lon="5.94569">
        <ele>1620.92</ele>
        <time>2016-05-26T08:41:06Z</time>
      </trkpt>
      <trkpt lat="44.58341" lon="5.94569">
        <ele>1620.92</ele>
        <time>2016-05-26T08:41:56Z</time>
      </trkpt>
      <trkpt lat="44.58339" lon="5.94567">
        <ele>1621.4</ele>
        <time>2016-05-26T08:42:45Z</time>
      </trkpt>
      <trkpt lat="44.58339" lon="5.94568">
        <ele>1621.4</ele>
        <time>2016-05-26T08:43:33Z</time>
      </trkpt>
      <trkpt lat="44.58341" lon="5.94569">
        <ele>1620.92</ele>
        <time>2016-05-26T08:44:00Z</time>
      </trkpt>
      <trkpt lat="44.58343" lon="5.94566">
        <ele>1620.92</ele>
        <time>2016-05-26T08:44:43Z</time>
      </trkpt>
      <trkpt lat="44.58343" lon="5.9457">
        <ele>1620.92</ele>
        <time>2016-05-26T08:45:18Z</time>
      </trkpt>
      <trkpt lat="44.58342" lon="5.9457">
        <ele>1620.92</ele>
        <time>2016-05-26T08:45:55Z</time>
      </trkpt>
      <trkpt lat="44.58343" lon="5.94567">
        <ele>1620.92</ele>
        <time>2016-05-26T08:46:38Z</time>
      </trkpt>
      <trkpt lat="44.58344" lon="5.94567">
        <ele>1620.92</ele>
        <time>2016-05-26T08:47:22Z</time>
      </trkpt>
      <trkpt lat="44.58343" lon="5.94568">
        <ele>1621.88</ele>
        <time>2016-05-26T08:48:07Z</time>
      </trkpt>
      <trkpt lat="44.58343" lon="5.94569">
        <ele>1622.36</ele>
        <time>2016-05-26T08:48:49Z</time>
      </trkpt>
      <trkpt lat="44.58339" lon="5.94567">
        <ele>1623.32</ele>
        <time>2016-05-26T08:49:02Z</time>
      </trkpt>
      <trkpt lat="44.58343" lon="5.94566">
        <ele>1623.8</ele>
        <time>2016-05-26T08:49:17Z</time>
      </trkpt>
      <trkpt lat="44.58343" lon="5.94567">
        <ele>1623.8</ele>
        <time>2016-05-26T08:49:29Z</time>
      </trkpt>
      <trkpt lat="44.58345" lon="5.94565">
        <ele>1623.8</ele>
        <time>2016-05-26T08:49:58Z</time>
      </trkpt>
      <trkpt lat="44.58345" lon="5.94567">
        <ele>1624.28</ele>
        <time>2016-05-26T08:50:21Z</time>
      </trkpt>
      <trkpt lat="44.58344" lon="5.94566">
        <ele>1623.8</ele>
        <time>2016-05-26T08:50:39Z</time>
      </trkpt>
      <trkpt lat="44.58346" lon="5.9456">
        <ele>1624.28</ele>
        <time>2016-05-26T08:50:50Z</time>
      </trkpt>
      <trkpt lat="44.58355" lon="5.94557">
        <ele>1625.73</ele>
        <time>2016-05-26T08:51:02Z</time>
      </trkpt>
      <trkpt lat="44.58362" lon="5.94554">
        <ele>1626.69</ele>
        <time>2016-05-26T08:51:11Z</time>
      </trkpt>
      <trkpt lat="44.58368" lon="5.94551">
        <ele>1628.61</ele>
        <time>2016-05-26T08:51:23Z</time>
      </trkpt>
      <trkpt lat="44.58376" lon="5.94553">
        <ele>1629.57</ele>
        <time>2016-05-26T08:51:35Z</time>
      </trkpt>
      <trkpt lat="44.58382" lon="5.94556">
        <ele>1630.05</ele>
        <time>2016-05-26T08:51:45Z</time>
      </trkpt>
      <trkpt lat="44.58386" lon="5.94557">
        <ele>1630.53</ele>
        <time>2016-05-26T08:51:50Z</time>
      </trkpt>
      <trkpt lat="44.58397" lon="5.94562">
        <ele>1631.01</ele>
        <time>2016-05-26T08:52:04Z</time>
      </trkpt>
      <trkpt lat="44.58407" lon="5.94566">
        <ele>1631.49</ele>
        <time>2016-05-26T08:52:17Z</time>
      </trkpt>
      <trkpt lat="44.5842" lon="5.94571">
        <ele>1632.46</ele>
        <time>2016-05-26T08:52:32Z</time>
      </trkpt>
      <trkpt lat="44.58431" lon="5.94574">
        <ele>1632.94</ele>
        <time>2016-05-26T08:52:45Z</time>
      </trkpt>
      <trkpt lat="44.58447" lon="5.94579">
        <ele>1633.9</ele>
        <time>2016-05-26T08:53:03Z</time>
      </trkpt>
      <trkpt lat="44.58459" lon="5.94584">
        <ele>1634.86</ele>
        <time>2016-05-26T08:53:17Z</time>
      </trkpt>
      <trkpt lat="44.5847" lon="5.94587">
        <ele>1635.34</ele>
        <time>2016-05-26T08:53:31Z</time>
      </trkpt>
      <trkpt lat="44.58484" lon="5.94593">
        <ele>1636.3</ele>
        <time>2016-05-26T08:53:46Z</time>
      </trkpt>
      <trkpt lat="44.58494" lon="5.94599">
        <ele>1637.26</ele>
        <time>2016-05-26T08:53:59Z</time>
      </trkpt>
      <trkpt lat="44.58502" lon="5.94603">
        <ele>1638.22</ele>
        <time>2016-05-26T08:54:11Z</time>
      </trkpt>
      <trkpt lat="44.58514" lon="5.94609">
        <ele>1639.67</ele>
        <time>2016-05-26T08:54:27Z</time>
      </trkpt>
      <trkpt lat="44.58525" lon="5.94614">
        <ele>1640.63</ele>
        <time>2016-05-26T08:54:40Z</time>
      </trkpt>
      <trkpt lat="44.58535" lon="5.94621">
        <ele>1641.59</ele>
        <time>2016-05-26T08:54:53Z</time>
      </trkpt>
      <trkpt lat="44.58547" lon="5.94629">
        <ele>1643.03</ele>
        <time>2016-05-26T08:55:08Z</time>
      </trkpt>
      <trkpt lat="44.58559" lon="5.94637">
        <ele>1643.51</ele>
        <time>2016-05-26T08:55:22Z</time>
      </trkpt>
      <trkpt lat="44.5856" lon="5.94638">
        <ele>1643.99</ele>
        <time>2016-05-26T08:55:24Z</time>
      </trkpt>
      <trkpt lat="44.58572" lon="5.94646">
        <ele>1644.95</ele>
        <time>2016-05-26T08:55:38Z</time>
      </trkpt>
      <trkpt lat="44.58584" lon="5.94652">
        <ele>1645.91</ele>
        <time>2016-05-26T08:55:52Z</time>
      </trkpt>
      <trkpt lat="44.58596" lon="5.94657">
        <ele>1647.36</ele>
        <time>2016-05-26T08:56:07Z</time>
      </trkpt>
      <trkpt lat="44.58608" lon="5.94663">
        <ele>1648.32</ele>
        <time>2016-05-26T08:56:22Z</time>
      </trkpt>
      <trkpt lat="44.58621" lon="5.94668">
        <ele>1649.28</ele>
        <time>2016-05-26T08:56:37Z</time>
      </trkpt>
      <trkpt lat="44.58635" lon="5.94672">
        <ele>1650.72</ele>
        <time>2016-05-26T08:56:54Z</time>
      </trkpt>
      <trkpt lat="44.58648" lon="5.94676">
        <ele>1651.68</ele>
        <time>2016-05-26T08:57:09Z</time>
      </trkpt>
      <trkpt lat="44.58659" lon="5.9468">
        <ele>1652.64</ele>
        <time>2016-05-26T08:57:22Z</time>
      </trkpt>
      <trkpt lat="44.5866" lon="5.9468">
        <ele>1652.64</ele>
        <time>2016-05-26T08:57:23Z</time>
      </trkpt>
      <trkpt lat="44.58674" lon="5.94684">
        <ele>1653.6</ele>
        <time>2016-05-26T08:57:39Z</time>
      </trkpt>
      <trkpt lat="44.58685" lon="5.94687">
        <ele>1654.57</ele>
        <time>2016-05-26T08:57:52Z</time>
      </trkpt>
      <trkpt lat="44.58696" lon="5.9469">
        <ele>1655.53</ele>
        <time>2016-05-26T08:58:05Z</time>
      </trkpt>
      <trkpt lat="44.58707" lon="5.94694">
        <ele>1656.01</ele>
        <time>2016-05-26T08:58:19Z</time>
      </trkpt>
      <trkpt lat="44.58721" lon="5.94697">
        <ele>1657.45</ele>
        <time>2016-05-26T08:58:34Z</time>
      </trkpt>
      <trkpt lat="44.58734" lon="5.94701">
        <ele>1658.41</ele>
        <time>2016-05-26T08:58:50Z</time>
      </trkpt>
      <trkpt lat="44.58744" lon="5.94703">
        <ele>1659.37</ele>
        <time>2016-05-26T08:59:03Z</time>
      </trkpt>
      <trkpt lat="44.58755" lon="5.94706">
        <ele>1660.33</ele>
        <time>2016-05-26T08:59:16Z</time>
      </trkpt>
      <trkpt lat="44.5877" lon="5.94711">
        <ele>1661.3</ele>
        <time>2016-05-26T08:59:32Z</time>
      </trkpt>
      <trkpt lat="44.58782" lon="5.94715">
        <ele>1662.26</ele>
        <time>2016-05-26T08:59:47Z</time>
      </trkpt>
      <trkpt lat="44.58795" lon="5.94721">
        <ele>1663.22</ele>
        <time>2016-05-26T09:00:02Z</time>
      </trkpt>
      <trkpt lat="44.58798" lon="5.94722">
        <ele>1663.7</ele>
        <time>2016-05-26T09:00:05Z</time>
      </trkpt>
      <trkpt lat="44.58812" lon="5.94729">
        <ele>1664.66</ele>
        <time>2016-05-26T09:00:20Z</time>
      </trkpt>
      <trkpt lat="44.58825" lon="5.94736">
        <ele>1665.14</ele>
        <time>2016-05-26T09:00:34Z</time>
      </trkpt>
      <trkpt lat="44.58838" lon="5.94741">
        <ele>1666.1</ele>
        <time>2016-05-26T09:00:48Z</time>
      </trkpt>
      <trkpt lat="44.5885" lon="5.94745">
        <ele>1667.06</ele>
        <time>2016-05-26T09:01:02Z</time>
      </trkpt>
      <trkpt lat="44.58862" lon="5.94749">
        <ele>1668.51</ele>
        <time>2016-05-26T09:01:15Z</time>
      </trkpt>
      <trkpt lat="44.58874" lon="5.94752">
        <ele>1669.47</ele>
        <time>2016-05-26T09:01:27Z</time>
      </trkpt>
      <trkpt lat="44.58888" lon="5.94757">
        <ele>1670.43</ele>
        <time>2016-05-26T09:01:43Z</time>
      </trkpt>
      <trkpt lat="44.58903" lon="5.9476">
        <ele>1671.39</ele>
        <time>2016-05-26T09:01:59Z</time>
      </trkpt>
      <trkpt lat="44.58916" lon="5.94762">
        <ele>1671.87</ele>
        <time>2016-05-26T09:02:13Z</time>
      </trkpt>
      <trkpt lat="44.58928" lon="5.94765">
        <ele>1672.83</ele>
        <time>2016-05-26T09:02:26Z</time>
      </trkpt>
      <trkpt lat="44.58931" lon="5.94766">
        <ele>1672.83</ele>
        <time>2016-05-26T09:02:29Z</time>
      </trkpt>
      <trkpt lat="44.58944" lon="5.94769">
        <ele>1673.79</ele>
        <time>2016-05-26T09:02:43Z</time>
      </trkpt>
      <trkpt lat="44.58955" lon="5.94771">
        <ele>1674.75</ele>
        <time>2016-05-26T09:02:55Z</time>
      </trkpt>
      <trkpt lat="44.5896" lon="5.94772">
        <ele>1675.23</ele>
        <time>2016-05-26T09:03:01Z</time>
      </trkpt>
      <trkpt lat="44.58974" lon="5.94777">
        <ele>1676.2</ele>
        <time>2016-05-26T09:03:17Z</time>
      </trkpt>
      <trkpt lat="44.58987" lon="5.94781">
        <ele>1677.16</ele>
        <time>2016-05-26T09:03:31Z</time>
      </trkpt>
      <trkpt lat="44.59" lon="5.94786">
        <ele>1678.6</ele>
        <time>2016-05-26T09:03:46Z</time>
      </trkpt>
      <trkpt lat="44.59006" lon="5.94788">
        <ele>1679.08</ele>
        <time>2016-05-26T09:03:52Z</time>
      </trkpt>
      <trkpt lat="44.59008" lon="5.94789">
        <ele>1679.08</ele>
        <time>2016-05-26T09:03:54Z</time>
      </trkpt>
      <trkpt lat="44.59024" lon="5.94794">
        <ele>1680.04</ele>
        <time>2016-05-26T09:04:10Z</time>
      </trkpt>
      <trkpt lat="44.59038" lon="5.94799">
        <ele>1681.48</ele>
        <time>2016-05-26T09:04:26Z</time>
      </trkpt>
      <trkpt lat="44.59049" lon="5.94801">
        <ele>1682.44</ele>
        <time>2016-05-26T09:04:39Z</time>
      </trkpt>
      <trkpt lat="44.5906" lon="5.94803">
        <ele>1682.93</ele>
        <time>2016-05-26T09:04:52Z</time>
      </trkpt>
      <trkpt lat="44.59076" lon="5.94804">
        <ele>1683.89</ele>
        <time>2016-05-26T09:05:08Z</time>
      </trkpt>
      <trkpt lat="44.59088" lon="5.94804">
        <ele>1684.85</ele>
        <time>2016-05-26T09:05:22Z</time>
      </trkpt>
      <trkpt lat="44.591" lon="5.94803">
        <ele>1686.29</ele>
        <time>2016-05-26T09:05:37Z</time>
      </trkpt>
      <trkpt lat="44.59114" lon="5.94804">
        <ele>1687.25</ele>
        <time>2016-05-26T09:05:52Z</time>
      </trkpt>
      <trkpt lat="44.59124" lon="5.94805">
        <ele>1687.73</ele>
        <time>2016-05-26T09:06:03Z</time>
      </trkpt>
      <trkpt lat="44.59131" lon="5.94808">
        <ele>1688.69</ele>
        <time>2016-05-26T09:06:12Z</time>
      </trkpt>
      <trkpt lat="44.59146" lon="5.94814">
        <ele>1689.17</ele>
        <time>2016-05-26T09:06:29Z</time>
      </trkpt>
      <trkpt lat="44.59157" lon="5.94816">
        <ele>1689.65</ele>
        <time>2016-05-26T09:06:44Z</time>
      </trkpt>
      <trkpt lat="44.59172" lon="5.94824">
        <ele>1689.17</ele>
        <time>2016-05-26T09:07:02Z</time>
      </trkpt>
      <trkpt lat="44.59185" lon="5.94837">
        <ele>1688.21</ele>
        <time>2016-05-26T09:07:19Z</time>
      </trkpt>
      <trkpt lat="44.59199" lon="5.94846">
        <ele>1686.77</ele>
        <time>2016-05-26T09:07:36Z</time>
      </trkpt>
      <trkpt lat="44.59213" lon="5.94852">
        <ele>1685.33</ele>
        <time>2016-05-26T09:07:52Z</time>
      </trkpt>
      <trkpt lat="44.59225" lon="5.94855">
        <ele>1683.89</ele>
        <time>2016-05-26T09:08:05Z</time>
      </trkpt>
      <trkpt lat="44.59237" lon="5.94859">
        <ele>1682.93</ele>
        <time>2016-05-26T09:08:19Z</time>
      </trkpt>
      <trkpt lat="44.5925" lon="5.94861">
        <ele>1681.48</ele>
        <time>2016-05-26T09:08:33Z</time>
      </trkpt>
      <trkpt lat="44.59261" lon="5.94866">
        <ele>1680.52</ele>
        <time>2016-05-26T09:08:45Z</time>
      </trkpt>
      <trkpt lat="44.59272" lon="5.9487">
        <ele>1678.6</ele>
        <time>2016-05-26T09:08:59Z</time>
      </trkpt>
      <trkpt lat="44.59284" lon="5.94874">
        <ele>1677.16</ele>
        <time>2016-05-26T09:09:13Z</time>
      </trkpt>
      <trkpt lat="44.59297" lon="5.94876">
        <ele>1675.72</ele>
        <time>2016-05-26T09:09:26Z</time>
      </trkpt>
      <trkpt lat="44.59308" lon="5.94879">
        <ele>1674.27</ele>
        <time>2016-05-26T09:09:38Z</time>
      </trkpt>
      <trkpt lat="44.59321" lon="5.94879">
        <ele>1672.83</ele>
        <time>2016-05-26T09:09:52Z</time>
      </trkpt>
      <trkpt lat="44.59336" lon="5.94886">
        <ele>1670.91</ele>
        <time>2016-05-26T09:10:08Z</time>
      </trkpt>
      <trkpt lat="44.59347" lon="5.94892">
        <ele>1669.47</ele>
        <time>2016-05-26T09:10:20Z</time>
      </trkpt>
      <trkpt lat="44.59361" lon="5.94895">
        <ele>1668.02</ele>
        <time>2016-05-26T09:10:34Z</time>
      </trkpt>
      <trkpt lat="44.59375" lon="5.94903">
        <ele>1667.06</ele>
        <time>2016-05-26T09:10:48Z</time>
      </trkpt>
      <trkpt lat="44.59386" lon="5.9491">
        <ele>1665.62</ele>
        <time>2016-05-26T09:10:59Z</time>
      </trkpt>
      <trkpt lat="44.59396" lon="5.94925">
        <ele>1664.18</ele>
        <time>2016-05-26T09:11:17Z</time>
      </trkpt>
      <trkpt lat="44.59407" lon="5.94931">
        <ele>1663.22</ele>
        <time>2016-05-26T09:11:31Z</time>
      </trkpt>
      <trkpt lat="44.59424" lon="5.94937">
        <ele>1661.78</ele>
        <time>2016-05-26T09:11:48Z</time>
      </trkpt>
      <trkpt lat="44.59441" lon="5.94945">
        <ele>1659.37</ele>
        <time>2016-05-26T09:12:07Z</time>
      </trkpt>
      <trkpt lat="44.59455" lon="5.94953">
        <ele>1657.93</ele>
        <time>2016-05-26T09:12:22Z</time>
      </trkpt>
      <trkpt lat="44.59463" lon="5.94958">
        <ele>1656.97</ele>
        <time>2016-05-26T09:12:34Z</time>
      </trkpt>
      <trkpt lat="44.59474" lon="5.94962">
        <ele>1655.53</ele>
        <time>2016-05-26T09:12:45Z</time>
      </trkpt>
      <trkpt lat="44.59486" lon="5.94966">
        <ele>1654.09</ele>
        <time>2016-05-26T09:12:59Z</time>
      </trkpt>
      <trkpt lat="44.595" lon="5.94968">
        <ele>1652.64</ele>
        <time>2016-05-26T09:13:14Z</time>
      </trkpt>
      <trkpt lat="44.59515" lon="5.94966">
        <ele>1651.68</ele>
        <time>2016-05-26T09:13:30Z</time>
      </trkpt>
      <trkpt lat="44.59528" lon="5.9497">
        <ele>1649.76</ele>
        <time>2016-05-26T09:13:44Z</time>
      </trkpt>
      <trkpt lat="44.59543" lon="5.94975">
        <ele>1648.8</ele>
        <time>2016-05-26T09:13:58Z</time>
      </trkpt>
      <trkpt lat="44.59561" lon="5.94979">
        <ele>1647.36</ele>
        <time>2016-05-26T09:14:14Z</time>
      </trkpt>
      <trkpt lat="44.59567" lon="5.94975">
        <ele>1646.88</ele>
        <time>2016-05-26T09:14:20Z</time>
      </trkpt>
      <trkpt lat="44.59578" lon="5.94961">
        <ele>1645.91</ele>
        <time>2016-05-26T09:14:36Z</time>
      </trkpt>
      <trkpt lat="44.59581" lon="5.9496">
        <ele>1645.43</ele>
        <time>2016-05-26T09:14:38Z</time>
      </trkpt>
      <trkpt lat="44.59593" lon="5.94951">
        <ele>1644.47</ele>
        <time>2016-05-26T09:14:54Z</time>
      </trkpt>
      <trkpt lat="44.59603" lon="5.9494">
        <ele>1643.03</ele>
        <time>2016-05-26T09:15:08Z</time>
      </trkpt>
      <trkpt lat="44.59608" lon="5.94936">
        <ele>1642.55</ele>
        <time>2016-05-26T09:15:13Z</time>
      </trkpt>
      <trkpt lat="44.59626" lon="5.94938">
        <ele>1641.59</ele>
        <time>2016-05-26T09:15:30Z</time>
      </trkpt>
      <trkpt lat="44.59628" lon="5.94939">
        <ele>1641.11</ele>
        <time>2016-05-26T09:15:32Z</time>
      </trkpt>
      <trkpt lat="44.59641" lon="5.94941">
        <ele>1640.15</ele>
        <time>2016-05-26T09:15:45Z</time>
      </trkpt>
      <trkpt lat="44.59655" lon="5.94939">
        <ele>1639.19</ele>
        <time>2016-05-26T09:16:01Z</time>
      </trkpt>
      <trkpt lat="44.59669" lon="5.94935">
        <ele>1637.74</ele>
        <time>2016-05-26T09:16:15Z</time>
      </trkpt>
      <trkpt lat="44.59683" lon="5.94928">
        <ele>1636.3</ele>
        <time>2016-05-26T09:16:29Z</time>
      </trkpt>
      <trkpt lat="44.59697" lon="5.94925">
        <ele>1634.86</ele>
        <time>2016-05-26T09:16:43Z</time>
      </trkpt>
      <trkpt lat="44.5971" lon="5.94923">
        <ele>1633.42</ele>
        <time>2016-05-26T09:16:57Z</time>
      </trkpt>
      <trkpt lat="44.59727" lon="5.94917">
        <ele>1631.98</ele>
        <time>2016-05-26T09:17:15Z</time>
      </trkpt>
      <trkpt lat="44.59737" lon="5.94905">
        <ele>1631.01</ele>
        <time>2016-05-26T09:17:29Z</time>
      </trkpt>
      <trkpt lat="44.59746" lon="5.94893">
        <ele>1630.53</ele>
        <time>2016-05-26T09:17:44Z</time>
      </trkpt>
      <trkpt lat="44.59746" lon="5.94896">
        <ele>1631.01</ele>
        <time>2016-05-26T09:17:58Z</time>
      </trkpt>
      <trkpt lat="44.59744" lon="5.94895">
        <ele>1631.49</ele>
        <time>2016-05-26T09:18:16Z</time>
      </trkpt>
      <trkpt lat="44.59747" lon="5.94899">
        <ele>1631.98</ele>
        <time>2016-05-26T09:18:36Z</time>
      </trkpt>
      <trkpt lat="44.59747" lon="5.949">
        <ele>1631.49</ele>
        <time>2016-05-26T09:18:47Z</time>
      </trkpt>
      <trkpt lat="44.59747" lon="5.94899">
        <ele>1631.01</ele>
        <time>2016-05-26T09:19:11Z</time>
      </trkpt>
      <trkpt lat="44.59749" lon="5.94897">
        <ele>1631.49</ele>
        <time>2016-05-26T09:19:30Z</time>
      </trkpt>
      <trkpt lat="44.59747" lon="5.94899">
        <ele>1631.49</ele>
        <time>2016-05-26T09:19:45Z</time>
      </trkpt>
      <trkpt lat="44.59749" lon="5.94901">
        <ele>1632.46</ele>
        <time>2016-05-26T09:20:00Z</time>
      </trkpt>
      <trkpt lat="44.59745" lon="5.94902">
        <ele>1631.98</ele>
        <time>2016-05-26T09:20:19Z</time>
      </trkpt>
      <trkpt lat="44.59746" lon="5.949">
        <ele>1631.98</ele>
        <time>2016-05-26T09:20:37Z</time>
      </trkpt>
      <trkpt lat="44.59756" lon="5.949">
        <ele>1631.98</ele>
        <time>2016-05-26T09:20:46Z</time>
      </trkpt>
      <trkpt lat="44.59768" lon="5.94907">
        <ele>1633.9</ele>
        <time>2016-05-26T09:21:00Z</time>
      </trkpt>
      <trkpt lat="44.59777" lon="5.94913">
        <ele>1634.86</ele>
        <time>2016-05-26T09:21:15Z</time>
      </trkpt>
      <trkpt lat="44.59784" lon="5.9492">
        <ele>1636.3</ele>
        <time>2016-05-26T09:21:27Z</time>
      </trkpt>
      <trkpt lat="44.5979" lon="5.94924">
        <ele>1637.74</ele>
        <time>2016-05-26T09:21:38Z</time>
      </trkpt>
      <trkpt lat="44.59802" lon="5.94927">
        <ele>1639.19</ele>
        <time>2016-05-26T09:21:53Z</time>
      </trkpt>
      <trkpt lat="44.59817" lon="5.94929">
        <ele>1640.63</ele>
        <time>2016-05-26T09:22:08Z</time>
      </trkpt>
      <trkpt lat="44.59832" lon="5.9493">
        <ele>1642.07</ele>
        <time>2016-05-26T09:22:22Z</time>
      </trkpt>
      <trkpt lat="44.59835" lon="5.94929">
        <ele>1642.55</ele>
        <time>2016-05-26T09:22:26Z</time>
      </trkpt>
      <trkpt lat="44.59844" lon="5.94924">
        <ele>1643.03</ele>
        <time>2016-05-26T09:22:41Z</time>
      </trkpt>
      <trkpt lat="44.59853" lon="5.9492">
        <ele>1644.47</ele>
        <time>2016-05-26T09:22:52Z</time>
      </trkpt>
      <trkpt lat="44.59861" lon="5.94915">
        <ele>1645.91</ele>
        <time>2016-05-26T09:23:03Z</time>
      </trkpt>
      <trkpt lat="44.59873" lon="5.94911">
        <ele>1647.36</ele>
        <time>2016-05-26T09:23:17Z</time>
      </trkpt>
      <trkpt lat="44.59883" lon="5.9491">
        <ele>1648.32</ele>
        <time>2016-05-26T09:23:27Z</time>
      </trkpt>
      <trkpt lat="44.59891" lon="5.94905">
        <ele>1649.28</ele>
        <time>2016-05-26T09:23:36Z</time>
      </trkpt>
      <trkpt lat="44.599" lon="5.94893">
        <ele>1650.72</ele>
        <time>2016-05-26T09:23:50Z</time>
      </trkpt>
      <trkpt lat="44.59904" lon="5.94889">
        <ele>1651.2</ele>
        <time>2016-05-26T09:23:56Z</time>
      </trkpt>
      <trkpt lat="44.59914" lon="5.94879">
        <ele>1652.64</ele>
        <time>2016-05-26T09:24:10Z</time>
      </trkpt>
      <trkpt lat="44.59926" lon="5.94873">
        <ele>1654.57</ele>
        <time>2016-05-26T09:24:24Z</time>
      </trkpt>
      <trkpt lat="44.59938" lon="5.94863">
        <ele>1656.49</ele>
        <time>2016-05-26T09:24:39Z</time>
      </trkpt>
      <trkpt lat="44.59949" lon="5.94858">
        <ele>1657.93</ele>
        <time>2016-05-26T09:24:53Z</time>
      </trkpt>
      <trkpt lat="44.59949" lon="5.94857">
        <ele>1657.93</ele>
        <time>2016-05-26T09:24:54Z</time>
      </trkpt>
      <trkpt lat="44.59964" lon="5.94863">
        <ele>1660.33</ele>
        <time>2016-05-26T09:25:11Z</time>
      </trkpt>
      <trkpt lat="44.59965" lon="5.94864">
        <ele>1660.33</ele>
        <time>2016-05-26T09:25:12Z</time>
      </trkpt>
      <trkpt lat="44.59977" lon="5.94873">
        <ele>1662.74</ele>
        <time>2016-05-26T09:25:30Z</time>
      </trkpt>
      <trkpt lat="44.59988" lon="5.94873">
        <ele>1664.18</ele>
        <time>2016-05-26T09:25:42Z</time>
      </trkpt>
      <trkpt lat="44.59998" lon="5.94872">
        <ele>1665.62</ele>
        <time>2016-05-26T09:25:56Z</time>
      </trkpt>
      <trkpt lat="44.60008" lon="5.94869">
        <ele>1667.54</ele>
        <time>2016-05-26T09:26:10Z</time>
      </trkpt>
      <trkpt lat="44.60019" lon="5.94864">
        <ele>1669.47</ele>
        <time>2016-05-26T09:26:25Z</time>
      </trkpt>
      <trkpt lat="44.60031" lon="5.94859">
        <ele>1671.39</ele>
        <time>2016-05-26T09:26:39Z</time>
      </trkpt>
      <trkpt lat="44.6004" lon="5.94855">
        <ele>1672.83</ele>
        <time>2016-05-26T09:26:53Z</time>
      </trkpt>
      <trkpt lat="44.60052" lon="5.94851">
        <ele>1674.75</ele>
        <time>2016-05-26T09:27:10Z</time>
      </trkpt>
      <trkpt lat="44.60063" lon="5.94849">
        <ele>1676.68</ele>
        <time>2016-05-26T09:27:22Z</time>
      </trkpt>
      <trkpt lat="44.60078" lon="5.94853">
        <ele>1678.6</ele>
        <time>2016-05-26T09:27:38Z</time>
      </trkpt>
      <trkpt lat="44.60091" lon="5.94854">
        <ele>1680.04</ele>
        <time>2016-05-26T09:27:52Z</time>
      </trkpt>
      <trkpt lat="44.60102" lon="5.94856">
        <ele>1681.96</ele>
        <time>2016-05-26T09:28:06Z</time>
      </trkpt>
      <trkpt lat="44.60112" lon="5.9486">
        <ele>1684.37</ele>
        <time>2016-05-26T09:28:20Z</time>
      </trkpt>
      <trkpt lat="44.60118" lon="5.94865">
        <ele>1684.85</ele>
        <time>2016-05-26T09:28:29Z</time>
      </trkpt>
      <trkpt lat="44.6013" lon="5.94873">
        <ele>1687.25</ele>
        <time>2016-05-26T09:28:46Z</time>
      </trkpt>
      <trkpt lat="44.60143" lon="5.94886">
        <ele>1689.65</ele>
        <time>2016-05-26T09:29:04Z</time>
      </trkpt>
      <trkpt lat="44.60148" lon="5.94901">
        <ele>1691.58</ele>
        <time>2016-05-26T09:29:20Z</time>
      </trkpt>
      <trkpt lat="44.60149" lon="5.94904">
        <ele>1692.06</ele>
        <time>2016-05-26T09:29:23Z</time>
      </trkpt>
      <trkpt lat="44.60159" lon="5.94916">
        <ele>1694.46</ele>
        <time>2016-05-26T09:29:40Z</time>
      </trkpt>
      <trkpt lat="44.60164" lon="5.94922">
        <ele>1695.42</ele>
        <time>2016-05-26T09:29:52Z</time>
      </trkpt>
      <trkpt lat="44.60172" lon="5.94937">
        <ele>1697.34</ele>
        <time>2016-05-26T09:30:08Z</time>
      </trkpt>
      <trkpt lat="44.60181" lon="5.94948">
        <ele>1699.27</ele>
        <time>2016-05-26T09:30:22Z</time>
      </trkpt>
      <trkpt lat="44.60194" lon="5.94959">
        <ele>1701.19</ele>
        <time>2016-05-26T09:30:39Z</time>
      </trkpt>
      <trkpt lat="44.60207" lon="5.9496">
        <ele>1703.11</ele>
        <time>2016-05-26T09:30:54Z</time>
      </trkpt>
      <trkpt lat="44.60214" lon="5.94955">
        <ele>1704.07</ele>
        <time>2016-05-26T09:31:04Z</time>
      </trkpt>
      <trkpt lat="44.60225" lon="5.94948">
        <ele>1705.52</ele>
        <time>2016-05-26T09:31:18Z</time>
      </trkpt>
      <trkpt lat="44.60234" lon="5.94938">
        <ele>1706.96</ele>
        <time>2016-05-26T09:31:32Z</time>
      </trkpt>
      <trkpt lat="44.60237" lon="5.94935">
        <ele>1707.44</ele>
        <time>2016-05-26T09:31:37Z</time>
      </trkpt>
      <trkpt lat="44.60247" lon="5.94926">
        <ele>1708.88</ele>
        <time>2016-05-26T09:31:50Z</time>
      </trkpt>
      <trkpt lat="44.60259" lon="5.94914">
        <ele>1708.88</ele>
        <time>2016-05-26T09:32:07Z</time>
      </trkpt>
      <trkpt lat="44.60262" lon="5.94913">
        <ele>1709.36</ele>
        <time>2016-05-26T09:32:09Z</time>
      </trkpt>
      <trkpt lat="44.60275" lon="5.94912">
        <ele>1710.8</ele>
        <time>2016-05-26T09:32:23Z</time>
      </trkpt>
      <trkpt lat="44.60285" lon="5.94912">
        <ele>1712.25</ele>
        <time>2016-05-26T09:32:35Z</time>
      </trkpt>
      <trkpt lat="44.60294" lon="5.94913">
        <ele>1713.21</ele>
        <time>2016-05-26T09:32:46Z</time>
      </trkpt>
      <trkpt lat="44.60303" lon="5.94918">
        <ele>1714.65</ele>
        <time>2016-05-26T09:32:59Z</time>
      </trkpt>
      <trkpt lat="44.60312" lon="5.94927">
        <ele>1716.57</ele>
        <time>2016-05-26T09:33:12Z</time>
      </trkpt>
      <trkpt lat="44.6031" lon="5.94941">
        <ele>1718.49</ele>
        <time>2016-05-26T09:33:27Z</time>
      </trkpt>
      <trkpt lat="44.60308" lon="5.94942">
        <ele>1718.49</ele>
        <time>2016-05-26T09:33:29Z</time>
      </trkpt>
      <trkpt lat="44.60295" lon="5.94948">
        <ele>1719.94</ele>
        <time>2016-05-26T09:33:44Z</time>
      </trkpt>
      <trkpt lat="44.60282" lon="5.94949">
        <ele>1720.9</ele>
        <time>2016-05-26T09:33:57Z</time>
      </trkpt>
      <trkpt lat="44.60272" lon="5.94955">
        <ele>1722.82</ele>
        <time>2016-05-26T09:34:11Z</time>
      </trkpt>
      <trkpt lat="44.60263" lon="5.94962">
        <ele>1724.26</ele>
        <time>2016-05-26T09:34:25Z</time>
      </trkpt>
      <trkpt lat="44.60258" lon="5.94974">
        <ele>1726.18</ele>
        <time>2016-05-26T09:34:39Z</time>
      </trkpt>
      <trkpt lat="44.60255" lon="5.94982">
        <ele>1727.63</ele>
        <time>2016-05-26T09:34:47Z</time>
      </trkpt>
      <trkpt lat="44.6025" lon="5.94996">
        <ele>1729.07</ele>
        <time>2016-05-26T09:35:01Z</time>
      </trkpt>
      <trkpt lat="44.60244" lon="5.95007">
        <ele>1730.51</ele>
        <time>2016-05-26T09:35:14Z</time>
      </trkpt>
      <trkpt lat="44.60241" lon="5.95024">
        <ele>1732.43</ele>
        <time>2016-05-26T09:35:32Z</time>
      </trkpt>
      <trkpt lat="44.60248" lon="5.95029">
        <ele>1734.84</ele>
        <time>2016-05-26T09:35:46Z</time>
      </trkpt>
      <trkpt lat="44.60249" lon="5.95028">
        <ele>1734.84</ele>
        <time>2016-05-26T09:35:47Z</time>
      </trkpt>
      <trkpt lat="44.60261" lon="5.9502">
        <ele>1736.28</ele>
        <time>2016-05-26T09:36:03Z</time>
      </trkpt>
      <trkpt lat="44.60272" lon="5.95015">
        <ele>1737.72</ele>
        <time>2016-05-26T09:36:17Z</time>
      </trkpt>
      <trkpt lat="44.60283" lon="5.95015">
        <ele>1738.68</ele>
        <time>2016-05-26T09:36:32Z</time>
      </trkpt>
      <trkpt lat="44.60295" lon="5.95017">
        <ele>1740.12</ele>
        <time>2016-05-26T09:36:47Z</time>
      </trkpt>
      <trkpt lat="44.60308" lon="5.95012">
        <ele>1741.08</ele>
        <time>2016-05-26T09:37:01Z</time>
      </trkpt>
      <trkpt lat="44.60311" lon="5.9501">
        <ele>1741.57</ele>
        <time>2016-05-26T09:37:05Z</time>
      </trkpt>
      <trkpt lat="44.60323" lon="5.95">
        <ele>1743.01</ele>
        <time>2016-05-26T09:37:21Z</time>
      </trkpt>
      <trkpt lat="44.60336" lon="5.94996">
        <ele>1743.97</ele>
        <time>2016-05-26T09:37:35Z</time>
      </trkpt>
      <trkpt lat="44.60345" lon="5.95003">
        <ele>1746.37</ele>
        <time>2016-05-26T09:37:49Z</time>
      </trkpt>
      <trkpt lat="44.60353" lon="5.95011">
        <ele>1747.81</ele>
        <time>2016-05-26T09:38:04Z</time>
      </trkpt>
      <trkpt lat="44.60358" lon="5.95014">
        <ele>1748.78</ele>
        <time>2016-05-26T09:38:11Z</time>
      </trkpt>
      <trkpt lat="44.60363" lon="5.95015">
        <ele>1749.74</ele>
        <time>2016-05-26T09:38:18Z</time>
      </trkpt>
      <trkpt lat="44.60373" lon="5.9502">
        <ele>1751.66</ele>
        <time>2016-05-26T09:38:32Z</time>
      </trkpt>
      <trkpt lat="44.60386" lon="5.95023">
        <ele>1754.06</ele>
        <time>2016-05-26T09:38:50Z</time>
      </trkpt>
      <trkpt lat="44.60399" lon="5.95028">
        <ele>1755.5</ele>
        <time>2016-05-26T09:39:05Z</time>
      </trkpt>
      <trkpt lat="44.60409" lon="5.95043">
        <ele>1757.91</ele>
        <time>2016-05-26T09:39:21Z</time>
      </trkpt>
      <trkpt lat="44.60416" lon="5.95056">
        <ele>1759.35</ele>
        <time>2016-05-26T09:39:35Z</time>
      </trkpt>
      <trkpt lat="44.60424" lon="5.95064">
        <ele>1761.27</ele>
        <time>2016-05-26T09:39:51Z</time>
      </trkpt>
      <trkpt lat="44.60434" lon="5.95072">
        <ele>1763.68</ele>
        <time>2016-05-26T09:40:07Z</time>
      </trkpt>
      <trkpt lat="44.60445" lon="5.95077">
        <ele>1765.6</ele>
        <time>2016-05-26T09:40:23Z</time>
      </trkpt>
      <trkpt lat="44.60446" lon="5.95077">
        <ele>1765.6</ele>
        <time>2016-05-26T09:40:24Z</time>
      </trkpt>
      <trkpt lat="44.60447" lon="5.95078">
        <ele>1766.08</ele>
        <time>2016-05-26T09:40:26Z</time>
      </trkpt>
      <trkpt lat="44.60462" lon="5.9508">
        <ele>1767.52</ele>
        <time>2016-05-26T09:40:42Z</time>
      </trkpt>
      <trkpt lat="44.60473" lon="5.9508">
        <ele>1769.44</ele>
        <time>2016-05-26T09:40:56Z</time>
      </trkpt>
      <trkpt lat="44.60481" lon="5.95078">
        <ele>1771.37</ele>
        <time>2016-05-26T09:41:09Z</time>
      </trkpt>
      <trkpt lat="44.60491" lon="5.9507">
        <ele>1773.29</ele>
        <time>2016-05-26T09:41:25Z</time>
      </trkpt>
      <trkpt lat="44.60499" lon="5.95059">
        <ele>1775.21</ele>
        <time>2016-05-26T09:41:39Z</time>
      </trkpt>
      <trkpt lat="44.60501" lon="5.95057">
        <ele>1775.21</ele>
        <time>2016-05-26T09:41:42Z</time>
      </trkpt>
      <trkpt lat="44.60512" lon="5.95056">
        <ele>1777.13</ele>
        <time>2016-05-26T09:41:56Z</time>
      </trkpt>
      <trkpt lat="44.60523" lon="5.95056">
        <ele>1778.58</ele>
        <time>2016-05-26T09:42:10Z</time>
      </trkpt>
      <trkpt lat="44.60533" lon="5.95057">
        <ele>1780.5</ele>
        <time>2016-05-26T09:42:24Z</time>
      </trkpt>
      <trkpt lat="44.60547" lon="5.95057">
        <ele>1781.94</ele>
        <time>2016-05-26T09:42:40Z</time>
      </trkpt>
      <trkpt lat="44.60559" lon="5.95056">
        <ele>1783.86</ele>
        <time>2016-05-26T09:42:56Z</time>
      </trkpt>
      <trkpt lat="44.60569" lon="5.95058">
        <ele>1785.79</ele>
        <time>2016-05-26T09:43:10Z</time>
      </trkpt>
      <trkpt lat="44.60582" lon="5.95061">
        <ele>1787.71</ele>
        <time>2016-05-26T09:43:26Z</time>
      </trkpt>
      <trkpt lat="44.60593" lon="5.95063">
        <ele>1789.15</ele>
        <time>2016-05-26T09:43:42Z</time>
      </trkpt>
      <trkpt lat="44.60604" lon="5.95067">
        <ele>1791.07</ele>
        <time>2016-05-26T09:43:57Z</time>
      </trkpt>
      <trkpt lat="44.60612" lon="5.95075">
        <ele>1791.55</ele>
        <time>2016-05-26T09:44:11Z</time>
      </trkpt>
      <trkpt lat="44.6062" lon="5.95079">
        <ele>1792.03</ele>
        <time>2016-05-26T09:44:24Z</time>
      </trkpt>
      <trkpt lat="44.60628" lon="5.95082">
        <ele>1792.03</ele>
        <time>2016-05-26T09:44:38Z</time>
      </trkpt>
      <trkpt lat="44.60637" lon="5.95082">
        <ele>1791.55</ele>
        <time>2016-05-26T09:44:51Z</time>
      </trkpt>
      <trkpt lat="44.60647" lon="5.95079">
        <ele>1791.55</ele>
        <time>2016-05-26T09:45:07Z</time>
      </trkpt>
      <trkpt lat="44.60651" lon="5.95079">
        <ele>1792.03</ele>
        <time>2016-05-26T09:45:21Z</time>
      </trkpt>
      <trkpt lat="44.60654" lon="5.95074">
        <ele>1792.52</ele>
        <time>2016-05-26T09:45:34Z</time>
      </trkpt>
      <trkpt lat="44.60657" lon="5.95076">
        <ele>1792.52</ele>
        <time>2016-05-26T09:45:48Z</time>
      </trkpt>
      <trkpt lat="44.60656" lon="5.95074">
        <ele>1791.55</ele>
        <time>2016-05-26T09:46:06Z</time>
      </trkpt>
      <trkpt lat="44.60656" lon="5.95076">
        <ele>1792.52</ele>
        <time>2016-05-26T09:46:22Z</time>
      </trkpt>
      <trkpt lat="44.60654" lon="5.95077">
        <ele>1793</ele>
        <time>2016-05-26T09:46:39Z</time>
      </trkpt>
      <trkpt lat="44.60653" lon="5.95077">
        <ele>1792.52</ele>
        <time>2016-05-26T09:46:56Z</time>
      </trkpt>
      <trkpt lat="44.60649" lon="5.95074">
        <ele>1793</ele>
        <time>2016-05-26T09:47:15Z</time>
      </trkpt>
      <trkpt lat="44.60646" lon="5.95067">
        <ele>1793.96</ele>
        <time>2016-05-26T09:47:32Z</time>
      </trkpt>
      <trkpt lat="44.60646" lon="5.95063">
        <ele>1794.44</ele>
        <time>2016-05-26T09:47:36Z</time>
      </trkpt>
      <trkpt lat="44.60645" lon="5.95052">
        <ele>1795.88</ele>
        <time>2016-05-26T09:47:50Z</time>
      </trkpt>
      <trkpt lat="44.60646" lon="5.95049">
        <ele>1795.88</ele>
        <time>2016-05-26T09:48:10Z</time>
      </trkpt>
      <trkpt lat="44.60646" lon="5.9505">
        <ele>1795.88</ele>
        <time>2016-05-26T09:48:41Z</time>
      </trkpt>
      <trkpt lat="44.60649" lon="5.95053">
        <ele>1795.4</ele>
        <time>2016-05-26T09:49:11Z</time>
      </trkpt>
      <trkpt lat="44.60649" lon="5.95053">
        <ele>1794.44</ele>
        <time>2016-05-26T09:49:32Z</time>
      </trkpt>
      <trkpt lat="44.60651" lon="5.95056">
        <ele>1795.88</ele>
        <time>2016-05-26T09:49:53Z</time>
      </trkpt>
      <trkpt lat="44.60655" lon="5.95057">
        <ele>1795.4</ele>
        <time>2016-05-26T09:50:10Z</time>
      </trkpt>
      <trkpt lat="44.60652" lon="5.95058">
        <ele>1795.88</ele>
        <time>2016-05-26T09:50:27Z</time>
      </trkpt>
      <trkpt lat="44.60653" lon="5.95056">
        <ele>1795.88</ele>
        <time>2016-05-26T09:50:39Z</time>
      </trkpt>
      <trkpt lat="44.60654" lon="5.95057">
        <ele>1795.88</ele>
        <time>2016-05-26T09:50:58Z</time>
      </trkpt>
      <trkpt lat="44.60654" lon="5.95059">
        <ele>1795.88</ele>
        <time>2016-05-26T09:51:19Z</time>
      </trkpt>
      <trkpt lat="44.60655" lon="5.95054">
        <ele>1796.36</ele>
        <time>2016-05-26T09:51:42Z</time>
      </trkpt>
      <trkpt lat="44.60654" lon="5.95042">
        <ele>1798.28</ele>
        <time>2016-05-26T09:51:54Z</time>
      </trkpt>
      <trkpt lat="44.60659" lon="5.95034">
        <ele>1799.73</ele>
        <time>2016-05-26T09:52:07Z</time>
      </trkpt>
      <trkpt lat="44.60665" lon="5.95027">
        <ele>1801.17</ele>
        <time>2016-05-26T09:52:19Z</time>
      </trkpt>
      <trkpt lat="44.60671" lon="5.95019">
        <ele>1802.61</ele>
        <time>2016-05-26T09:52:32Z</time>
      </trkpt>
      <trkpt lat="44.6068" lon="5.9501">
        <ele>1804.53</ele>
        <time>2016-05-26T09:52:47Z</time>
      </trkpt>
      <trkpt lat="44.60687" lon="5.95">
        <ele>1805.49</ele>
        <time>2016-05-26T09:53:00Z</time>
      </trkpt>
      <trkpt lat="44.60692" lon="5.94993">
        <ele>1806.45</ele>
        <time>2016-05-26T09:53:09Z</time>
      </trkpt>
      <trkpt lat="44.60698" lon="5.94983">
        <ele>1807.42</ele>
        <time>2016-05-26T09:53:22Z</time>
      </trkpt>
      <trkpt lat="44.60704" lon="5.94972">
        <ele>1808.86</ele>
        <time>2016-05-26T09:53:37Z</time>
      </trkpt>
      <trkpt lat="44.60712" lon="5.94956">
        <ele>1811.26</ele>
        <time>2016-05-26T09:53:54Z</time>
      </trkpt>
      <trkpt lat="44.6072" lon="5.94945">
        <ele>1812.7</ele>
        <time>2016-05-26T09:54:08Z</time>
      </trkpt>
      <trkpt lat="44.60729" lon="5.94935">
        <ele>1814.63</ele>
        <time>2016-05-26T09:54:23Z</time>
      </trkpt>
      <trkpt lat="44.6074" lon="5.94923">
        <ele>1816.07</ele>
        <time>2016-05-26T09:54:40Z</time>
      </trkpt>
      <trkpt lat="44.60749" lon="5.94913">
        <ele>1817.99</ele>
        <time>2016-05-26T09:54:55Z</time>
      </trkpt>
      <trkpt lat="44.60755" lon="5.94903">
        <ele>1819.91</ele>
        <time>2016-05-26T09:55:09Z</time>
      </trkpt>
      <trkpt lat="44.60764" lon="5.94892">
        <ele>1821.84</ele>
        <time>2016-05-26T09:55:23Z</time>
      </trkpt>
      <trkpt lat="44.60774" lon="5.94881">
        <ele>1823.28</ele>
        <time>2016-05-26T09:55:38Z</time>
      </trkpt>
      <trkpt lat="44.60784" lon="5.94871">
        <ele>1824.72</ele>
        <time>2016-05-26T09:55:52Z</time>
      </trkpt>
      <trkpt lat="44.60789" lon="5.94856">
        <ele>1827.12</ele>
        <time>2016-05-26T09:56:09Z</time>
      </trkpt>
      <trkpt lat="44.60797" lon="5.94849">
        <ele>1827.6</ele>
        <time>2016-05-26T09:56:22Z</time>
      </trkpt>
      <trkpt lat="44.60803" lon="5.94838">
        <ele>1829.53</ele>
        <time>2016-05-26T09:56:36Z</time>
      </trkpt>
      <trkpt lat="44.60809" lon="5.94828">
        <ele>1830.49</ele>
        <time>2016-05-26T09:56:50Z</time>
      </trkpt>
      <trkpt lat="44.60812" lon="5.94818">
        <ele>1832.41</ele>
        <time>2016-05-26T09:57:03Z</time>
      </trkpt>
      <trkpt lat="44.60808" lon="5.94819">
        <ele>1834.81</ele>
        <time>2016-05-26T09:57:15Z</time>
      </trkpt>
      <trkpt lat="44.60803" lon="5.94817">
        <ele>1836.74</ele>
        <time>2016-05-26T09:57:27Z</time>
      </trkpt>
      <trkpt lat="44.60797" lon="5.94817">
        <ele>1838.66</ele>
        <time>2016-05-26T09:57:38Z</time>
      </trkpt>
      <trkpt lat="44.60801" lon="5.9481">
        <ele>1839.62</ele>
        <time>2016-05-26T09:57:51Z</time>
      </trkpt>
      <trkpt lat="44.60804" lon="5.94807">
        <ele>1841.54</ele>
        <time>2016-05-26T09:58:05Z</time>
      </trkpt>
      <trkpt lat="44.60799" lon="5.94805">
        <ele>1843.47</ele>
        <time>2016-05-26T09:58:18Z</time>
      </trkpt>
      <trkpt lat="44.60793" lon="5.94804">
        <ele>1845.87</ele>
        <time>2016-05-26T09:58:31Z</time>
      </trkpt>
      <trkpt lat="44.60786" lon="5.94803">
        <ele>1847.79</ele>
        <time>2016-05-26T09:58:46Z</time>
      </trkpt>
      <trkpt lat="44.60787" lon="5.94798">
        <ele>1849.71</ele>
        <time>2016-05-26T09:58:59Z</time>
      </trkpt>
      <trkpt lat="44.60793" lon="5.94788">
        <ele>1851.64</ele>
        <time>2016-05-26T09:59:15Z</time>
      </trkpt>
      <trkpt lat="44.60797" lon="5.9478">
        <ele>1853.56</ele>
        <time>2016-05-26T09:59:27Z</time>
      </trkpt>
      <trkpt lat="44.60802" lon="5.94774">
        <ele>1854.52</ele>
        <time>2016-05-26T09:59:43Z</time>
      </trkpt>
      <trkpt lat="44.60795" lon="5.94772">
        <ele>1856.44</ele>
        <time>2016-05-26T09:59:56Z</time>
      </trkpt>
      <trkpt lat="44.60789" lon="5.94772">
        <ele>1858.37</ele>
        <time>2016-05-26T10:00:09Z</time>
      </trkpt>
      <trkpt lat="44.60784" lon="5.94771">
        <ele>1860.29</ele>
        <time>2016-05-26T10:00:22Z</time>
      </trkpt>
      <trkpt lat="44.6078" lon="5.94769">
        <ele>1863.65</ele>
        <time>2016-05-26T10:00:37Z</time>
      </trkpt>
      <trkpt lat="44.60775" lon="5.94768">
        <ele>1865.58</ele>
        <time>2016-05-26T10:00:49Z</time>
      </trkpt>
      <trkpt lat="44.60774" lon="5.94767">
        <ele>1867.02</ele>
        <time>2016-05-26T10:01:03Z</time>
      </trkpt>
      <trkpt lat="44.6077" lon="5.94767">
        <ele>1868.46</ele>
        <time>2016-05-26T10:01:18Z</time>
      </trkpt>
      <trkpt lat="44.60766" lon="5.94764">
        <ele>1870.86</ele>
        <time>2016-05-26T10:01:30Z</time>
      </trkpt>
      <trkpt lat="44.60768" lon="5.94756">
        <ele>1873.27</ele>
        <time>2016-05-26T10:01:43Z</time>
      </trkpt>
      <trkpt lat="44.6077" lon="5.94748">
        <ele>1875.67</ele>
        <time>2016-05-26T10:01:56Z</time>
      </trkpt>
      <trkpt lat="44.6077" lon="5.94742">
        <ele>1877.59</ele>
        <time>2016-05-26T10:02:09Z</time>
      </trkpt>
      <trkpt lat="44.60773" lon="5.94736">
        <ele>1879.51</ele>
        <time>2016-05-26T10:02:22Z</time>
      </trkpt>
      <trkpt lat="44.60775" lon="5.94732">
        <ele>1880.96</ele>
        <time>2016-05-26T10:02:36Z</time>
      </trkpt>
      <trkpt lat="44.60777" lon="5.94722">
        <ele>1882.88</ele>
        <time>2016-05-26T10:02:50Z</time>
      </trkpt>
      <trkpt lat="44.60774" lon="5.94719">
        <ele>1885.76</ele>
        <time>2016-05-26T10:03:08Z</time>
      </trkpt>
      <trkpt lat="44.60767" lon="5.94719">
        <ele>1888.17</ele>
        <time>2016-05-26T10:03:23Z</time>
      </trkpt>
      <trkpt lat="44.60763" lon="5.94716">
        <ele>1890.09</ele>
        <time>2016-05-26T10:03:35Z</time>
      </trkpt>
      <trkpt lat="44.60757" lon="5.94713">
        <ele>1892.49</ele>
        <time>2016-05-26T10:03:49Z</time>
      </trkpt>
      <trkpt lat="44.6075" lon="5.94717">
        <ele>1893.45</ele>
        <time>2016-05-26T10:04:03Z</time>
      </trkpt>
      <trkpt lat="44.60743" lon="5.94713">
        <ele>1895.86</ele>
        <time>2016-05-26T10:04:21Z</time>
      </trkpt>
      <trkpt lat="44.60743" lon="5.94706">
        <ele>1897.3</ele>
        <time>2016-05-26T10:04:32Z</time>
      </trkpt>
      <trkpt lat="44.60747" lon="5.94699">
        <ele>1900.18</ele>
        <time>2016-05-26T10:04:47Z</time>
      </trkpt>
      <trkpt lat="44.60753" lon="5.94691">
        <ele>1901.63</ele>
        <time>2016-05-26T10:05:01Z</time>
      </trkpt>
      <trkpt lat="44.60753" lon="5.94683">
        <ele>1903.55</ele>
        <time>2016-05-26T10:05:17Z</time>
      </trkpt>
      <trkpt lat="44.60743" lon="5.94672">
        <ele>1905.95</ele>
        <time>2016-05-26T10:05:34Z</time>
      </trkpt>
      <trkpt lat="44.60739" lon="5.94666">
        <ele>1907.39</ele>
        <time>2016-05-26T10:05:46Z</time>
      </trkpt>
      <trkpt lat="44.60733" lon="5.94655">
        <ele>1909.32</ele>
        <time>2016-05-26T10:06:01Z</time>
      </trkpt>
      <trkpt lat="44.60734" lon="5.94653">
        <ele>1910.28</ele>
        <time>2016-05-26T10:06:12Z</time>
      </trkpt>
      <trkpt lat="44.6074" lon="5.9465">
        <ele>1911.72</ele>
        <time>2016-05-26T10:06:29Z</time>
      </trkpt>
      <trkpt lat="44.60745" lon="5.94649">
        <ele>1912.68</ele>
        <time>2016-05-26T10:06:44Z</time>
      </trkpt>
      <trkpt lat="44.60747" lon="5.94645">
        <ele>1914.12</ele>
        <time>2016-05-26T10:06:56Z</time>
      </trkpt>
      <trkpt lat="44.60745" lon="5.94637">
        <ele>1916.04</ele>
        <time>2016-05-26T10:07:09Z</time>
      </trkpt>
      <trkpt lat="44.60743" lon="5.94634">
        <ele>1916.04</ele>
        <time>2016-05-26T10:07:21Z</time>
      </trkpt>
      <trkpt lat="44.60741" lon="5.94636">
        <ele>1916.53</ele>
        <time>2016-05-26T10:07:39Z</time>
      </trkpt>
      <trkpt lat="44.6074" lon="5.94636">
        <ele>1916.53</ele>
        <time>2016-05-26T10:07:58Z</time>
      </trkpt>
      <trkpt lat="44.60738" lon="5.94631">
        <ele>1916.53</ele>
        <time>2016-05-26T10:08:21Z</time>
      </trkpt>
      <trkpt lat="44.60738" lon="5.94629">
        <ele>1916.53</ele>
        <time>2016-05-26T10:08:35Z</time>
      </trkpt>
      <trkpt lat="44.6074" lon="5.94631">
        <ele>1916.53</ele>
        <time>2016-05-26T10:08:55Z</time>
      </trkpt>
      <trkpt lat="44.60741" lon="5.94631">
        <ele>1917.01</ele>
        <time>2016-05-26T10:09:14Z</time>
      </trkpt>
      <trkpt lat="44.60739" lon="5.94629">
        <ele>1917.01</ele>
        <time>2016-05-26T10:09:34Z</time>
      </trkpt>
      <trkpt lat="44.60741" lon="5.94629">
        <ele>1917.49</ele>
        <time>2016-05-26T10:09:55Z</time>
      </trkpt>
      <trkpt lat="44.60743" lon="5.9463">
        <ele>1917.49</ele>
        <time>2016-05-26T10:10:13Z</time>
      </trkpt>
      <trkpt lat="44.60742" lon="5.94629">
        <ele>1917.49</ele>
        <time>2016-05-26T10:10:29Z</time>
      </trkpt>
      <trkpt lat="44.6074" lon="5.9463">
        <ele>1917.49</ele>
        <time>2016-05-26T10:10:51Z</time>
      </trkpt>
      <trkpt lat="44.6074" lon="5.94631">
        <ele>1917.49</ele>
        <time>2016-05-26T10:11:11Z</time>
      </trkpt>
      <trkpt lat="44.6074" lon="5.9463">
        <ele>1917.49</ele>
        <time>2016-05-26T10:11:30Z</time>
      </trkpt>
      <trkpt lat="44.60743" lon="5.94628">
        <ele>1917.49</ele>
        <time>2016-05-26T10:11:51Z</time>
      </trkpt>
      <trkpt lat="44.60741" lon="5.94627">
        <ele>1917.49</ele>
        <time>2016-05-26T10:12:24Z</time>
      </trkpt>
      <trkpt lat="44.6074" lon="5.94625">
        <ele>1917.49</ele>
        <time>2016-05-26T10:12:50Z</time>
      </trkpt>
      <trkpt lat="44.60739" lon="5.94625">
        <ele>1917.49</ele>
        <time>2016-05-26T10:13:17Z</time>
      </trkpt>
      <trkpt lat="44.60738" lon="5.94624">
        <ele>1917.01</ele>
        <time>2016-05-26T10:13:43Z</time>
      </trkpt>
      <trkpt lat="44.6074" lon="5.94627">
        <ele>1917.01</ele>
        <time>2016-05-26T10:14:02Z</time>
      </trkpt>
      <trkpt lat="44.60742" lon="5.94627">
        <ele>1916.53</ele>
        <time>2016-05-26T10:14:23Z</time>
      </trkpt>
      <trkpt lat="44.60742" lon="5.94628">
        <ele>1917.01</ele>
        <time>2016-05-26T10:14:50Z</time>
      </trkpt>
      <trkpt lat="44.60742" lon="5.94627">
        <ele>1917.49</ele>
        <time>2016-05-26T10:15:15Z</time>
      </trkpt>
      <trkpt lat="44.60743" lon="5.94626">
        <ele>1916.53</ele>
        <time>2016-05-26T10:15:28Z</time>
      </trkpt>
      <trkpt lat="44.60743" lon="5.94627">
        <ele>1916.04</ele>
        <time>2016-05-26T10:15:49Z</time>
      </trkpt>
      <trkpt lat="44.60743" lon="5.94629">
        <ele>1916.53</ele>
        <time>2016-05-26T10:16:15Z</time>
      </trkpt>
      <trkpt lat="44.60743" lon="5.94627">
        <ele>1916.53</ele>
        <time>2016-05-26T10:16:37Z</time>
      </trkpt>
      <trkpt lat="44.60744" lon="5.94625">
        <ele>1917.49</ele>
        <time>2016-05-26T10:16:48Z</time>
      </trkpt>
      <trkpt lat="44.60743" lon="5.94628">
        <ele>1917.49</ele>
        <time>2016-05-26T10:17:06Z</time>
      </trkpt>
      <trkpt lat="44.60746" lon="5.94621">
        <ele>1918.93</ele>
        <time>2016-05-26T10:17:19Z</time>
      </trkpt>
      <trkpt lat="44.6075" lon="5.94616">
        <ele>1920.37</ele>
        <time>2016-05-26T10:17:28Z</time>
      </trkpt>
      <trkpt lat="44.60754" lon="5.94609">
        <ele>1922.29</ele>
        <time>2016-05-26T10:17:41Z</time>
      </trkpt>
      <trkpt lat="44.6076" lon="5.94604">
        <ele>1924.22</ele>
        <time>2016-05-26T10:17:55Z</time>
      </trkpt>
      <trkpt lat="44.60765" lon="5.94601">
        <ele>1925.18</ele>
        <time>2016-05-26T10:18:09Z</time>
      </trkpt>
      <trkpt lat="44.60771" lon="5.94595">
        <ele>1928.06</ele>
        <time>2016-05-26T10:18:24Z</time>
      </trkpt>
      <trkpt lat="44.60778" lon="5.94589">
        <ele>1929.5</ele>
        <time>2016-05-26T10:18:37Z</time>
      </trkpt>
      <trkpt lat="44.60782" lon="5.94581">
        <ele>1931.91</ele>
        <time>2016-05-26T10:18:50Z</time>
      </trkpt>
      <trkpt lat="44.60778" lon="5.94576">
        <ele>1934.31</ele>
        <time>2016-05-26T10:19:05Z</time>
      </trkpt>
      <trkpt lat="44.60772" lon="5.9457">
        <ele>1937.19</ele>
        <time>2016-05-26T10:19:20Z</time>
      </trkpt>
      <trkpt lat="44.60768" lon="5.94563">
        <ele>1939.6</ele>
        <time>2016-05-26T10:19:36Z</time>
      </trkpt>
      <trkpt lat="44.60762" lon="5.94558">
        <ele>1942</ele>
        <time>2016-05-26T10:19:50Z</time>
      </trkpt>
      <trkpt lat="44.60761" lon="5.94551">
        <ele>1944.4</ele>
        <time>2016-05-26T10:20:04Z</time>
      </trkpt>
      <trkpt lat="44.60757" lon="5.94546">
        <ele>1945.36</ele>
        <time>2016-05-26T10:20:16Z</time>
      </trkpt>
      <trkpt lat="44.60752" lon="5.94537">
        <ele>1947.77</ele>
        <time>2016-05-26T10:20:31Z</time>
      </trkpt>
      <trkpt lat="44.60746" lon="5.94526">
        <ele>1949.69</ele>
        <time>2016-05-26T10:20:46Z</time>
      </trkpt>
      <trkpt lat="44.60747" lon="5.94527">
        <ele>1949.69</ele>
        <time>2016-05-26T10:21:00Z</time>
      </trkpt>
      <trkpt lat="44.60745" lon="5.9452">
        <ele>1950.17</ele>
        <time>2016-05-26T10:21:17Z</time>
      </trkpt>
      <trkpt lat="44.60745" lon="5.94506">
        <ele>1952.57</ele>
        <time>2016-05-26T10:21:34Z</time>
      </trkpt>
      <trkpt lat="44.60746" lon="5.94505">
        <ele>1952.57</ele>
        <time>2016-05-26T10:21:48Z</time>
      </trkpt>
      <trkpt lat="44.60756" lon="5.94497">
        <ele>1955.94</ele>
        <time>2016-05-26T10:22:05Z</time>
      </trkpt>
      <trkpt lat="44.60756" lon="5.94496">
        <ele>1955.94</ele>
        <time>2016-05-26T10:22:06Z</time>
      </trkpt>
      <trkpt lat="44.60763" lon="5.94488">
        <ele>1958.34</ele>
        <time>2016-05-26T10:22:19Z</time>
      </trkpt>
      <trkpt lat="44.60764" lon="5.94479">
        <ele>1960.27</ele>
        <time>2016-05-26T10:22:35Z</time>
      </trkpt>
      <trkpt lat="44.60767" lon="5.94473">
        <ele>1962.19</ele>
        <time>2016-05-26T10:22:52Z</time>
      </trkpt>
      <trkpt lat="44.60768" lon="5.94472">
        <ele>1962.67</ele>
        <time>2016-05-26T10:23:05Z</time>
      </trkpt>
      <trkpt lat="44.60775" lon="5.94466">
        <ele>1963.15</ele>
        <time>2016-05-26T10:23:20Z</time>
      </trkpt>
      <trkpt lat="44.60775" lon="5.94468">
        <ele>1963.63</ele>
        <time>2016-05-26T10:23:34Z</time>
      </trkpt>
      <trkpt lat="44.60776" lon="5.94467">
        <ele>1963.15</ele>
        <time>2016-05-26T10:23:50Z</time>
      </trkpt>
      <trkpt lat="44.60774" lon="5.94465">
        <ele>1963.63</ele>
        <time>2016-05-26T10:24:10Z</time>
      </trkpt>
      <trkpt lat="44.6077" lon="5.9446">
        <ele>1962.19</ele>
        <time>2016-05-26T10:24:22Z</time>
      </trkpt>
      <trkpt lat="44.6077" lon="5.9446">
        <ele>1962.19</ele>
        <time>2016-05-26T10:24:42Z</time>
      </trkpt>
      <trkpt lat="44.6077" lon="5.94461">
        <ele>1962.67</ele>
        <time>2016-05-26T10:25:00Z</time>
      </trkpt>
      <trkpt lat="44.6077" lon="5.9446">
        <ele>1962.19</ele>
        <time>2016-05-26T10:25:23Z</time>
      </trkpt>
      <trkpt lat="44.6077" lon="5.94471">
        <ele>1963.63</ele>
        <time>2016-05-26T10:25:37Z</time>
      </trkpt>
      <trkpt lat="44.60768" lon="5.94474">
        <ele>1963.15</ele>
        <time>2016-05-26T10:25:49Z</time>
      </trkpt>
      <trkpt lat="44.60767" lon="5.94472">
        <ele>1963.63</ele>
        <time>2016-05-26T10:26:10Z</time>
      </trkpt>
      <trkpt lat="44.60767" lon="5.94472">
        <ele>1963.63</ele>
        <time>2016-05-26T10:26:34Z</time>
      </trkpt>
      <trkpt lat="44.60766" lon="5.94472">
        <ele>1963.63</ele>
        <time>2016-05-26T10:27:04Z</time>
      </trkpt>
      <trkpt lat="44.60767" lon="5.94471">
        <ele>1964.11</ele>
        <time>2016-05-26T10:27:32Z</time>
      </trkpt>
      <trkpt lat="44.60767" lon="5.94473">
        <ele>1964.11</ele>
        <time>2016-05-26T10:27:58Z</time>
      </trkpt>
      <trkpt lat="44.60768" lon="5.94473">
        <ele>1964.11</ele>
        <time>2016-05-26T10:28:19Z</time>
      </trkpt>
      <trkpt lat="44.60773" lon="5.94471">
        <ele>1965.07</ele>
        <time>2016-05-26T10:28:30Z</time>
      </trkpt>
      <trkpt lat="44.60774" lon="5.94466">
        <ele>1965.07</ele>
        <time>2016-05-26T10:28:41Z</time>
      </trkpt>
      <trkpt lat="44.60774" lon="5.94467">
        <ele>1965.07</ele>
        <time>2016-05-26T10:29:04Z</time>
      </trkpt>
      <trkpt lat="44.60773" lon="5.94466">
        <ele>1965.07</ele>
        <time>2016-05-26T10:29:25Z</time>
      </trkpt>
      <trkpt lat="44.60773" lon="5.94466">
        <ele>1965.07</ele>
        <time>2016-05-26T10:29:49Z</time>
      </trkpt>
      <trkpt lat="44.60773" lon="5.94469">
        <ele>1965.07</ele>
        <time>2016-05-26T10:30:14Z</time>
      </trkpt>
      <trkpt lat="44.60775" lon="5.94467">
        <ele>1964.59</ele>
        <time>2016-05-26T10:30:27Z</time>
      </trkpt>
      <trkpt lat="44.60778" lon="5.94464">
        <ele>1964.59</ele>
        <time>2016-05-26T10:30:49Z</time>
      </trkpt>
      <trkpt lat="44.60775" lon="5.94466">
        <ele>1964.11</ele>
        <time>2016-05-26T10:31:11Z</time>
      </trkpt>
      <trkpt lat="44.60774" lon="5.94466">
        <ele>1964.59</ele>
        <time>2016-05-26T10:31:37Z</time>
      </trkpt>
      <trkpt lat="44.60774" lon="5.94466">
        <ele>1964.11</ele>
        <time>2016-05-26T10:32:01Z</time>
      </trkpt>
      <trkpt lat="44.60773" lon="5.94465">
        <ele>1964.11</ele>
        <time>2016-05-26T10:32:26Z</time>
      </trkpt>
      <trkpt lat="44.60773" lon="5.94465">
        <ele>1964.11</ele>
        <time>2016-05-26T10:32:54Z</time>
      </trkpt>
      <trkpt lat="44.60773" lon="5.94467">
        <ele>1964.59</ele>
        <time>2016-05-26T10:33:27Z</time>
      </trkpt>
      <trkpt lat="44.60771" lon="5.94466">
        <ele>1964.59</ele>
        <time>2016-05-26T10:33:59Z</time>
      </trkpt>
      <trkpt lat="44.60776" lon="5.94466">
        <ele>1965.07</ele>
        <time>2016-05-26T10:34:31Z</time>
      </trkpt>
      <trkpt lat="44.60778" lon="5.9447">
        <ele>1965.07</ele>
        <time>2016-05-26T10:35:05Z</time>
      </trkpt>
      <trkpt lat="44.60779" lon="5.94473">
        <ele>1965.07</ele>
        <time>2016-05-26T10:35:46Z</time>
      </trkpt>
      <trkpt lat="44.6078" lon="5.94465">
        <ele>1965.07</ele>
        <time>2016-05-26T10:36:17Z</time>
      </trkpt>
      <trkpt lat="44.60776" lon="5.94468">
        <ele>1965.07</ele>
        <time>2016-05-26T10:37:01Z</time>
      </trkpt>
      <trkpt lat="44.60776" lon="5.9447">
        <ele>1965.07</ele>
        <time>2016-05-26T10:37:39Z</time>
      </trkpt>
      <trkpt lat="44.60776" lon="5.94473">
        <ele>1964.59</ele>
        <time>2016-05-26T10:38:23Z</time>
      </trkpt>
      <trkpt lat="44.60776" lon="5.94473">
        <ele>1964.59</ele>
        <time>2016-05-26T10:38:58Z</time>
      </trkpt>
      <trkpt lat="44.60777" lon="5.94469">
        <ele>1964.59</ele>
        <time>2016-05-26T10:39:40Z</time>
      </trkpt>
      <trkpt lat="44.60776" lon="5.94472">
        <ele>1964.59</ele>
        <time>2016-05-26T10:40:14Z</time>
      </trkpt>
      <trkpt lat="44.60776" lon="5.94473">
        <ele>1964.59</ele>
        <time>2016-05-26T10:40:52Z</time>
      </trkpt>
      <trkpt lat="44.60776" lon="5.94473">
        <ele>1965.07</ele>
        <time>2016-05-26T10:41:26Z</time>
      </trkpt>
      <trkpt lat="44.60776" lon="5.94469">
        <ele>1965.07</ele>
        <time>2016-05-26T10:42:05Z</time>
      </trkpt>
      <trkpt lat="44.60776" lon="5.94469">
        <ele>1964.59</ele>
        <time>2016-05-26T10:42:46Z</time>
      </trkpt>
      <trkpt lat="44.60778" lon="5.94468">
        <ele>1964.11</ele>
        <time>2016-05-26T10:43:29Z</time>
      </trkpt>
      <trkpt lat="44.60776" lon="5.94468">
        <ele>1963.63</ele>
        <time>2016-05-26T10:44:09Z</time>
      </trkpt>
      <trkpt lat="44.60776" lon="5.94469">
        <ele>1963.15</ele>
        <time>2016-05-26T10:44:48Z</time>
      </trkpt>
      <trkpt lat="44.60775" lon="5.94471">
        <ele>1963.15</ele>
        <time>2016-05-26T10:45:18Z</time>
      </trkpt>
      <trkpt lat="44.6078" lon="5.94468">
        <ele>1962.67</ele>
        <time>2016-05-26T10:45:56Z</time>
      </trkpt>
      <trkpt lat="44.60774" lon="5.9447">
        <ele>1962.67</ele>
        <time>2016-05-26T10:46:33Z</time>
      </trkpt>
      <trkpt lat="44.60776" lon="5.94469">
        <ele>1963.15</ele>
        <time>2016-05-26T10:47:09Z</time>
      </trkpt>
      <trkpt lat="44.60776" lon="5.9447">
        <ele>1963.15</ele>
        <time>2016-05-26T10:47:48Z</time>
      </trkpt>
      <trkpt lat="44.60776" lon="5.94467">
        <ele>1963.63</ele>
        <time>2016-05-26T10:48:18Z</time>
      </trkpt>
      <trkpt lat="44.60777" lon="5.94468">
        <ele>1963.63</ele>
        <time>2016-05-26T10:48:58Z</time>
      </trkpt>
      <trkpt lat="44.60779" lon="5.94464">
        <ele>1964.11</ele>
        <time>2016-05-26T10:49:36Z</time>
      </trkpt>
      <trkpt lat="44.60774" lon="5.9447">
        <ele>1964.59</ele>
        <time>2016-05-26T10:50:07Z</time>
      </trkpt>
      <trkpt lat="44.60774" lon="5.94469">
        <ele>1964.59</ele>
        <time>2016-05-26T10:50:33Z</time>
      </trkpt>
      <trkpt lat="44.60775" lon="5.94472">
        <ele>1964.59</ele>
        <time>2016-05-26T10:51:05Z</time>
      </trkpt>
      <trkpt lat="44.60776" lon="5.94471">
        <ele>1965.07</ele>
        <time>2016-05-26T10:51:27Z</time>
      </trkpt>
      <trkpt lat="44.60775" lon="5.94472">
        <ele>1965.07</ele>
        <time>2016-05-26T10:51:57Z</time>
      </trkpt>
      <trkpt lat="44.60774" lon="5.94471">
        <ele>1964.59</ele>
        <time>2016-05-26T10:52:30Z</time>
      </trkpt>
      <trkpt lat="44.60777" lon="5.9447">
        <ele>1964.59</ele>
        <time>2016-05-26T10:53:08Z</time>
      </trkpt>
      <trkpt lat="44.60775" lon="5.9447">
        <ele>1964.59</ele>
        <time>2016-05-26T10:53:40Z</time>
      </trkpt>
      <trkpt lat="44.60773" lon="5.94469">
        <ele>1964.59</ele>
        <time>2016-05-26T10:54:19Z</time>
      </trkpt>
      <trkpt lat="44.60776" lon="5.94466">
        <ele>1964.59</ele>
        <time>2016-05-26T10:54:56Z</time>
      </trkpt>
      <trkpt lat="44.60775" lon="5.94469">
        <ele>1965.07</ele>
        <time>2016-05-26T10:55:37Z</time>
      </trkpt>
      <trkpt lat="44.60777" lon="5.94468">
        <ele>1964.59</ele>
        <time>2016-05-26T10:56:19Z</time>
      </trkpt>
      <trkpt lat="44.60777" lon="5.94466">
        <ele>1964.11</ele>
        <time>2016-05-26T10:56:54Z</time>
      </trkpt>
      <trkpt lat="44.60776" lon="5.94467">
        <ele>1964.11</ele>
        <time>2016-05-26T10:57:36Z</time>
      </trkpt>
      <trkpt lat="44.60776" lon="5.94468">
        <ele>1964.11</ele>
        <time>2016-05-26T10:58:12Z</time>
      </trkpt>
      <trkpt lat="44.60777" lon="5.94467">
        <ele>1964.11</ele>
        <time>2016-05-26T10:58:53Z</time>
      </trkpt>
      <trkpt lat="44.60777" lon="5.94465">
        <ele>1964.11</ele>
        <time>2016-05-26T10:59:13Z</time>
      </trkpt>
      <trkpt lat="44.60779" lon="5.94463">
        <ele>1964.11</ele>
        <time>2016-05-26T10:59:46Z</time>
      </trkpt>
      <trkpt lat="44.60779" lon="5.94465">
        <ele>1964.11</ele>
        <time>2016-05-26T11:00:24Z</time>
      </trkpt>
      <trkpt lat="44.60779" lon="5.94466">
        <ele>1964.11</ele>
        <time>2016-05-26T11:00:43Z</time>
      </trkpt>
      <trkpt lat="44.6078" lon="5.94466">
        <ele>1964.11</ele>
        <time>2016-05-26T11:01:16Z</time>
      </trkpt>
      <trkpt lat="44.60782" lon="5.94466">
        <ele>1964.59</ele>
        <time>2016-05-26T11:01:56Z</time>
      </trkpt>
      <trkpt lat="44.60781" lon="5.94465">
        <ele>1965.07</ele>
        <time>2016-05-26T11:02:37Z</time>
      </trkpt>
      <trkpt lat="44.60777" lon="5.94465">
        <ele>1965.55</ele>
        <time>2016-05-26T11:03:16Z</time>
      </trkpt>
      <trkpt lat="44.60777" lon="5.94466">
        <ele>1965.55</ele>
        <time>2016-05-26T11:03:34Z</time>
      </trkpt>
      <trkpt lat="44.60775" lon="5.94466">
        <ele>1965.55</ele>
        <time>2016-05-26T11:04:10Z</time>
      </trkpt>
      <trkpt lat="44.60777" lon="5.94465">
        <ele>1965.55</ele>
        <time>2016-05-26T11:04:52Z</time>
      </trkpt>
      <trkpt lat="44.60775" lon="5.94466">
        <ele>1966.03</ele>
        <time>2016-05-26T11:05:28Z</time>
      </trkpt>
      <trkpt lat="44.60775" lon="5.94466">
        <ele>1966.03</ele>
        <time>2016-05-26T11:05:59Z</time>
      </trkpt>
      <trkpt lat="44.60774" lon="5.94466">
        <ele>1966.03</ele>
        <time>2016-05-26T11:06:26Z</time>
      </trkpt>
      <trkpt lat="44.60774" lon="5.94467">
        <ele>1966.03</ele>
        <time>2016-05-26T11:06:50Z</time>
      </trkpt>
      <trkpt lat="44.60775" lon="5.94468">
        <ele>1966.51</ele>
        <time>2016-05-26T11:07:20Z</time>
      </trkpt>
      <trkpt lat="44.60772" lon="5.9447">
        <ele>1966.03</ele>
        <time>2016-05-26T11:07:48Z</time>
      </trkpt>
      <trkpt lat="44.60773" lon="5.94467">
        <ele>1966.03</ele>
        <time>2016-05-26T11:08:06Z</time>
      </trkpt>
      <trkpt lat="44.60772" lon="5.94467">
        <ele>1966.99</ele>
        <time>2016-05-26T11:08:27Z</time>
      </trkpt>
      <trkpt lat="44.60774" lon="5.94467">
        <ele>1966.51</ele>
        <time>2016-05-26T11:08:47Z</time>
      </trkpt>
      <trkpt lat="44.60772" lon="5.94468">
        <ele>1965.55</ele>
        <time>2016-05-26T11:09:12Z</time>
      </trkpt>
      <trkpt lat="44.60772" lon="5.9447">
        <ele>1965.55</ele>
        <time>2016-05-26T11:09:53Z</time>
      </trkpt>
      <trkpt lat="44.60772" lon="5.94469">
        <ele>1965.55</ele>
        <time>2016-05-26T11:10:26Z</time>
      </trkpt>
      <trkpt lat="44.60771" lon="5.9447">
        <ele>1965.55</ele>
        <time>2016-05-26T11:11:00Z</time>
      </trkpt>
      <trkpt lat="44.60772" lon="5.9447">
        <ele>1965.55</ele>
        <time>2016-05-26T11:11:34Z</time>
      </trkpt>
      <trkpt lat="44.60771" lon="5.9447">
        <ele>1965.55</ele>
        <time>2016-05-26T11:12:07Z</time>
      </trkpt>
      <trkpt lat="44.60771" lon="5.94471">
        <ele>1965.55</ele>
        <time>2016-05-26T11:12:49Z</time>
      </trkpt>
      <trkpt lat="44.60771" lon="5.9447">
        <ele>1965.55</ele>
        <time>2016-05-26T11:13:27Z</time>
      </trkpt>
      <trkpt lat="44.60772" lon="5.94467">
        <ele>1966.03</ele>
        <time>2016-05-26T11:13:56Z</time>
      </trkpt>
      <trkpt lat="44.60775" lon="5.94468">
        <ele>1965.55</ele>
        <time>2016-05-26T11:14:11Z</time>
      </trkpt>
      <trkpt lat="44.60777" lon="5.94468">
        <ele>1965.07</ele>
        <time>2016-05-26T11:14:44Z</time>
      </trkpt>
      <trkpt lat="44.60777" lon="5.94468">
        <ele>1965.07</ele>
        <time>2016-05-26T11:15:16Z</time>
      </trkpt>
      <trkpt lat="44.60776" lon="5.94468">
        <ele>1964.59</ele>
        <time>2016-05-26T11:15:47Z</time>
      </trkpt>
      <trkpt lat="44.60778" lon="5.94469">
        <ele>1964.59</ele>
        <time>2016-05-26T11:16:26Z</time>
      </trkpt>
      <trkpt lat="44.60774" lon="5.94468">
        <ele>1964.59</ele>
        <time>2016-05-26T11:17:08Z</time>
      </trkpt>
      <trkpt lat="44.60775" lon="5.9447">
        <ele>1965.55</ele>
        <time>2016-05-26T11:17:55Z</time>
      </trkpt>
      <trkpt lat="44.60776" lon="5.94468">
        <ele>1964.59</ele>
        <time>2016-05-26T11:18:33Z</time>
      </trkpt>
      <trkpt lat="44.60775" lon="5.94468">
        <ele>1964.59</ele>
        <time>2016-05-26T11:19:15Z</time>
      </trkpt>
      <trkpt lat="44.60775" lon="5.94468">
        <ele>1965.07</ele>
        <time>2016-05-26T11:19:55Z</time>
      </trkpt>
      <trkpt lat="44.60777" lon="5.94469">
        <ele>1964.59</ele>
        <time>2016-05-26T11:20:24Z</time>
      </trkpt>
      <trkpt lat="44.60778" lon="5.9447">
        <ele>1964.59</ele>
        <time>2016-05-26T11:21:03Z</time>
      </trkpt>
      <trkpt lat="44.60777" lon="5.94469">
        <ele>1964.59</ele>
        <time>2016-05-26T11:21:36Z</time>
      </trkpt>
      <trkpt lat="44.60776" lon="5.94468">
        <ele>1964.59</ele>
        <time>2016-05-26T11:22:09Z</time>
      </trkpt>
      <trkpt lat="44.60776" lon="5.94468">
        <ele>1964.59</ele>
        <time>2016-05-26T11:22:50Z</time>
      </trkpt>
      <trkpt lat="44.60776" lon="5.94468">
        <ele>1964.59</ele>
        <time>2016-05-26T11:23:24Z</time>
      </trkpt>
      <trkpt lat="44.60776" lon="5.94468">
        <ele>1965.07</ele>
        <time>2016-05-26T11:24:00Z</time>
      </trkpt>
      <trkpt lat="44.60775" lon="5.94468">
        <ele>1965.07</ele>
        <time>2016-05-26T11:24:43Z</time>
      </trkpt>
      <trkpt lat="44.60774" lon="5.94467">
        <ele>1965.07</ele>
        <time>2016-05-26T11:25:14Z</time>
      </trkpt>
      <trkpt lat="44.60776" lon="5.94468">
        <ele>1965.07</ele>
        <time>2016-05-26T11:25:57Z</time>
      </trkpt>
      <trkpt lat="44.60774" lon="5.94468">
        <ele>1965.07</ele>
        <time>2016-05-26T11:26:37Z</time>
      </trkpt>
      <trkpt lat="44.60775" lon="5.94469">
        <ele>1965.07</ele>
        <time>2016-05-26T11:27:11Z</time>
      </trkpt>
      <trkpt lat="44.60775" lon="5.94468">
        <ele>1965.55</ele>
        <time>2016-05-26T11:27:52Z</time>
      </trkpt>
      <trkpt lat="44.60775" lon="5.94468">
        <ele>1965.55</ele>
        <time>2016-05-26T11:28:33Z</time>
      </trkpt>
      <trkpt lat="44.60774" lon="5.94468">
        <ele>1966.03</ele>
        <time>2016-05-26T11:28:45Z</time>
      </trkpt>
      <trkpt lat="44.60775" lon="5.94467">
        <ele>1966.03</ele>
        <time>2016-05-26T11:29:04Z</time>
      </trkpt>
      <trkpt lat="44.60777" lon="5.94468">
        <ele>1966.99</ele>
        <time>2016-05-26T11:29:17Z</time>
      </trkpt>
      <trkpt lat="44.60773" lon="5.94467">
        <ele>1967.48</ele>
        <time>2016-05-26T11:29:31Z</time>
      </trkpt>
      <trkpt lat="44.60775" lon="5.94463">
        <ele>1966.99</ele>
        <time>2016-05-26T11:29:44Z</time>
      </trkpt>
      <trkpt lat="44.60775" lon="5.94464">
        <ele>1966.99</ele>
        <time>2016-05-26T11:30:04Z</time>
      </trkpt>
      <trkpt lat="44.60774" lon="5.94466">
        <ele>1967.48</ele>
        <time>2016-05-26T11:30:24Z</time>
      </trkpt>
      <trkpt lat="44.60775" lon="5.94468">
        <ele>1967.48</ele>
        <time>2016-05-26T11:30:37Z</time>
      </trkpt>
      <trkpt lat="44.60774" lon="5.94467">
        <ele>1966.51</ele>
        <time>2016-05-26T11:30:52Z</time>
      </trkpt>
      <trkpt lat="44.60774" lon="5.94468">
        <ele>1966.51</ele>
        <time>2016-05-26T11:31:25Z</time>
      </trkpt>
      <trkpt lat="44.60775" lon="5.94468">
        <ele>1966.03</ele>
        <time>2016-05-26T11:32:01Z</time>
      </trkpt>
      <trkpt lat="44.60776" lon="5.94467">
        <ele>1966.03</ele>
        <time>2016-05-26T11:32:27Z</time>
      </trkpt>
      <trkpt lat="44.60776" lon="5.94468">
        <ele>1966.51</ele>
        <time>2016-05-26T11:33:05Z</time>
      </trkpt>
      <trkpt lat="44.60775" lon="5.94467">
        <ele>1966.51</ele>
        <time>2016-05-26T11:33:43Z</time>
      </trkpt>
      <trkpt lat="44.60774" lon="5.94468">
        <ele>1966.03</ele>
        <time>2016-05-26T11:34:21Z</time>
      </trkpt>
      <trkpt lat="44.60775" lon="5.94468">
        <ele>1966.03</ele>
        <time>2016-05-26T11:34:49Z</time>
      </trkpt>
      <trkpt lat="44.60772" lon="5.9447">
        <ele>1966.99</ele>
        <time>2016-05-26T11:35:01Z</time>
      </trkpt>
      <trkpt lat="44.60772" lon="5.94469">
        <ele>1966.99</ele>
        <time>2016-05-26T11:35:14Z</time>
      </trkpt>
      <trkpt lat="44.60774" lon="5.94467">
        <ele>1967.96</ele>
        <time>2016-05-26T11:35:36Z</time>
      </trkpt>
      <trkpt lat="44.60775" lon="5.94468">
        <ele>1966.99</ele>
        <time>2016-05-26T11:36:03Z</time>
      </trkpt>
      <trkpt lat="44.60775" lon="5.94469">
        <ele>1966.99</ele>
        <time>2016-05-26T11:36:30Z</time>
      </trkpt>
      <trkpt lat="44.60775" lon="5.94469">
        <ele>1966.51</ele>
        <time>2016-05-26T11:36:55Z</time>
      </trkpt>
      <trkpt lat="44.60772" lon="5.94468">
        <ele>1966.99</ele>
        <time>2016-05-26T11:37:31Z</time>
      </trkpt>
      <trkpt lat="44.60775" lon="5.94467">
        <ele>1966.51</ele>
        <time>2016-05-26T11:37:47Z</time>
      </trkpt>
      <trkpt lat="44.60775" lon="5.94467">
        <ele>1966.51</ele>
        <time>2016-05-26T11:38:28Z</time>
      </trkpt>
      <trkpt lat="44.60774" lon="5.94468">
        <ele>1966.99</ele>
        <time>2016-05-26T11:38:53Z</time>
      </trkpt>
      <trkpt lat="44.60774" lon="5.94467">
        <ele>1966.51</ele>
        <time>2016-05-26T11:39:22Z</time>
      </trkpt>
      <trkpt lat="44.60768" lon="5.94474">
        <ele>1966.51</ele>
        <time>2016-05-26T11:39:34Z</time>
      </trkpt>
      <trkpt lat="44.60765" lon="5.94478">
        <ele>1965.55</ele>
        <time>2016-05-26T11:39:55Z</time>
      </trkpt>
      <trkpt lat="44.60764" lon="5.9449">
        <ele>1962.67</ele>
        <time>2016-05-26T11:40:08Z</time>
      </trkpt>
      <trkpt lat="44.60762" lon="5.94492">
        <ele>1962.19</ele>
        <time>2016-05-26T11:40:11Z</time>
      </trkpt>
      <trkpt lat="44.60755" lon="5.94504">
        <ele>1959.78</ele>
        <time>2016-05-26T11:40:25Z</time>
      </trkpt>
      <trkpt lat="44.6075" lon="5.94517">
        <ele>1956.9</ele>
        <time>2016-05-26T11:40:40Z</time>
      </trkpt>
      <trkpt lat="44.60749" lon="5.94529">
        <ele>1954.5</ele>
        <time>2016-05-26T11:40:53Z</time>
      </trkpt>
      <trkpt lat="44.60748" lon="5.94539">
        <ele>1951.13</ele>
        <time>2016-05-26T11:41:03Z</time>
      </trkpt>
      <trkpt lat="44.60745" lon="5.94544">
        <ele>1948.25</ele>
        <time>2016-05-26T11:41:16Z</time>
      </trkpt>
      <trkpt lat="44.60746" lon="5.94555">
        <ele>1945.85</ele>
        <time>2016-05-26T11:41:30Z</time>
      </trkpt>
      <trkpt lat="44.60746" lon="5.94564">
        <ele>1942.48</ele>
        <time>2016-05-26T11:41:41Z</time>
      </trkpt>
      <trkpt lat="44.60747" lon="5.94572">
        <ele>1939.6</ele>
        <time>2016-05-26T11:41:50Z</time>
      </trkpt>
      <trkpt lat="44.60746" lon="5.9458">
        <ele>1936.23</ele>
        <time>2016-05-26T11:42:01Z</time>
      </trkpt>
      <trkpt lat="44.60746" lon="5.94582">
        <ele>1935.75</ele>
        <time>2016-05-26T11:42:03Z</time>
      </trkpt>
      <trkpt lat="44.60745" lon="5.94592">
        <ele>1932.39</ele>
        <time>2016-05-26T11:42:14Z</time>
      </trkpt>
      <trkpt lat="44.60743" lon="5.94601">
        <ele>1929.02</ele>
        <time>2016-05-26T11:42:25Z</time>
      </trkpt>
      <trkpt lat="44.60743" lon="5.94614">
        <ele>1925.66</ele>
        <time>2016-05-26T11:42:37Z</time>
      </trkpt>
      <trkpt lat="44.60741" lon="5.94625">
        <ele>1922.77</ele>
        <time>2016-05-26T11:42:49Z</time>
      </trkpt>
      <trkpt lat="44.60743" lon="5.94637">
        <ele>1920.37</ele>
        <time>2016-05-26T11:43:01Z</time>
      </trkpt>
      <trkpt lat="44.60742" lon="5.94649">
        <ele>1917.49</ele>
        <time>2016-05-26T11:43:15Z</time>
      </trkpt>
      <trkpt lat="44.60741" lon="5.94659">
        <ele>1914.6</ele>
        <time>2016-05-26T11:43:26Z</time>
      </trkpt>
      <trkpt lat="44.60743" lon="5.94673">
        <ele>1911.24</ele>
        <time>2016-05-26T11:43:40Z</time>
      </trkpt>
      <trkpt lat="44.6074" lon="5.94683">
        <ele>1908.83</ele>
        <time>2016-05-26T11:43:52Z</time>
      </trkpt>
      <trkpt lat="44.60739" lon="5.94691">
        <ele>1907.87</ele>
        <time>2016-05-26T11:43:59Z</time>
      </trkpt>
      <trkpt lat="44.60741" lon="5.94703">
        <ele>1904.99</ele>
        <time>2016-05-26T11:44:13Z</time>
      </trkpt>
      <trkpt lat="44.60743" lon="5.94713">
        <ele>1901.63</ele>
        <time>2016-05-26T11:44:25Z</time>
      </trkpt>
      <trkpt lat="44.60745" lon="5.94721">
        <ele>1898.74</ele>
        <time>2016-05-26T11:44:35Z</time>
      </trkpt>
      <trkpt lat="44.60745" lon="5.94731">
        <ele>1895.38</ele>
        <time>2016-05-26T11:44:47Z</time>
      </trkpt>
      <trkpt lat="44.60744" lon="5.9474">
        <ele>1892.01</ele>
        <time>2016-05-26T11:44:59Z</time>
      </trkpt>
      <trkpt lat="44.60743" lon="5.94747">
        <ele>1889.13</ele>
        <time>2016-05-26T11:45:12Z</time>
      </trkpt>
      <trkpt lat="44.60742" lon="5.94754">
        <ele>1886.72</ele>
        <time>2016-05-26T11:45:25Z</time>
      </trkpt>
      <trkpt lat="44.60741" lon="5.94763">
        <ele>1883.36</ele>
        <time>2016-05-26T11:45:37Z</time>
      </trkpt>
      <trkpt lat="44.60741" lon="5.9477">
        <ele>1880.96</ele>
        <time>2016-05-26T11:45:47Z</time>
      </trkpt>
      <trkpt lat="44.6074" lon="5.94779">
        <ele>1878.07</ele>
        <time>2016-05-26T11:45:59Z</time>
      </trkpt>
      <trkpt lat="44.60736" lon="5.94786">
        <ele>1874.71</ele>
        <time>2016-05-26T11:46:13Z</time>
      </trkpt>
      <trkpt lat="44.60742" lon="5.94793">
        <ele>1871.82</ele>
        <time>2016-05-26T11:46:26Z</time>
      </trkpt>
      <trkpt lat="44.60745" lon="5.94798">
        <ele>1869.42</ele>
        <time>2016-05-26T11:46:39Z</time>
      </trkpt>
      <trkpt lat="44.60742" lon="5.94805">
        <ele>1866.54</ele>
        <time>2016-05-26T11:46:51Z</time>
      </trkpt>
      <trkpt lat="44.60737" lon="5.94812">
        <ele>1864.13</ele>
        <time>2016-05-26T11:47:06Z</time>
      </trkpt>
      <trkpt lat="44.60738" lon="5.94822">
        <ele>1860.77</ele>
        <time>2016-05-26T11:47:20Z</time>
      </trkpt>
      <trkpt lat="44.60738" lon="5.94827">
        <ele>1858.37</ele>
        <time>2016-05-26T11:47:30Z</time>
      </trkpt>
      <trkpt lat="44.60735" lon="5.94833">
        <ele>1855.96</ele>
        <time>2016-05-26T11:47:41Z</time>
      </trkpt>
      <trkpt lat="44.60734" lon="5.94842">
        <ele>1853.56</ele>
        <time>2016-05-26T11:47:52Z</time>
      </trkpt>
      <trkpt lat="44.60733" lon="5.9485">
        <ele>1850.19</ele>
        <time>2016-05-26T11:48:03Z</time>
      </trkpt>
      <trkpt lat="44.60732" lon="5.94858">
        <ele>1847.31</ele>
        <time>2016-05-26T11:48:14Z</time>
      </trkpt>
      <trkpt lat="44.6073" lon="5.94867">
        <ele>1844.43</ele>
        <time>2016-05-26T11:48:26Z</time>
      </trkpt>
      <trkpt lat="44.60724" lon="5.94874">
        <ele>1841.06</ele>
        <time>2016-05-26T11:48:41Z</time>
      </trkpt>
      <trkpt lat="44.60719" lon="5.94887">
        <ele>1838.18</ele>
        <time>2016-05-26T11:48:57Z</time>
      </trkpt>
      <trkpt lat="44.60714" lon="5.94899">
        <ele>1835.29</ele>
        <time>2016-05-26T11:49:10Z</time>
      </trkpt>
      <trkpt lat="44.60711" lon="5.94902">
        <ele>1834.33</ele>
        <time>2016-05-26T11:49:14Z</time>
      </trkpt>
      <trkpt lat="44.60701" lon="5.94913">
        <ele>1831.45</ele>
        <time>2016-05-26T11:49:31Z</time>
      </trkpt>
      <trkpt lat="44.60695" lon="5.94924">
        <ele>1829.53</ele>
        <time>2016-05-26T11:49:47Z</time>
      </trkpt>
      <trkpt lat="44.60689" lon="5.94936">
        <ele>1826.64</ele>
        <time>2016-05-26T11:50:01Z</time>
      </trkpt>
      <trkpt lat="44.60685" lon="5.94943">
        <ele>1824.72</ele>
        <time>2016-05-26T11:50:16Z</time>
      </trkpt>
      <trkpt lat="44.60683" lon="5.94949">
        <ele>1824.24</ele>
        <time>2016-05-26T11:50:32Z</time>
      </trkpt>
      <trkpt lat="44.60679" lon="5.94967">
        <ele>1821.35</ele>
        <time>2016-05-26T11:50:47Z</time>
      </trkpt>
      <trkpt lat="44.60678" lon="5.94973">
        <ele>1819.91</ele>
        <time>2016-05-26T11:51:00Z</time>
      </trkpt>
      <trkpt lat="44.60676" lon="5.94987">
        <ele>1817.51</ele>
        <time>2016-05-26T11:51:14Z</time>
      </trkpt>
      <trkpt lat="44.60675" lon="5.9499">
        <ele>1816.55</ele>
        <time>2016-05-26T11:51:18Z</time>
      </trkpt>
      <trkpt lat="44.60666" lon="5.95006">
        <ele>1813.66</ele>
        <time>2016-05-26T11:51:35Z</time>
      </trkpt>
      <trkpt lat="44.60659" lon="5.95016">
        <ele>1811.74</ele>
        <time>2016-05-26T11:51:48Z</time>
      </trkpt>
      <trkpt lat="44.60657" lon="5.95018">
        <ele>1811.26</ele>
        <time>2016-05-26T11:51:51Z</time>
      </trkpt>
      <trkpt lat="44.60646" lon="5.95034">
        <ele>1808.38</ele>
        <time>2016-05-26T11:52:08Z</time>
      </trkpt>
      <trkpt lat="44.60635" lon="5.9504">
        <ele>1805.97</ele>
        <time>2016-05-26T11:52:23Z</time>
      </trkpt>
      <trkpt lat="44.60625" lon="5.95042">
        <ele>1803.57</ele>
        <time>2016-05-26T11:52:36Z</time>
      </trkpt>
      <trkpt lat="44.60615" lon="5.95048">
        <ele>1801.65</ele>
        <time>2016-05-26T11:52:50Z</time>
      </trkpt>
      <trkpt lat="44.60605" lon="5.95057">
        <ele>1800.21</ele>
        <time>2016-05-26T11:53:05Z</time>
      </trkpt>
      <trkpt lat="44.606" lon="5.95061">
        <ele>1799.24</ele>
        <time>2016-05-26T11:53:19Z</time>
      </trkpt>
      <trkpt lat="44.606" lon="5.95061">
        <ele>1799.73</ele>
        <time>2016-05-26T11:53:30Z</time>
      </trkpt>
      <trkpt lat="44.60601" lon="5.9506">
        <ele>1798.76</ele>
        <time>2016-05-26T11:53:45Z</time>
      </trkpt>
      <trkpt lat="44.60597" lon="5.95064">
        <ele>1799.24</ele>
        <time>2016-05-26T11:54:03Z</time>
      </trkpt>
      <trkpt lat="44.60596" lon="5.95061">
        <ele>1798.76</ele>
        <time>2016-05-26T11:54:24Z</time>
      </trkpt>
      <trkpt lat="44.60598" lon="5.95065">
        <ele>1798.76</ele>
        <time>2016-05-26T11:54:43Z</time>
      </trkpt>
      <trkpt lat="44.60597" lon="5.95063">
        <ele>1797.8</ele>
        <time>2016-05-26T11:55:17Z</time>
      </trkpt>
      <trkpt lat="44.60597" lon="5.95064">
        <ele>1798.28</ele>
        <time>2016-05-26T11:55:48Z</time>
      </trkpt>
      <trkpt lat="44.60599" lon="5.95063">
        <ele>1799.24</ele>
        <time>2016-05-26T11:56:07Z</time>
      </trkpt>
      <trkpt lat="44.60599" lon="5.95062">
        <ele>1798.76</ele>
        <time>2016-05-26T11:56:26Z</time>
      </trkpt>
      <trkpt lat="44.60598" lon="5.95063">
        <ele>1798.76</ele>
        <time>2016-05-26T11:56:49Z</time>
      </trkpt>
      <trkpt lat="44.60598" lon="5.95062">
        <ele>1798.76</ele>
        <time>2016-05-26T11:57:16Z</time>
      </trkpt>
      <trkpt lat="44.60597" lon="5.95062">
        <ele>1798.76</ele>
        <time>2016-05-26T11:57:36Z</time>
      </trkpt>
      <trkpt lat="44.60598" lon="5.95062">
        <ele>1798.76</ele>
        <time>2016-05-26T11:57:56Z</time>
      </trkpt>
      <trkpt lat="44.60599" lon="5.95063">
        <ele>1798.76</ele>
        <time>2016-05-26T11:58:18Z</time>
      </trkpt>
      <trkpt lat="44.60597" lon="5.95061">
        <ele>1798.76</ele>
        <time>2016-05-26T11:58:35Z</time>
      </trkpt>
      <trkpt lat="44.60594" lon="5.9506">
        <ele>1798.28</ele>
        <time>2016-05-26T11:58:54Z</time>
      </trkpt>
      <trkpt lat="44.60581" lon="5.95059">
        <ele>1795.88</ele>
        <time>2016-05-26T11:59:09Z</time>
      </trkpt>
      <trkpt lat="44.60577" lon="5.95058">
        <ele>1795.4</ele>
        <time>2016-05-26T11:59:14Z</time>
      </trkpt>
      <trkpt lat="44.60564" lon="5.95056">
        <ele>1793.48</ele>
        <time>2016-05-26T11:59:30Z</time>
      </trkpt>
      <trkpt lat="44.6055" lon="5.95055">
        <ele>1791.07</ele>
        <time>2016-05-26T11:59:46Z</time>
      </trkpt>
      <trkpt lat="44.60534" lon="5.95054">
        <ele>1789.15</ele>
        <time>2016-05-26T12:00:04Z</time>
      </trkpt>
      <trkpt lat="44.60519" lon="5.95052">
        <ele>1786.75</ele>
        <time>2016-05-26T12:00:22Z</time>
      </trkpt>
      <trkpt lat="44.60508" lon="5.95053">
        <ele>1784.82</ele>
        <time>2016-05-26T12:00:36Z</time>
      </trkpt>
      <trkpt lat="44.60497" lon="5.95056">
        <ele>1782.9</ele>
        <time>2016-05-26T12:00:51Z</time>
      </trkpt>
      <trkpt lat="44.60492" lon="5.95066">
        <ele>1780.98</ele>
        <time>2016-05-26T12:01:02Z</time>
      </trkpt>
      <trkpt lat="44.60484" lon="5.95077">
        <ele>1780.02</ele>
        <time>2016-05-26T12:01:17Z</time>
      </trkpt>
      <trkpt lat="44.6047" lon="5.95084">
        <ele>1777.13</ele>
        <time>2016-05-26T12:01:34Z</time>
      </trkpt>
      <trkpt lat="44.60459" lon="5.95084">
        <ele>1774.73</ele>
        <time>2016-05-26T12:01:47Z</time>
      </trkpt>
      <trkpt lat="44.60444" lon="5.95087">
        <ele>1773.29</ele>
        <time>2016-05-26T12:02:01Z</time>
      </trkpt>
      <trkpt lat="44.60433" lon="5.95078">
        <ele>1771.37</ele>
        <time>2016-05-26T12:02:18Z</time>
      </trkpt>
      <trkpt lat="44.60425" lon="5.95067">
        <ele>1768.96</ele>
        <time>2016-05-26T12:02:33Z</time>
      </trkpt>
      <trkpt lat="44.60411" lon="5.95057">
        <ele>1767.04</ele>
        <time>2016-05-26T12:02:50Z</time>
      </trkpt>
      <trkpt lat="44.60403" lon="5.95042">
        <ele>1764.64</ele>
        <time>2016-05-26T12:03:06Z</time>
      </trkpt>
      <trkpt lat="44.60391" lon="5.95034">
        <ele>1762.23</ele>
        <time>2016-05-26T12:03:22Z</time>
      </trkpt>
      <trkpt lat="44.60375" lon="5.95029">
        <ele>1759.35</ele>
        <time>2016-05-26T12:03:41Z</time>
      </trkpt>
      <trkpt lat="44.60363" lon="5.95025">
        <ele>1757.91</ele>
        <time>2016-05-26T12:03:57Z</time>
      </trkpt>
      <trkpt lat="44.60353" lon="5.95019">
        <ele>1755.99</ele>
        <time>2016-05-26T12:04:12Z</time>
      </trkpt>
      <trkpt lat="44.60345" lon="5.95005">
        <ele>1754.06</ele>
        <time>2016-05-26T12:04:27Z</time>
      </trkpt>
      <trkpt lat="44.60332" lon="5.95">
        <ele>1751.66</ele>
        <time>2016-05-26T12:04:42Z</time>
      </trkpt>
      <trkpt lat="44.60321" lon="5.95007">
        <ele>1750.7</ele>
        <time>2016-05-26T12:04:56Z</time>
      </trkpt>
      <trkpt lat="44.60312" lon="5.95014">
        <ele>1749.26</ele>
        <time>2016-05-26T12:05:06Z</time>
      </trkpt>
      <trkpt lat="44.60295" lon="5.9502">
        <ele>1748.29</ele>
        <time>2016-05-26T12:05:22Z</time>
      </trkpt>
      <trkpt lat="44.6029" lon="5.9502">
        <ele>1747.81</ele>
        <time>2016-05-26T12:05:27Z</time>
      </trkpt>
      <trkpt lat="44.60286" lon="5.95019">
        <ele>1747.33</ele>
        <time>2016-05-26T12:05:30Z</time>
      </trkpt>
      <trkpt lat="44.6027" lon="5.95017">
        <ele>1745.41</ele>
        <time>2016-05-26T12:05:47Z</time>
      </trkpt>
      <trkpt lat="44.60265" lon="5.95002">
        <ele>1742.05</ele>
        <time>2016-05-26T12:05:59Z</time>
      </trkpt>
      <trkpt lat="44.60257" lon="5.94995">
        <ele>1739.16</ele>
        <time>2016-05-26T12:06:10Z</time>
      </trkpt>
      <trkpt lat="44.60251" lon="5.94984">
        <ele>1735.8</ele>
        <time>2016-05-26T12:06:21Z</time>
      </trkpt>
      <trkpt lat="44.60259" lon="5.94967">
        <ele>1733.88</ele>
        <time>2016-05-26T12:06:37Z</time>
      </trkpt>
      <trkpt lat="44.60265" lon="5.9496">
        <ele>1732.91</ele>
        <time>2016-05-26T12:06:45Z</time>
      </trkpt>
      <trkpt lat="44.60274" lon="5.94953">
        <ele>1731.47</ele>
        <time>2016-05-26T12:06:56Z</time>
      </trkpt>
      <trkpt lat="44.60279" lon="5.94951">
        <ele>1730.99</ele>
        <time>2016-05-26T12:07:02Z</time>
      </trkpt>
      <trkpt lat="44.60293" lon="5.94949">
        <ele>1728.59</ele>
        <time>2016-05-26T12:07:17Z</time>
      </trkpt>
      <trkpt lat="44.60302" lon="5.9495">
        <ele>1728.11</ele>
        <time>2016-05-26T12:07:25Z</time>
      </trkpt>
      <trkpt lat="44.60311" lon="5.94944">
        <ele>1727.63</ele>
        <time>2016-05-26T12:07:35Z</time>
      </trkpt>
      <trkpt lat="44.60314" lon="5.94936">
        <ele>1725.7</ele>
        <time>2016-05-26T12:07:43Z</time>
      </trkpt>
      <trkpt lat="44.60314" lon="5.94934">
        <ele>1725.22</ele>
        <time>2016-05-26T12:07:45Z</time>
      </trkpt>
      <trkpt lat="44.60311" lon="5.94926">
        <ele>1724.74</ele>
        <time>2016-05-26T12:07:52Z</time>
      </trkpt>
      <trkpt lat="44.60294" lon="5.94916">
        <ele>1721.38</ele>
        <time>2016-05-26T12:08:11Z</time>
      </trkpt>
      <trkpt lat="44.60288" lon="5.94915">
        <ele>1720.9</ele>
        <time>2016-05-26T12:08:17Z</time>
      </trkpt>
      <trkpt lat="44.60272" lon="5.94915">
        <ele>1718.49</ele>
        <time>2016-05-26T12:08:35Z</time>
      </trkpt>
      <trkpt lat="44.60257" lon="5.94919">
        <ele>1716.57</ele>
        <time>2016-05-26T12:08:50Z</time>
      </trkpt>
      <trkpt lat="44.60243" lon="5.94932">
        <ele>1716.57</ele>
        <time>2016-05-26T12:09:05Z</time>
      </trkpt>
      <trkpt lat="44.60228" lon="5.94944">
        <ele>1714.65</ele>
        <time>2016-05-26T12:09:24Z</time>
      </trkpt>
      <trkpt lat="44.60218" lon="5.94956">
        <ele>1712.73</ele>
        <time>2016-05-26T12:09:39Z</time>
      </trkpt>
      <trkpt lat="44.60204" lon="5.94963">
        <ele>1711.28</ele>
        <time>2016-05-26T12:09:52Z</time>
      </trkpt>
      <trkpt lat="44.60196" lon="5.94963">
        <ele>1709.84</ele>
        <time>2016-05-26T12:10:01Z</time>
      </trkpt>
      <trkpt lat="44.6018" lon="5.94947">
        <ele>1707.44</ele>
        <time>2016-05-26T12:10:19Z</time>
      </trkpt>
      <trkpt lat="44.60164" lon="5.94926">
        <ele>1704.55</ele>
        <time>2016-05-26T12:10:39Z</time>
      </trkpt>
      <trkpt lat="44.60153" lon="5.9491">
        <ele>1702.63</ele>
        <time>2016-05-26T12:10:54Z</time>
      </trkpt>
      <trkpt lat="44.60144" lon="5.94889">
        <ele>1700.23</ele>
        <time>2016-05-26T12:11:11Z</time>
      </trkpt>
      <trkpt lat="44.60134" lon="5.94875">
        <ele>1697.83</ele>
        <time>2016-05-26T12:11:26Z</time>
      </trkpt>
      <trkpt lat="44.6012" lon="5.94866">
        <ele>1695.9</ele>
        <time>2016-05-26T12:11:42Z</time>
      </trkpt>
      <trkpt lat="44.60106" lon="5.94859">
        <ele>1693.5</ele>
        <time>2016-05-26T12:11:58Z</time>
      </trkpt>
      <trkpt lat="44.60089" lon="5.94856">
        <ele>1691.1</ele>
        <time>2016-05-26T12:12:16Z</time>
      </trkpt>
      <trkpt lat="44.60071" lon="5.94852">
        <ele>1688.69</ele>
        <time>2016-05-26T12:12:34Z</time>
      </trkpt>
      <trkpt lat="44.60059" lon="5.94854">
        <ele>1686.29</ele>
        <time>2016-05-26T12:12:46Z</time>
      </trkpt>
      <trkpt lat="44.60049" lon="5.94858">
        <ele>1684.85</ele>
        <time>2016-05-26T12:12:56Z</time>
      </trkpt>
      <trkpt lat="44.60048" lon="5.9486">
        <ele>1685.33</ele>
        <time>2016-05-26T12:12:57Z</time>
      </trkpt>
      <trkpt lat="44.60032" lon="5.94866">
        <ele>1682.93</ele>
        <time>2016-05-26T12:13:12Z</time>
      </trkpt>
      <trkpt lat="44.60023" lon="5.94868">
        <ele>1681.48</ele>
        <time>2016-05-26T12:13:22Z</time>
      </trkpt>
      <trkpt lat="44.60009" lon="5.94872">
        <ele>1679.56</ele>
        <time>2016-05-26T12:13:35Z</time>
      </trkpt>
      <trkpt lat="44.59991" lon="5.94877">
        <ele>1677.64</ele>
        <time>2016-05-26T12:13:51Z</time>
      </trkpt>
      <trkpt lat="44.59984" lon="5.94878">
        <ele>1676.2</ele>
        <time>2016-05-26T12:14:01Z</time>
      </trkpt>
      <trkpt lat="44.59977" lon="5.94875">
        <ele>1675.23</ele>
        <time>2016-05-26T12:14:09Z</time>
      </trkpt>
      <trkpt lat="44.59962" lon="5.94864">
        <ele>1672.35</ele>
        <time>2016-05-26T12:14:26Z</time>
      </trkpt>
      <trkpt lat="44.59948" lon="5.9486">
        <ele>1669.95</ele>
        <time>2016-05-26T12:14:42Z</time>
      </trkpt>
      <trkpt lat="44.59929" lon="5.94874">
        <ele>1667.54</ele>
        <time>2016-05-26T12:15:00Z</time>
      </trkpt>
      <trkpt lat="44.59911" lon="5.94884">
        <ele>1665.14</ele>
        <time>2016-05-26T12:15:17Z</time>
      </trkpt>
      <trkpt lat="44.59898" lon="5.94896">
        <ele>1662.74</ele>
        <time>2016-05-26T12:15:34Z</time>
      </trkpt>
      <trkpt lat="44.59882" lon="5.94911">
        <ele>1660.33</ele>
        <time>2016-05-26T12:15:52Z</time>
      </trkpt>
      <trkpt lat="44.59878" lon="5.94913">
        <ele>1659.85</ele>
        <time>2016-05-26T12:15:56Z</time>
      </trkpt>
      <trkpt lat="44.59871" lon="5.94911">
        <ele>1658.89</ele>
        <time>2016-05-26T12:16:02Z</time>
      </trkpt>
      <trkpt lat="44.59854" lon="5.94916">
        <ele>1657.45</ele>
        <time>2016-05-26T12:16:19Z</time>
      </trkpt>
      <trkpt lat="44.59839" lon="5.94921">
        <ele>1655.05</ele>
        <time>2016-05-26T12:16:35Z</time>
      </trkpt>
      <trkpt lat="44.59821" lon="5.94926">
        <ele>1653.12</ele>
        <time>2016-05-26T12:16:54Z</time>
      </trkpt>
      <trkpt lat="44.59807" lon="5.94928">
        <ele>1650.24</ele>
        <time>2016-05-26T12:17:12Z</time>
      </trkpt>
      <trkpt lat="44.59802" lon="5.94929">
        <ele>1649.28</ele>
        <time>2016-05-26T12:17:17Z</time>
      </trkpt>
      <trkpt lat="44.59797" lon="5.94929">
        <ele>1648.8</ele>
        <time>2016-05-26T12:17:23Z</time>
      </trkpt>
      <trkpt lat="44.59787" lon="5.94925">
        <ele>1647.36</ele>
        <time>2016-05-26T12:17:34Z</time>
      </trkpt>
      <trkpt lat="44.59773" lon="5.94909">
        <ele>1644.47</ele>
        <time>2016-05-26T12:17:52Z</time>
      </trkpt>
      <trkpt lat="44.59771" lon="5.94908">
        <ele>1643.51</ele>
        <time>2016-05-26T12:17:55Z</time>
      </trkpt>
      <trkpt lat="44.59768" lon="5.94907">
        <ele>1643.51</ele>
        <time>2016-05-26T12:17:58Z</time>
      </trkpt>
      <trkpt lat="44.59766" lon="5.94906">
        <ele>1643.03</ele>
        <time>2016-05-26T12:18:00Z</time>
      </trkpt>
      <trkpt lat="44.59752" lon="5.94899">
        <ele>1640.63</ele>
        <time>2016-05-26T12:18:15Z</time>
      </trkpt>
      <trkpt lat="44.59738" lon="5.94895">
        <ele>1639.19</ele>
        <time>2016-05-26T12:18:29Z</time>
      </trkpt>
      <trkpt lat="44.59723" lon="5.94898">
        <ele>1637.26</ele>
        <time>2016-05-26T12:18:45Z</time>
      </trkpt>
      <trkpt lat="44.59708" lon="5.94904">
        <ele>1635.34</ele>
        <time>2016-05-26T12:19:00Z</time>
      </trkpt>
      <trkpt lat="44.59699" lon="5.94902">
        <ele>1633.9</ele>
        <time>2016-05-26T12:19:08Z</time>
      </trkpt>
      <trkpt lat="44.59687" lon="5.94897">
        <ele>1632.46</ele>
        <time>2016-05-26T12:19:21Z</time>
      </trkpt>
      <trkpt lat="44.5967" lon="5.94891">
        <ele>1629.57</ele>
        <time>2016-05-26T12:19:39Z</time>
      </trkpt>
      <trkpt lat="44.59654" lon="5.94879">
        <ele>1627.65</ele>
        <time>2016-05-26T12:19:57Z</time>
      </trkpt>
      <trkpt lat="44.59645" lon="5.94864">
        <ele>1624.77</ele>
        <time>2016-05-26T12:20:12Z</time>
      </trkpt>
      <trkpt lat="44.59636" lon="5.94856">
        <ele>1623.32</ele>
        <time>2016-05-26T12:20:21Z</time>
      </trkpt>
      <trkpt lat="44.59634" lon="5.94854">
        <ele>1623.32</ele>
        <time>2016-05-26T12:20:23Z</time>
      </trkpt>
      <trkpt lat="44.59616" lon="5.94847">
        <ele>1620.92</ele>
        <time>2016-05-26T12:20:43Z</time>
      </trkpt>
      <trkpt lat="44.59603" lon="5.9485">
        <ele>1618.52</ele>
        <time>2016-05-26T12:20:57Z</time>
      </trkpt>
      <trkpt lat="44.59588" lon="5.94865">
        <ele>1616.59</ele>
        <time>2016-05-26T12:21:15Z</time>
      </trkpt>
      <trkpt lat="44.59583" lon="5.9487">
        <ele>1615.63</ele>
        <time>2016-05-26T12:21:21Z</time>
      </trkpt>
      <trkpt lat="44.59576" lon="5.94873">
        <ele>1614.67</ele>
        <time>2016-05-26T12:21:28Z</time>
      </trkpt>
      <trkpt lat="44.5957" lon="5.94871">
        <ele>1613.71</ele>
        <time>2016-05-26T12:21:34Z</time>
      </trkpt>
      <trkpt lat="44.59567" lon="5.94863">
        <ele>1612.27</ele>
        <time>2016-05-26T12:21:41Z</time>
      </trkpt>
      <trkpt lat="44.5956" lon="5.94845">
        <ele>1609.86</ele>
        <time>2016-05-26T12:21:57Z</time>
      </trkpt>
      <trkpt lat="44.59557" lon="5.94833">
        <ele>1608.42</ele>
        <time>2016-05-26T12:22:05Z</time>
      </trkpt>
      <trkpt lat="44.59553" lon="5.94811">
        <ele>1606.5</ele>
        <time>2016-05-26T12:22:22Z</time>
      </trkpt>
      <trkpt lat="44.59551" lon="5.94798">
        <ele>1604.58</ele>
        <time>2016-05-26T12:22:34Z</time>
      </trkpt>
      <trkpt lat="44.5954" lon="5.94784">
        <ele>1603.14</ele>
        <time>2016-05-26T12:22:50Z</time>
      </trkpt>
      <trkpt lat="44.59525" lon="5.94774">
        <ele>1601.21</ele>
        <time>2016-05-26T12:23:07Z</time>
      </trkpt>
      <trkpt lat="44.59511" lon="5.94766">
        <ele>1598.81</ele>
        <time>2016-05-26T12:23:24Z</time>
      </trkpt>
      <trkpt lat="44.59504" lon="5.94751">
        <ele>1596.89</ele>
        <time>2016-05-26T12:23:39Z</time>
      </trkpt>
      <trkpt lat="44.59495" lon="5.94736">
        <ele>1594.96</ele>
        <time>2016-05-26T12:23:53Z</time>
      </trkpt>
      <trkpt lat="44.59487" lon="5.94718">
        <ele>1592.56</ele>
        <time>2016-05-26T12:24:08Z</time>
      </trkpt>
      <trkpt lat="44.5948" lon="5.9471">
        <ele>1591.12</ele>
        <time>2016-05-26T12:24:20Z</time>
      </trkpt>
      <trkpt lat="44.59469" lon="5.94706">
        <ele>1590.16</ele>
        <time>2016-05-26T12:24:33Z</time>
      </trkpt>
      <trkpt lat="44.59467" lon="5.94705">
        <ele>1589.2</ele>
        <time>2016-05-26T12:24:48Z</time>
      </trkpt>
      <trkpt lat="44.59463" lon="5.94712">
        <ele>1589.2</ele>
        <time>2016-05-26T12:25:17Z</time>
      </trkpt>
      <trkpt lat="44.59462" lon="5.94709">
        <ele>1589.2</ele>
        <time>2016-05-26T12:25:40Z</time>
      </trkpt>
      <trkpt lat="44.59465" lon="5.94706">
        <ele>1588.72</ele>
        <time>2016-05-26T12:25:52Z</time>
      </trkpt>
      <trkpt lat="44.59462" lon="5.94688">
        <ele>1587.75</ele>
        <time>2016-05-26T12:26:14Z</time>
      </trkpt>
      <trkpt lat="44.59464" lon="5.94689">
        <ele>1588.24</ele>
        <time>2016-05-26T12:26:49Z</time>
      </trkpt>
      <trkpt lat="44.59465" lon="5.94688">
        <ele>1588.24</ele>
        <time>2016-05-26T12:26:55Z</time>
      </trkpt>
      <trkpt lat="44.59466" lon="5.94704">
        <ele>1589.2</ele>
        <time>2016-05-26T12:27:09Z</time>
      </trkpt>
      <trkpt lat="44.59478" lon="5.94712">
        <ele>1590.64</ele>
        <time>2016-05-26T12:27:24Z</time>
      </trkpt>
      <trkpt lat="44.59481" lon="5.94715">
        <ele>1591.12</ele>
        <time>2016-05-26T12:27:38Z</time>
      </trkpt>
      <trkpt lat="44.5948" lon="5.94715">
        <ele>1591.12</ele>
        <time>2016-05-26T12:28:03Z</time>
      </trkpt>
      <trkpt lat="44.59479" lon="5.94713">
        <ele>1590.64</ele>
        <time>2016-05-26T12:28:16Z</time>
      </trkpt>
      <trkpt lat="44.59471" lon="5.94708">
        <ele>1589.68</ele>
        <time>2016-05-26T12:28:30Z</time>
      </trkpt>
      <trkpt lat="44.5947" lon="5.94708">
        <ele>1590.16</ele>
        <time>2016-05-26T12:28:49Z</time>
      </trkpt>
      <trkpt lat="44.5947" lon="5.94708">
        <ele>1590.16</ele>
        <time>2016-05-26T12:29:13Z</time>
      </trkpt>
      <trkpt lat="44.59473" lon="5.94708">
        <ele>1590.16</ele>
        <time>2016-05-26T12:29:42Z</time>
      </trkpt>
      <trkpt lat="44.59474" lon="5.94709">
        <ele>1591.12</ele>
        <time>2016-05-26T12:30:09Z</time>
      </trkpt>
      <trkpt lat="44.59471" lon="5.94707">
        <ele>1590.16</ele>
        <time>2016-05-26T12:30:40Z</time>
      </trkpt>
      <trkpt lat="44.59469" lon="5.94709">
        <ele>1590.16</ele>
        <time>2016-05-26T12:30:59Z</time>
      </trkpt>
      <trkpt lat="44.59471" lon="5.94707">
        <ele>1590.16</ele>
        <time>2016-05-26T12:31:15Z</time>
      </trkpt>
      <trkpt lat="44.59472" lon="5.94705">
        <ele>1590.16</ele>
        <time>2016-05-26T12:31:37Z</time>
      </trkpt>
      <trkpt lat="44.59473" lon="5.94705">
        <ele>1590.16</ele>
        <time>2016-05-26T12:32:01Z</time>
      </trkpt>
      <trkpt lat="44.59469" lon="5.94706">
        <ele>1590.16</ele>
        <time>2016-05-26T12:32:11Z</time>
      </trkpt>
      <trkpt lat="44.59457" lon="5.94705">
        <ele>1588.72</ele>
        <time>2016-05-26T12:32:25Z</time>
      </trkpt>
      <trkpt lat="44.59445" lon="5.94703">
        <ele>1587.27</ele>
        <time>2016-05-26T12:32:39Z</time>
      </trkpt>
      <trkpt lat="44.59428" lon="5.94703">
        <ele>1584.87</ele>
        <time>2016-05-26T12:32:57Z</time>
      </trkpt>
      <trkpt lat="44.59414" lon="5.94701">
        <ele>1583.43</ele>
        <time>2016-05-26T12:33:13Z</time>
      </trkpt>
      <trkpt lat="44.59399" lon="5.947">
        <ele>1581.51</ele>
        <time>2016-05-26T12:33:29Z</time>
      </trkpt>
      <trkpt lat="44.59382" lon="5.94695">
        <ele>1579.1</ele>
        <time>2016-05-26T12:33:47Z</time>
      </trkpt>
      <trkpt lat="44.59368" lon="5.94686">
        <ele>1577.18</ele>
        <time>2016-05-26T12:34:03Z</time>
      </trkpt>
      <trkpt lat="44.59355" lon="5.94672">
        <ele>1575.26</ele>
        <time>2016-05-26T12:34:20Z</time>
      </trkpt>
      <trkpt lat="44.59342" lon="5.94663">
        <ele>1572.37</ele>
        <time>2016-05-26T12:34:36Z</time>
      </trkpt>
      <trkpt lat="44.59326" lon="5.94655">
        <ele>1569.49</ele>
        <time>2016-05-26T12:34:53Z</time>
      </trkpt>
      <trkpt lat="44.5931" lon="5.94649">
        <ele>1567.57</ele>
        <time>2016-05-26T12:35:09Z</time>
      </trkpt>
      <trkpt lat="44.59299" lon="5.94633">
        <ele>1565.16</ele>
        <time>2016-05-26T12:35:26Z</time>
      </trkpt>
      <trkpt lat="44.59282" lon="5.94616">
        <ele>1563.24</ele>
        <time>2016-05-26T12:35:47Z</time>
      </trkpt>
      <trkpt lat="44.59274" lon="5.94604">
        <ele>1561.32</ele>
        <time>2016-05-26T12:36:00Z</time>
      </trkpt>
      <trkpt lat="44.59275" lon="5.94578">
        <ele>1559.4</ele>
        <time>2016-05-26T12:36:16Z</time>
      </trkpt>
      <trkpt lat="44.59275" lon="5.94576">
        <ele>1558.92</ele>
        <time>2016-05-26T12:36:18Z</time>
      </trkpt>
      <trkpt lat="44.59277" lon="5.94567">
        <ele>1557.47</ele>
        <time>2016-05-26T12:36:25Z</time>
      </trkpt>
      <trkpt lat="44.59278" lon="5.94547">
        <ele>1555.55</ele>
        <time>2016-05-26T12:36:40Z</time>
      </trkpt>
      <trkpt lat="44.59278" lon="5.94527">
        <ele>1553.63</ele>
        <time>2016-05-26T12:36:55Z</time>
      </trkpt>
      <trkpt lat="44.59275" lon="5.94507">
        <ele>1551.22</ele>
        <time>2016-05-26T12:37:11Z</time>
      </trkpt>
      <trkpt lat="44.59267" lon="5.94489">
        <ele>1548.82</ele>
        <time>2016-05-26T12:37:27Z</time>
      </trkpt>
      <trkpt lat="44.59259" lon="5.9448">
        <ele>1547.38</ele>
        <time>2016-05-26T12:37:37Z</time>
      </trkpt>
      <trkpt lat="44.59244" lon="5.94462">
        <ele>1544.5</ele>
        <time>2016-05-26T12:37:56Z</time>
      </trkpt>
      <trkpt lat="44.5923" lon="5.94458">
        <ele>1542.57</ele>
        <time>2016-05-26T12:38:11Z</time>
      </trkpt>
      <trkpt lat="44.59221" lon="5.94458">
        <ele>1541.13</ele>
        <time>2016-05-26T12:38:20Z</time>
      </trkpt>
      <trkpt lat="44.59205" lon="5.94454">
        <ele>1538.73</ele>
        <time>2016-05-26T12:38:37Z</time>
      </trkpt>
      <trkpt lat="44.59191" lon="5.94443">
        <ele>1536.32</ele>
        <time>2016-05-26T12:38:54Z</time>
      </trkpt>
      <trkpt lat="44.59186" lon="5.94441">
        <ele>1535.36</ele>
        <time>2016-05-26T12:39:00Z</time>
      </trkpt>
      <trkpt lat="44.59184" lon="5.94441">
        <ele>1534.88</ele>
        <time>2016-05-26T12:39:02Z</time>
      </trkpt>
      <trkpt lat="44.59167" lon="5.94441">
        <ele>1532.48</ele>
        <time>2016-05-26T12:39:19Z</time>
      </trkpt>
      <trkpt lat="44.59163" lon="5.94443">
        <ele>1532</ele>
        <time>2016-05-26T12:39:23Z</time>
      </trkpt>
      <trkpt lat="44.59147" lon="5.94442">
        <ele>1529.11</ele>
        <time>2016-05-26T12:39:40Z</time>
      </trkpt>
      <trkpt lat="44.59131" lon="5.94441">
        <ele>1526.71</ele>
        <time>2016-05-26T12:39:58Z</time>
      </trkpt>
      <trkpt lat="44.59115" lon="5.94436">
        <ele>1524.79</ele>
        <time>2016-05-26T12:40:14Z</time>
      </trkpt>
      <trkpt lat="44.59102" lon="5.94432">
        <ele>1522.39</ele>
        <time>2016-05-26T12:40:28Z</time>
      </trkpt>
      <trkpt lat="44.59088" lon="5.94428">
        <ele>1519.98</ele>
        <time>2016-05-26T12:40:43Z</time>
      </trkpt>
      <trkpt lat="44.59074" lon="5.94422">
        <ele>1518.06</ele>
        <time>2016-05-26T12:40:58Z</time>
      </trkpt>
      <trkpt lat="44.59058" lon="5.9441">
        <ele>1515.18</ele>
        <time>2016-05-26T12:41:16Z</time>
      </trkpt>
      <trkpt lat="44.59042" lon="5.94398">
        <ele>1512.77</ele>
        <time>2016-05-26T12:41:34Z</time>
      </trkpt>
      <trkpt lat="44.59036" lon="5.94391">
        <ele>1509.41</ele>
        <time>2016-05-26T12:41:43Z</time>
      </trkpt>
      <trkpt lat="44.59035" lon="5.94389">
        <ele>1514.69</ele>
        <time>2016-05-26T12:41:44Z</time>
      </trkpt>
      <trkpt lat="44.59034" lon="5.94389">
        <ele>1511.33</ele>
        <time>2016-05-26T12:41:45Z</time>
      </trkpt>
      <trkpt lat="44.59025" lon="5.94364">
        <ele>1508.45</ele>
        <time>2016-05-26T12:42:04Z</time>
      </trkpt>
      <trkpt lat="44.59014" lon="5.94347">
        <ele>1506.04</ele>
        <time>2016-05-26T12:42:21Z</time>
      </trkpt>
      <trkpt lat="44.59" lon="5.94334">
        <ele>1503.64</ele>
        <time>2016-05-26T12:42:39Z</time>
      </trkpt>
      <trkpt lat="44.58984" lon="5.94331">
        <ele>1501.24</ele>
        <time>2016-05-26T12:42:56Z</time>
      </trkpt>
      <trkpt lat="44.58966" lon="5.94322">
        <ele>1498.83</ele>
        <time>2016-05-26T12:43:14Z</time>
      </trkpt>
      <trkpt lat="44.58952" lon="5.94311">
        <ele>1495.95</ele>
        <time>2016-05-26T12:43:31Z</time>
      </trkpt>
      <trkpt lat="44.58935" lon="5.94297">
        <ele>1493.06</ele>
        <time>2016-05-26T12:43:51Z</time>
      </trkpt>
      <trkpt lat="44.58922" lon="5.94279">
        <ele>1490.66</ele>
        <time>2016-05-26T12:44:09Z</time>
      </trkpt>
      <trkpt lat="44.58909" lon="5.94264">
        <ele>1488.26</ele>
        <time>2016-05-26T12:44:26Z</time>
      </trkpt>
      <trkpt lat="44.58907" lon="5.94261">
        <ele>1487.78</ele>
        <time>2016-05-26T12:44:30Z</time>
      </trkpt>
      <trkpt lat="44.58902" lon="5.94257">
        <ele>1486.82</ele>
        <time>2016-05-26T12:44:35Z</time>
      </trkpt>
      <trkpt lat="44.58889" lon="5.9424">
        <ele>1483.93</ele>
        <time>2016-05-26T12:44:54Z</time>
      </trkpt>
      <trkpt lat="44.58876" lon="5.94224">
        <ele>1481.53</ele>
        <time>2016-05-26T12:45:11Z</time>
      </trkpt>
      <trkpt lat="44.58875" lon="5.94223">
        <ele>1481.05</ele>
        <time>2016-05-26T12:45:13Z</time>
      </trkpt>
      <trkpt lat="44.58866" lon="5.94214">
        <ele>1479.61</ele>
        <time>2016-05-26T12:45:24Z</time>
      </trkpt>
      <trkpt lat="44.58856" lon="5.94196">
        <ele>1477.2</ele>
        <time>2016-05-26T12:45:41Z</time>
      </trkpt>
      <trkpt lat="44.58847" lon="5.94174">
        <ele>1474.8</ele>
        <time>2016-05-26T12:45:58Z</time>
      </trkpt>
      <trkpt lat="44.58843" lon="5.94164">
        <ele>1473.36</ele>
        <time>2016-05-26T12:46:06Z</time>
      </trkpt>
      <trkpt lat="44.58835" lon="5.94145">
        <ele>1470.47</ele>
        <time>2016-05-26T12:46:22Z</time>
      </trkpt>
      <trkpt lat="44.5883" lon="5.94121">
        <ele>1467.59</ele>
        <time>2016-05-26T12:46:39Z</time>
      </trkpt>
      <trkpt lat="44.58829" lon="5.94111">
        <ele>1466.63</ele>
        <time>2016-05-26T12:46:46Z</time>
      </trkpt>
      <trkpt lat="44.5883" lon="5.94092">
        <ele>1465.19</ele>
        <time>2016-05-26T12:46:59Z</time>
      </trkpt>
      <trkpt lat="44.58829" lon="5.94071">
        <ele>1463.74</ele>
        <time>2016-05-26T12:47:16Z</time>
      </trkpt>
      <trkpt lat="44.58829" lon="5.94057">
        <ele>1461.82</ele>
        <time>2016-05-26T12:47:27Z</time>
      </trkpt>
      <trkpt lat="44.58828" lon="5.94042">
        <ele>1459.42</ele>
        <time>2016-05-26T12:47:38Z</time>
      </trkpt>
      <trkpt lat="44.58826" lon="5.94035">
        <ele>1457.98</ele>
        <time>2016-05-26T12:47:43Z</time>
      </trkpt>
      <trkpt lat="44.58825" lon="5.94029">
        <ele>1457.98</ele>
        <time>2016-05-26T12:47:47Z</time>
      </trkpt>
      <trkpt lat="44.58824" lon="5.94017">
        <ele>1456.53</ele>
        <time>2016-05-26T12:47:56Z</time>
      </trkpt>
      <trkpt lat="44.58823" lon="5.93999">
        <ele>1455.09</ele>
        <time>2016-05-26T12:48:09Z</time>
      </trkpt>
      <trkpt lat="44.5882" lon="5.93979">
        <ele>1452.69</ele>
        <time>2016-05-26T12:48:24Z</time>
      </trkpt>
      <trkpt lat="44.58819" lon="5.93971">
        <ele>1451.73</ele>
        <time>2016-05-26T12:48:30Z</time>
      </trkpt>
      <trkpt lat="44.58821" lon="5.93964">
        <ele>1450.77</ele>
        <time>2016-05-26T12:48:35Z</time>
      </trkpt>
      <trkpt lat="44.58821" lon="5.93961">
        <ele>1450.77</ele>
        <time>2016-05-26T12:48:37Z</time>
      </trkpt>
      <trkpt lat="44.58818" lon="5.93947">
        <ele>1448.84</ele>
        <time>2016-05-26T12:48:51Z</time>
      </trkpt>
      <trkpt lat="44.5881" lon="5.93928">
        <ele>1446.44</ele>
        <time>2016-05-26T12:49:10Z</time>
      </trkpt>
      <trkpt lat="44.58806" lon="5.93919">
        <ele>1445.48</ele>
        <time>2016-05-26T12:49:18Z</time>
      </trkpt>
      <trkpt lat="44.58797" lon="5.93898">
        <ele>1443.08</ele>
        <time>2016-05-26T12:49:35Z</time>
      </trkpt>
      <trkpt lat="44.58788" lon="5.93884">
        <ele>1440.67</ele>
        <time>2016-05-26T12:49:49Z</time>
      </trkpt>
      <trkpt lat="44.58776" lon="5.93873">
        <ele>1438.27</ele>
        <time>2016-05-26T12:50:04Z</time>
      </trkpt>
      <trkpt lat="44.58761" lon="5.93866">
        <ele>1435.87</ele>
        <time>2016-05-26T12:50:20Z</time>
      </trkpt>
      <trkpt lat="44.58746" lon="5.93862">
        <ele>1432.98</ele>
        <time>2016-05-26T12:50:35Z</time>
      </trkpt>
      <trkpt lat="44.58733" lon="5.93856">
        <ele>1430.1</ele>
        <time>2016-05-26T12:50:51Z</time>
      </trkpt>
      <trkpt lat="44.58721" lon="5.93844">
        <ele>1426.73</ele>
        <time>2016-05-26T12:51:08Z</time>
      </trkpt>
      <trkpt lat="44.58706" lon="5.9383">
        <ele>1424.81</ele>
        <time>2016-05-26T12:51:26Z</time>
      </trkpt>
      <trkpt lat="44.58691" lon="5.93821">
        <ele>1422.41</ele>
        <time>2016-05-26T12:51:42Z</time>
      </trkpt>
      <trkpt lat="44.58675" lon="5.93808">
        <ele>1419.52</ele>
        <time>2016-05-26T12:52:02Z</time>
      </trkpt>
      <trkpt lat="44.5866" lon="5.93797">
        <ele>1418.08</ele>
        <time>2016-05-26T12:52:19Z</time>
      </trkpt>
      <trkpt lat="44.58646" lon="5.93778">
        <ele>1415.68</ele>
        <time>2016-05-26T12:52:38Z</time>
      </trkpt>
      <trkpt lat="44.58633" lon="5.93764">
        <ele>1413.76</ele>
        <time>2016-05-26T12:52:55Z</time>
      </trkpt>
      <trkpt lat="44.58618" lon="5.93755">
        <ele>1411.35</ele>
        <time>2016-05-26T12:53:12Z</time>
      </trkpt>
      <trkpt lat="44.58603" lon="5.93746">
        <ele>1409.43</ele>
        <time>2016-05-26T12:53:29Z</time>
      </trkpt>
      <trkpt lat="44.58587" lon="5.93737">
        <ele>1407.03</ele>
        <time>2016-05-26T12:53:48Z</time>
      </trkpt>
      <trkpt lat="44.5857" lon="5.93723">
        <ele>1404.14</ele>
        <time>2016-05-26T12:54:08Z</time>
      </trkpt>
      <trkpt lat="44.58558" lon="5.93708">
        <ele>1401.26</ele>
        <time>2016-05-26T12:54:25Z</time>
      </trkpt>
      <trkpt lat="44.58542" lon="5.93696">
        <ele>1398.86</ele>
        <time>2016-05-26T12:54:43Z</time>
      </trkpt>
      <trkpt lat="44.58526" lon="5.93689">
        <ele>1395.97</ele>
        <time>2016-05-26T12:55:00Z</time>
      </trkpt>
      <trkpt lat="44.58518" lon="5.93686">
        <ele>1395.49</ele>
        <time>2016-05-26T12:55:08Z</time>
      </trkpt>
      <trkpt lat="44.58502" lon="5.93673">
        <ele>1393.57</ele>
        <time>2016-05-26T12:55:26Z</time>
      </trkpt>
      <trkpt lat="44.58487" lon="5.93664">
        <ele>1390.68</ele>
        <time>2016-05-26T12:55:44Z</time>
      </trkpt>
      <trkpt lat="44.58472" lon="5.93651">
        <ele>1387.8</ele>
        <time>2016-05-26T12:56:01Z</time>
      </trkpt>
      <trkpt lat="44.58461" lon="5.9364">
        <ele>1385.88</ele>
        <time>2016-05-26T12:56:15Z</time>
      </trkpt>
      <trkpt lat="44.58451" lon="5.93625">
        <ele>1383.47</ele>
        <time>2016-05-26T12:56:31Z</time>
      </trkpt>
      <trkpt lat="44.58443" lon="5.9361">
        <ele>1381.55</ele>
        <time>2016-05-26T12:56:45Z</time>
      </trkpt>
      <trkpt lat="44.58439" lon="5.9359">
        <ele>1379.63</ele>
        <time>2016-05-26T12:56:59Z</time>
      </trkpt>
      <trkpt lat="44.58439" lon="5.93585">
        <ele>1379.63</ele>
        <time>2016-05-26T12:57:02Z</time>
      </trkpt>
      <trkpt lat="44.58429" lon="5.93566">
        <ele>1377.23</ele>
        <time>2016-05-26T12:57:20Z</time>
      </trkpt>
      <trkpt lat="44.58425" lon="5.9356">
        <ele>1376.75</ele>
        <time>2016-05-26T12:57:25Z</time>
      </trkpt>
      <trkpt lat="44.58422" lon="5.93552">
        <ele>1375.3</ele>
        <time>2016-05-26T12:57:32Z</time>
      </trkpt>
      <trkpt lat="44.58413" lon="5.93534">
        <ele>1373.38</ele>
        <time>2016-05-26T12:57:48Z</time>
      </trkpt>
      <trkpt lat="44.58405" lon="5.93518">
        <ele>1370.98</ele>
        <time>2016-05-26T12:58:04Z</time>
      </trkpt>
      <trkpt lat="44.58402" lon="5.93501">
        <ele>1369.54</ele>
        <time>2016-05-26T12:58:17Z</time>
      </trkpt>
      <trkpt lat="44.58395" lon="5.93478">
        <ele>1366.65</ele>
        <time>2016-05-26T12:58:36Z</time>
      </trkpt>
      <trkpt lat="44.58385" lon="5.93459">
        <ele>1364.25</ele>
        <time>2016-05-26T12:58:53Z</time>
      </trkpt>
      <trkpt lat="44.58373" lon="5.93445">
        <ele>1362.33</ele>
        <time>2016-05-26T12:59:08Z</time>
      </trkpt>
      <trkpt lat="44.58358" lon="5.93439">
        <ele>1359.92</ele>
        <time>2016-05-26T12:59:24Z</time>
      </trkpt>
      <trkpt lat="44.58341" lon="5.93438">
        <ele>1357.52</ele>
        <time>2016-05-26T12:59:41Z</time>
      </trkpt>
      <trkpt lat="44.58327" lon="5.93431">
        <ele>1355.12</ele>
        <time>2016-05-26T12:59:57Z</time>
      </trkpt>
      <trkpt lat="44.58311" lon="5.93427">
        <ele>1353.19</ele>
        <time>2016-05-26T13:00:12Z</time>
      </trkpt>
      <trkpt lat="44.58293" lon="5.93435">
        <ele>1349.83</ele>
        <time>2016-05-26T13:00:31Z</time>
      </trkpt>
      <trkpt lat="44.58281" lon="5.93448">
        <ele>1347.91</ele>
        <time>2016-05-26T13:00:46Z</time>
      </trkpt>
      <trkpt lat="44.58266" lon="5.93461">
        <ele>1345.02</ele>
        <time>2016-05-26T13:01:05Z</time>
      </trkpt>
      <trkpt lat="44.58258" lon="5.93468">
        <ele>1344.06</ele>
        <time>2016-05-26T13:01:15Z</time>
      </trkpt>
      <trkpt lat="44.58241" lon="5.93472">
        <ele>1341.66</ele>
        <time>2016-05-26T13:01:32Z</time>
      </trkpt>
      <trkpt lat="44.58227" lon="5.93471">
        <ele>1339.25</ele>
        <time>2016-05-26T13:01:46Z</time>
      </trkpt>
      <trkpt lat="44.58225" lon="5.9347">
        <ele>1339.25</ele>
        <time>2016-05-26T13:01:48Z</time>
      </trkpt>
      <trkpt lat="44.58218" lon="5.93466">
        <ele>1338.29</ele>
        <time>2016-05-26T13:01:54Z</time>
      </trkpt>
      <trkpt lat="44.58204" lon="5.93448">
        <ele>1335.89</ele>
        <time>2016-05-26T13:02:12Z</time>
      </trkpt>
      <trkpt lat="44.58194" lon="5.93433">
        <ele>1334.45</ele>
        <time>2016-05-26T13:02:26Z</time>
      </trkpt>
      <trkpt lat="44.58174" lon="5.9343">
        <ele>1332.52</ele>
        <time>2016-05-26T13:02:44Z</time>
      </trkpt>
      <trkpt lat="44.58157" lon="5.93426">
        <ele>1331.56</ele>
        <time>2016-05-26T13:03:00Z</time>
      </trkpt>
      <trkpt lat="44.58143" lon="5.9342">
        <ele>1330.6</ele>
        <time>2016-05-26T13:03:16Z</time>
      </trkpt>
      <trkpt lat="44.58129" lon="5.93418">
        <ele>1329.16</ele>
        <time>2016-05-26T13:03:29Z</time>
      </trkpt>
      <trkpt lat="44.58115" lon="5.93412">
        <ele>1328.2</ele>
        <time>2016-05-26T13:03:44Z</time>
      </trkpt>
      <trkpt lat="44.58098" lon="5.93405">
        <ele>1326.28</ele>
        <time>2016-05-26T13:04:01Z</time>
      </trkpt>
      <trkpt lat="44.58083" lon="5.93405">
        <ele>1325.8</ele>
        <time>2016-05-26T13:04:15Z</time>
      </trkpt>
      <trkpt lat="44.58067" lon="5.93409">
        <ele>1324.35</ele>
        <time>2016-05-26T13:04:30Z</time>
      </trkpt>
      <trkpt lat="44.58051" lon="5.93413">
        <ele>1323.39</ele>
        <time>2016-05-26T13:04:44Z</time>
      </trkpt>
      <trkpt lat="44.58035" lon="5.93412">
        <ele>1322.43</ele>
        <time>2016-05-26T13:04:59Z</time>
      </trkpt>
      <trkpt lat="44.58025" lon="5.93407">
        <ele>1321.47</ele>
        <time>2016-05-26T13:05:08Z</time>
      </trkpt>
      <trkpt lat="44.5801" lon="5.93394">
        <ele>1320.51</ele>
        <time>2016-05-26T13:05:25Z</time>
      </trkpt>
      <trkpt lat="44.57997" lon="5.93379">
        <ele>1320.03</ele>
        <time>2016-05-26T13:05:40Z</time>
      </trkpt>
      <trkpt lat="44.57984" lon="5.93361">
        <ele>1319.07</ele>
        <time>2016-05-26T13:05:58Z</time>
      </trkpt>
      <trkpt lat="44.57982" lon="5.93358">
        <ele>1318.59</ele>
        <time>2016-05-26T13:06:00Z</time>
      </trkpt>
      <trkpt lat="44.57977" lon="5.93353">
        <ele>1318.1</ele>
        <time>2016-05-26T13:06:06Z</time>
      </trkpt>
      <trkpt lat="44.57963" lon="5.93349">
        <ele>1317.14</ele>
        <time>2016-05-26T13:06:21Z</time>
      </trkpt>
      <trkpt lat="44.57947" lon="5.93353">
        <ele>1316.18</ele>
        <time>2016-05-26T13:06:37Z</time>
      </trkpt>
      <trkpt lat="44.5793" lon="5.93363">
        <ele>1315.7</ele>
        <time>2016-05-26T13:06:53Z</time>
      </trkpt>
      <trkpt lat="44.57918" lon="5.93374">
        <ele>1314.74</ele>
        <time>2016-05-26T13:07:07Z</time>
      </trkpt>
      <trkpt lat="44.57901" lon="5.93387">
        <ele>1313.78</ele>
        <time>2016-05-26T13:07:23Z</time>
      </trkpt>
      <trkpt lat="44.57884" lon="5.93398">
        <ele>1312.82</ele>
        <time>2016-05-26T13:07:41Z</time>
      </trkpt>
      <trkpt lat="44.57868" lon="5.93415">
        <ele>1311.38</ele>
        <time>2016-05-26T13:07:59Z</time>
      </trkpt>
      <trkpt lat="44.57863" lon="5.93427">
        <ele>1310.9</ele>
        <time>2016-05-26T13:08:07Z</time>
      </trkpt>
      <trkpt lat="44.57854" lon="5.93455">
        <ele>1311.38</ele>
        <time>2016-05-26T13:08:26Z</time>
      </trkpt>
      <trkpt lat="44.57847" lon="5.93479">
        <ele>1309.45</ele>
        <time>2016-05-26T13:08:42Z</time>
      </trkpt>
      <trkpt lat="44.57834" lon="5.93499">
        <ele>1308.97</ele>
        <time>2016-05-26T13:09:00Z</time>
      </trkpt>
      <trkpt lat="44.5782" lon="5.93518">
        <ele>1307.05</ele>
        <time>2016-05-26T13:09:17Z</time>
      </trkpt>
      <trkpt lat="44.57815" lon="5.93544">
        <ele>1306.09</ele>
        <time>2016-05-26T13:09:34Z</time>
      </trkpt>
      <trkpt lat="44.5781" lon="5.9357">
        <ele>1305.61</ele>
        <time>2016-05-26T13:09:50Z</time>
      </trkpt>
      <trkpt lat="44.57801" lon="5.93598">
        <ele>1304.65</ele>
        <time>2016-05-26T13:10:08Z</time>
      </trkpt>
      <trkpt lat="44.57791" lon="5.93614">
        <ele>1304.65</ele>
        <time>2016-05-26T13:10:21Z</time>
      </trkpt>
      <trkpt lat="44.57781" lon="5.93634">
        <ele>1304.65</ele>
        <time>2016-05-26T13:10:37Z</time>
      </trkpt>
      <trkpt lat="44.57768" lon="5.93642">
        <ele>1304.65</ele>
        <time>2016-05-26T13:10:51Z</time>
      </trkpt>
      <trkpt lat="44.57752" lon="5.93635">
        <ele>1303.2</ele>
        <time>2016-05-26T13:11:08Z</time>
      </trkpt>
      <trkpt lat="44.57734" lon="5.93625">
        <ele>1300.8</ele>
        <time>2016-05-26T13:11:26Z</time>
      </trkpt>
      <trkpt lat="44.57714" lon="5.93631">
        <ele>1299.36</ele>
        <time>2016-05-26T13:11:45Z</time>
      </trkpt>
      <trkpt lat="44.577" lon="5.93633">
        <ele>1298.88</ele>
        <time>2016-05-26T13:11:59Z</time>
      </trkpt>
      <trkpt lat="44.57684" lon="5.93634">
        <ele>1298.4</ele>
        <time>2016-05-26T13:12:13Z</time>
      </trkpt>
      <trkpt lat="44.57665" lon="5.93632">
        <ele>1297.44</ele>
        <time>2016-05-26T13:12:29Z</time>
      </trkpt>
      <trkpt lat="44.57648" lon="5.93632">
        <ele>1296.48</ele>
        <time>2016-05-26T13:12:45Z</time>
      </trkpt>
      <trkpt lat="44.57631" lon="5.93631">
        <ele>1295.51</ele>
        <time>2016-05-26T13:12:59Z</time>
      </trkpt>
      <trkpt lat="44.5763" lon="5.93631">
        <ele>1295.51</ele>
        <time>2016-05-26T13:13:00Z</time>
      </trkpt>
      <trkpt lat="44.57614" lon="5.9363">
        <ele>1294.55</ele>
        <time>2016-05-26T13:13:14Z</time>
      </trkpt>
      <trkpt lat="44.57597" lon="5.93628">
        <ele>1293.11</ele>
        <time>2016-05-26T13:13:29Z</time>
      </trkpt>
      <trkpt lat="44.57581" lon="5.93626">
        <ele>1291.67</ele>
        <time>2016-05-26T13:13:43Z</time>
      </trkpt>
      <trkpt lat="44.57576" lon="5.93628">
        <ele>1291.67</ele>
        <time>2016-05-26T13:13:58Z</time>
      </trkpt>
      <trkpt lat="44.57564" lon="5.93626">
        <ele>1290.71</ele>
        <time>2016-05-26T13:14:14Z</time>
      </trkpt>
      <trkpt lat="44.57548" lon="5.93632">
        <ele>1289.75</ele>
        <time>2016-05-26T13:14:30Z</time>
      </trkpt>
      <trkpt lat="44.57531" lon="5.93633">
        <ele>1288.3</ele>
        <time>2016-05-26T13:14:48Z</time>
      </trkpt>
      <trkpt lat="44.57531" lon="5.93633">
        <ele>1288.3</ele>
        <time>2016-05-26T13:15:02Z</time>
      </trkpt>
      <trkpt lat="44.57527" lon="5.93629">
        <ele>1287.82</ele>
        <time>2016-05-26T13:15:14Z</time>
      </trkpt>
      <trkpt lat="44.57525" lon="5.93629">
        <ele>1287.82</ele>
        <time>2016-05-26T13:15:26Z</time>
      </trkpt>
      <trkpt lat="44.57526" lon="5.93627">
        <ele>1287.34</ele>
        <time>2016-05-26T13:15:43Z</time>
      </trkpt>
      <trkpt lat="44.57526" lon="5.93628">
        <ele>1287.34</ele>
        <time>2016-05-26T13:16:05Z</time>
      </trkpt>
      <trkpt lat="44.57527" lon="5.93629">
        <ele>1287.34</ele>
        <time>2016-05-26T13:16:34Z</time>
      </trkpt>
      <trkpt lat="44.57528" lon="5.93631">
        <ele>1287.34</ele>
        <time>2016-05-26T13:16:57Z</time>
      </trkpt>
      <trkpt lat="44.57529" lon="5.93634">
        <ele>1287.34</ele>
        <time>2016-05-26T13:17:10Z</time>
      </trkpt>
      <trkpt lat="44.57526" lon="5.93631">
        <ele>1286.86</ele>
        <time>2016-05-26T13:17:23Z</time>
      </trkpt>
      <trkpt lat="44.57528" lon="5.93631">
        <ele>1286.86</ele>
        <time>2016-05-26T13:17:41Z</time>
      </trkpt>
      <trkpt lat="44.57527" lon="5.93629">
        <ele>1286.86</ele>
        <time>2016-05-26T13:17:47Z</time>
      </trkpt>
    </trkseg>
  </trk>
</gpx>